<?xml version="1.0" encoding="UTF-8" standalone="no" ?>
<gpx xmlns="http://www.topografix.com/GPX/1/1" xmlns:xsi="http://www.w3.org/2001/XMLSchema-instance" xsi:schemaLocation="http://www.topografix.com/GPX/1/1 http://www.topografix.com/GPX/1/1/gpx.xsd" version="1.1" creator="VisuGPX - https://www.visugpx.com">
  <metadata>
    <name>Combe de Tardevant</name>
    <desc><![CDATA[grp_trc:[displayed]]]></desc>
  </metadata>
  <trk>
    <name><![CDATA[Ambrevetta]]></name>
    <cmt><![CDATA[09:48:30]]></cmt>
    <desc><![CDATA[comment ...]]></desc>
    <trkseg>
      <trkpt lat="45.92262" lon="6.48409">
        <ele>1458</ele>
        <time>2023-03-01T08:48:29Z</time>
      </trkpt>
      <trkpt lat="45.92262" lon="6.48409">
        <ele>1458</ele>
        <time>2023-03-01T08:48:30Z</time>
      </trkpt>
      <trkpt lat="45.92266" lon="6.48413">
        <ele>1454</ele>
        <time>2023-03-01T08:48:40Z</time>
      </trkpt>
      <trkpt lat="45.92265" lon="6.48418">
        <ele>1450</ele>
        <time>2023-03-01T08:49:48Z</time>
      </trkpt>
      <trkpt lat="45.92262" lon="6.48421">
        <ele>1449</ele>
        <time>2023-03-01T08:49:54Z</time>
      </trkpt>
      <trkpt lat="45.92253" lon="6.48425">
        <ele>1447</ele>
        <time>2023-03-01T08:50:02Z</time>
      </trkpt>
      <trkpt lat="45.92242" lon="6.48433">
        <ele>1446</ele>
        <time>2023-03-01T08:50:17Z</time>
      </trkpt>
      <trkpt lat="45.92232" lon="6.48441">
        <ele>1444</ele>
        <time>2023-03-01T08:50:30Z</time>
      </trkpt>
      <trkpt lat="45.92223" lon="6.48451">
        <ele>1443</ele>
        <time>2023-03-01T08:50:40Z</time>
      </trkpt>
      <trkpt lat="45.92222" lon="6.48455">
        <ele>1442</ele>
        <time>2023-03-01T08:50:44Z</time>
      </trkpt>
      <trkpt lat="45.92219" lon="6.48464">
        <ele>1442</ele>
        <time>2023-03-01T08:50:53Z</time>
      </trkpt>
      <trkpt lat="45.92217" lon="6.4847">
        <ele>1441</ele>
        <time>2023-03-01T08:50:58Z</time>
      </trkpt>
      <trkpt lat="45.92214" lon="6.48474">
        <ele>1441</ele>
        <time>2023-03-01T08:51:02Z</time>
      </trkpt>
      <trkpt lat="45.92211" lon="6.48477">
        <ele>1441</ele>
        <time>2023-03-01T08:51:06Z</time>
      </trkpt>
      <trkpt lat="45.92209" lon="6.4848">
        <ele>1441</ele>
        <time>2023-03-01T08:51:10Z</time>
      </trkpt>
      <trkpt lat="45.92206" lon="6.48483">
        <ele>1440</ele>
        <time>2023-03-01T08:51:13Z</time>
      </trkpt>
      <trkpt lat="45.92203" lon="6.48485">
        <ele>1440</ele>
        <time>2023-03-01T08:51:17Z</time>
      </trkpt>
      <trkpt lat="45.92201" lon="6.48487">
        <ele>1440</ele>
        <time>2023-03-01T08:51:20Z</time>
      </trkpt>
      <trkpt lat="45.92199" lon="6.4849">
        <ele>1440</ele>
        <time>2023-03-01T08:51:23Z</time>
      </trkpt>
      <trkpt lat="45.92195" lon="6.48496">
        <ele>1440</ele>
        <time>2023-03-01T08:51:30Z</time>
      </trkpt>
      <trkpt lat="45.92187" lon="6.48509">
        <ele>1439</ele>
        <time>2023-03-01T08:51:45Z</time>
      </trkpt>
      <trkpt lat="45.92186" lon="6.48513">
        <ele>1439</ele>
        <time>2023-03-01T08:51:49Z</time>
      </trkpt>
      <trkpt lat="45.92186" lon="6.48518">
        <ele>1440</ele>
        <time>2023-03-01T08:51:54Z</time>
      </trkpt>
      <trkpt lat="45.92183" lon="6.48523">
        <ele>1440</ele>
        <time>2023-03-01T08:51:59Z</time>
      </trkpt>
      <trkpt lat="45.9218" lon="6.48523">
        <ele>1440</ele>
        <time>2023-03-01T08:52:05Z</time>
      </trkpt>
      <trkpt lat="45.92177" lon="6.48528">
        <ele>1440</ele>
        <time>2023-03-01T08:52:10Z</time>
      </trkpt>
      <trkpt lat="45.92175" lon="6.48531">
        <ele>1440</ele>
        <time>2023-03-01T08:52:14Z</time>
      </trkpt>
      <trkpt lat="45.92172" lon="6.48539">
        <ele>1441</ele>
        <time>2023-03-01T08:52:23Z</time>
      </trkpt>
      <trkpt lat="45.92169" lon="6.48547">
        <ele>1442</ele>
        <time>2023-03-01T08:52:31Z</time>
      </trkpt>
      <trkpt lat="45.92167" lon="6.48555">
        <ele>1442</ele>
        <time>2023-03-01T08:52:40Z</time>
      </trkpt>
      <trkpt lat="45.92165" lon="6.48561">
        <ele>1443</ele>
        <time>2023-03-01T08:52:47Z</time>
      </trkpt>
      <trkpt lat="45.92161" lon="6.48567">
        <ele>1443</ele>
        <time>2023-03-01T08:52:54Z</time>
      </trkpt>
      <trkpt lat="45.92159" lon="6.4857">
        <ele>1444</ele>
        <time>2023-03-01T08:52:58Z</time>
      </trkpt>
      <trkpt lat="45.92158" lon="6.48574">
        <ele>1444</ele>
        <time>2023-03-01T08:53:02Z</time>
      </trkpt>
      <trkpt lat="45.92156" lon="6.48576">
        <ele>1444</ele>
        <time>2023-03-01T08:53:06Z</time>
      </trkpt>
      <trkpt lat="45.92146" lon="6.48596">
        <ele>1446</ele>
        <time>2023-03-01T08:53:35Z</time>
      </trkpt>
      <trkpt lat="45.92146" lon="6.48601">
        <ele>1447</ele>
        <time>2023-03-01T08:53:40Z</time>
      </trkpt>
      <trkpt lat="45.92137" lon="6.48615">
        <ele>1449</ele>
        <time>2023-03-01T08:54:04Z</time>
      </trkpt>
      <trkpt lat="45.92133" lon="6.48623">
        <ele>1450</ele>
        <time>2023-03-01T08:54:14Z</time>
      </trkpt>
      <trkpt lat="45.92131" lon="6.48626">
        <ele>1450</ele>
        <time>2023-03-01T08:54:21Z</time>
      </trkpt>
      <trkpt lat="45.9213" lon="6.4863">
        <ele>1451</ele>
        <time>2023-03-01T08:54:27Z</time>
      </trkpt>
      <trkpt lat="45.92122" lon="6.48643">
        <ele>1453</ele>
        <time>2023-03-01T08:54:49Z</time>
      </trkpt>
      <trkpt lat="45.9212" lon="6.48652">
        <ele>1455</ele>
        <time>2023-03-01T08:55:17Z</time>
      </trkpt>
      <trkpt lat="45.9212" lon="6.48657">
        <ele>1455</ele>
        <time>2023-03-01T08:55:48Z</time>
      </trkpt>
      <trkpt lat="45.92126" lon="6.48669">
        <ele>1456</ele>
        <time>2023-03-01T08:55:56Z</time>
      </trkpt>
      <trkpt lat="45.92154" lon="6.48706">
        <ele>1456</ele>
        <time>2023-03-01T08:56:26Z</time>
      </trkpt>
      <trkpt lat="45.92156" lon="6.48711">
        <ele>1456</ele>
        <time>2023-03-01T08:56:29Z</time>
      </trkpt>
      <trkpt lat="45.92162" lon="6.48727">
        <ele>1456</ele>
        <time>2023-03-01T08:56:38Z</time>
      </trkpt>
      <trkpt lat="45.92164" lon="6.48738">
        <ele>1457</ele>
        <time>2023-03-01T08:56:44Z</time>
      </trkpt>
      <trkpt lat="45.92176" lon="6.48794">
        <ele>1457</ele>
        <time>2023-03-01T08:57:16Z</time>
      </trkpt>
      <trkpt lat="45.92178" lon="6.48804">
        <ele>1457</ele>
        <time>2023-03-01T08:57:22Z</time>
      </trkpt>
      <trkpt lat="45.92177" lon="6.4882">
        <ele>1457</ele>
        <time>2023-03-01T08:57:31Z</time>
      </trkpt>
      <trkpt lat="45.92165" lon="6.48854">
        <ele>1457</ele>
        <time>2023-03-01T08:57:43Z</time>
      </trkpt>
      <trkpt lat="45.92164" lon="6.48863">
        <ele>1457</ele>
        <time>2023-03-01T08:57:49Z</time>
      </trkpt>
      <trkpt lat="45.92164" lon="6.48868">
        <ele>1457</ele>
        <time>2023-03-01T08:57:52Z</time>
      </trkpt>
      <trkpt lat="45.92165" lon="6.48872">
        <ele>1457</ele>
        <time>2023-03-01T08:57:54Z</time>
      </trkpt>
      <trkpt lat="45.92167" lon="6.48875">
        <ele>1457</ele>
        <time>2023-03-01T08:57:57Z</time>
      </trkpt>
      <trkpt lat="45.9217" lon="6.48882">
        <ele>1457</ele>
        <time>2023-03-01T08:58:06Z</time>
      </trkpt>
      <trkpt lat="45.92178" lon="6.48888">
        <ele>1457</ele>
        <time>2023-03-01T08:58:19Z</time>
      </trkpt>
      <trkpt lat="45.92182" lon="6.48891">
        <ele>1457</ele>
        <time>2023-03-01T08:58:23Z</time>
      </trkpt>
      <trkpt lat="45.92197" lon="6.48913">
        <ele>1456</ele>
        <time>2023-03-01T08:58:39Z</time>
      </trkpt>
      <trkpt lat="45.92201" lon="6.4892">
        <ele>1456</ele>
        <time>2023-03-01T08:58:44Z</time>
      </trkpt>
      <trkpt lat="45.92213" lon="6.48937">
        <ele>1456</ele>
        <time>2023-03-01T08:59:03Z</time>
      </trkpt>
      <trkpt lat="45.92216" lon="6.48941">
        <ele>1456</ele>
        <time>2023-03-01T08:59:08Z</time>
      </trkpt>
      <trkpt lat="45.92222" lon="6.48948">
        <ele>1456</ele>
        <time>2023-03-01T08:59:17Z</time>
      </trkpt>
      <trkpt lat="45.92228" lon="6.48956">
        <ele>1456</ele>
        <time>2023-03-01T08:59:26Z</time>
      </trkpt>
      <trkpt lat="45.92232" lon="6.48959">
        <ele>1457</ele>
        <time>2023-03-01T08:59:31Z</time>
      </trkpt>
      <trkpt lat="45.92239" lon="6.48985">
        <ele>1457</ele>
        <time>2023-03-01T08:59:50Z</time>
      </trkpt>
      <trkpt lat="45.9225" lon="6.48997">
        <ele>1458</ele>
        <time>2023-03-01T09:00:06Z</time>
      </trkpt>
      <trkpt lat="45.92254" lon="6.49002">
        <ele>1458</ele>
        <time>2023-03-01T09:00:10Z</time>
      </trkpt>
      <trkpt lat="45.92264" lon="6.49011">
        <ele>1459</ele>
        <time>2023-03-01T09:00:20Z</time>
      </trkpt>
      <trkpt lat="45.92268" lon="6.49017">
        <ele>1459</ele>
        <time>2023-03-01T09:00:27Z</time>
      </trkpt>
      <trkpt lat="45.92279" lon="6.49031">
        <ele>1460</ele>
        <time>2023-03-01T09:00:44Z</time>
      </trkpt>
      <trkpt lat="45.92282" lon="6.49035">
        <ele>1460</ele>
        <time>2023-03-01T09:00:50Z</time>
      </trkpt>
      <trkpt lat="45.92287" lon="6.49043">
        <ele>1461</ele>
        <time>2023-03-01T09:01:02Z</time>
      </trkpt>
      <trkpt lat="45.92304" lon="6.49064">
        <ele>1463</ele>
        <time>2023-03-01T09:01:38Z</time>
      </trkpt>
      <trkpt lat="45.92307" lon="6.49067">
        <ele>1464</ele>
        <time>2023-03-01T09:01:43Z</time>
      </trkpt>
      <trkpt lat="45.92307" lon="6.49065">
        <ele>1465</ele>
        <time>2023-03-01T09:02:09Z</time>
      </trkpt>
      <trkpt lat="45.92311" lon="6.49068">
        <ele>1466</ele>
        <time>2023-03-01T09:02:43Z</time>
      </trkpt>
      <trkpt lat="45.92318" lon="6.49073">
        <ele>1467</ele>
        <time>2023-03-01T09:02:53Z</time>
      </trkpt>
      <trkpt lat="45.92324" lon="6.49073">
        <ele>1468</ele>
        <time>2023-03-01T09:03:03Z</time>
      </trkpt>
      <trkpt lat="45.92329" lon="6.49078">
        <ele>1469</ele>
        <time>2023-03-01T09:03:10Z</time>
      </trkpt>
      <trkpt lat="45.92334" lon="6.49081">
        <ele>1469</ele>
        <time>2023-03-01T09:03:14Z</time>
      </trkpt>
      <trkpt lat="45.92339" lon="6.49085">
        <ele>1469</ele>
        <time>2023-03-01T09:03:19Z</time>
      </trkpt>
      <trkpt lat="45.92344" lon="6.4909">
        <ele>1470</ele>
        <time>2023-03-01T09:03:28Z</time>
      </trkpt>
      <trkpt lat="45.92352" lon="6.49102">
        <ele>1470</ele>
        <time>2023-03-01T09:03:42Z</time>
      </trkpt>
      <trkpt lat="45.92358" lon="6.49108">
        <ele>1470</ele>
        <time>2023-03-01T09:03:54Z</time>
      </trkpt>
      <trkpt lat="45.92363" lon="6.49114">
        <ele>1471</ele>
        <time>2023-03-01T09:04:04Z</time>
      </trkpt>
      <trkpt lat="45.92368" lon="6.49119">
        <ele>1471</ele>
        <time>2023-03-01T09:04:11Z</time>
      </trkpt>
      <trkpt lat="45.92374" lon="6.49121">
        <ele>1471</ele>
        <time>2023-03-01T09:04:18Z</time>
      </trkpt>
      <trkpt lat="45.92379" lon="6.49123">
        <ele>1471</ele>
        <time>2023-03-01T09:04:34Z</time>
      </trkpt>
      <trkpt lat="45.92385" lon="6.49121">
        <ele>1471</ele>
        <time>2023-03-01T09:04:39Z</time>
      </trkpt>
      <trkpt lat="45.92397" lon="6.49118">
        <ele>1472</ele>
        <time>2023-03-01T09:04:52Z</time>
      </trkpt>
      <trkpt lat="45.92403" lon="6.49118">
        <ele>1473</ele>
        <time>2023-03-01T09:04:59Z</time>
      </trkpt>
      <trkpt lat="45.92409" lon="6.49119">
        <ele>1473</ele>
        <time>2023-03-01T09:05:03Z</time>
      </trkpt>
      <trkpt lat="45.92416" lon="6.49119">
        <ele>1474</ele>
        <time>2023-03-01T09:05:10Z</time>
      </trkpt>
      <trkpt lat="45.92428" lon="6.49117">
        <ele>1475</ele>
        <time>2023-03-01T09:05:28Z</time>
      </trkpt>
      <trkpt lat="45.9244" lon="6.49122">
        <ele>1477</ele>
        <time>2023-03-01T09:05:40Z</time>
      </trkpt>
      <trkpt lat="45.92445" lon="6.49127">
        <ele>1478</ele>
        <time>2023-03-01T09:05:45Z</time>
      </trkpt>
      <trkpt lat="45.9245" lon="6.49129">
        <ele>1478</ele>
        <time>2023-03-01T09:05:50Z</time>
      </trkpt>
      <trkpt lat="45.92454" lon="6.49132">
        <ele>1479</ele>
        <time>2023-03-01T09:05:54Z</time>
      </trkpt>
      <trkpt lat="45.92457" lon="6.49136">
        <ele>1479</ele>
        <time>2023-03-01T09:05:59Z</time>
      </trkpt>
      <trkpt lat="45.9246" lon="6.49139">
        <ele>1480</ele>
        <time>2023-03-01T09:06:06Z</time>
      </trkpt>
      <trkpt lat="45.92466" lon="6.49146">
        <ele>1480</ele>
        <time>2023-03-01T09:06:17Z</time>
      </trkpt>
      <trkpt lat="45.92474" lon="6.49161">
        <ele>1482</ele>
        <time>2023-03-01T09:06:31Z</time>
      </trkpt>
      <trkpt lat="45.92475" lon="6.49172">
        <ele>1482</ele>
        <time>2023-03-01T09:06:41Z</time>
      </trkpt>
      <trkpt lat="45.92475" lon="6.49181">
        <ele>1483</ele>
        <time>2023-03-01T09:06:49Z</time>
      </trkpt>
      <trkpt lat="45.92474" lon="6.49178">
        <ele>1486</ele>
        <time>2023-03-01T09:08:47Z</time>
      </trkpt>
      <trkpt lat="45.92478" lon="6.49185">
        <ele>1487</ele>
        <time>2023-03-01T09:12:12Z</time>
      </trkpt>
      <trkpt lat="45.92496" lon="6.49201">
        <ele>1492</ele>
        <time>2023-03-01T09:12:25Z</time>
      </trkpt>
      <trkpt lat="45.925" lon="6.49203">
        <ele>1492</ele>
        <time>2023-03-01T09:12:27Z</time>
      </trkpt>
      <trkpt lat="45.92514" lon="6.49206">
        <ele>1493</ele>
        <time>2023-03-01T09:12:42Z</time>
      </trkpt>
      <trkpt lat="45.9252" lon="6.49209">
        <ele>1493</ele>
        <time>2023-03-01T09:12:49Z</time>
      </trkpt>
      <trkpt lat="45.92525" lon="6.4921">
        <ele>1494</ele>
        <time>2023-03-01T09:12:55Z</time>
      </trkpt>
      <trkpt lat="45.92541" lon="6.49218">
        <ele>1494</ele>
        <time>2023-03-01T09:13:10Z</time>
      </trkpt>
      <trkpt lat="45.92568" lon="6.49221">
        <ele>1495</ele>
        <time>2023-03-01T09:13:33Z</time>
      </trkpt>
      <trkpt lat="45.92582" lon="6.49223">
        <ele>1495</ele>
        <time>2023-03-01T09:13:41Z</time>
      </trkpt>
      <trkpt lat="45.92601" lon="6.49228">
        <ele>1495</ele>
        <time>2023-03-01T09:13:55Z</time>
      </trkpt>
      <trkpt lat="45.92615" lon="6.49232">
        <ele>1495</ele>
        <time>2023-03-01T09:14:04Z</time>
      </trkpt>
      <trkpt lat="45.92623" lon="6.4924">
        <ele>1495</ele>
        <time>2023-03-01T09:14:12Z</time>
      </trkpt>
      <trkpt lat="45.92637" lon="6.49255">
        <ele>1494</ele>
        <time>2023-03-01T09:14:26Z</time>
      </trkpt>
      <trkpt lat="45.9265" lon="6.49263">
        <ele>1494</ele>
        <time>2023-03-01T09:14:36Z</time>
      </trkpt>
      <trkpt lat="45.92665" lon="6.49269">
        <ele>1494</ele>
        <time>2023-03-01T09:14:45Z</time>
      </trkpt>
      <trkpt lat="45.92675" lon="6.49277">
        <ele>1494</ele>
        <time>2023-03-01T09:14:54Z</time>
      </trkpt>
      <trkpt lat="45.9268" lon="6.49279">
        <ele>1494</ele>
        <time>2023-03-01T09:14:57Z</time>
      </trkpt>
      <trkpt lat="45.92695" lon="6.49293">
        <ele>1493</ele>
        <time>2023-03-01T09:15:09Z</time>
      </trkpt>
      <trkpt lat="45.92697" lon="6.49299">
        <ele>1493</ele>
        <time>2023-03-01T09:15:14Z</time>
      </trkpt>
      <trkpt lat="45.927" lon="6.49304">
        <ele>1493</ele>
        <time>2023-03-01T09:15:18Z</time>
      </trkpt>
      <trkpt lat="45.92705" lon="6.49314">
        <ele>1493</ele>
        <time>2023-03-01T09:15:28Z</time>
      </trkpt>
      <trkpt lat="45.92706" lon="6.49319">
        <ele>1493</ele>
        <time>2023-03-01T09:15:32Z</time>
      </trkpt>
      <trkpt lat="45.92706" lon="6.49325">
        <ele>1493</ele>
        <time>2023-03-01T09:15:36Z</time>
      </trkpt>
      <trkpt lat="45.9271" lon="6.49343">
        <ele>1492</ele>
        <time>2023-03-01T09:15:48Z</time>
      </trkpt>
      <trkpt lat="45.92713" lon="6.49353">
        <ele>1492</ele>
        <time>2023-03-01T09:15:59Z</time>
      </trkpt>
      <trkpt lat="45.92716" lon="6.49365">
        <ele>1492</ele>
        <time>2023-03-01T09:16:08Z</time>
      </trkpt>
      <trkpt lat="45.92719" lon="6.49371">
        <ele>1492</ele>
        <time>2023-03-01T09:16:16Z</time>
      </trkpt>
      <trkpt lat="45.92723" lon="6.49374">
        <ele>1492</ele>
        <time>2023-03-01T09:16:21Z</time>
      </trkpt>
      <trkpt lat="45.92725" lon="6.49383">
        <ele>1492</ele>
        <time>2023-03-01T09:16:26Z</time>
      </trkpt>
      <trkpt lat="45.92732" lon="6.49408">
        <ele>1492</ele>
        <time>2023-03-01T09:16:44Z</time>
      </trkpt>
      <trkpt lat="45.92729" lon="6.49415">
        <ele>1492</ele>
        <time>2023-03-01T09:18:25Z</time>
      </trkpt>
      <trkpt lat="45.92729" lon="6.49423">
        <ele>1492</ele>
        <time>2023-03-01T09:18:27Z</time>
      </trkpt>
      <trkpt lat="45.92728" lon="6.49434">
        <ele>1492</ele>
        <time>2023-03-01T09:18:35Z</time>
      </trkpt>
      <trkpt lat="45.92726" lon="6.4944">
        <ele>1492</ele>
        <time>2023-03-01T09:18:43Z</time>
      </trkpt>
      <trkpt lat="45.92723" lon="6.49443">
        <ele>1492</ele>
        <time>2023-03-01T09:18:48Z</time>
      </trkpt>
      <trkpt lat="45.92721" lon="6.49448">
        <ele>1492</ele>
        <time>2023-03-01T09:18:54Z</time>
      </trkpt>
      <trkpt lat="45.92718" lon="6.49455">
        <ele>1492</ele>
        <time>2023-03-01T09:20:07Z</time>
      </trkpt>
      <trkpt lat="45.92714" lon="6.49457">
        <ele>1493</ele>
        <time>2023-03-01T09:20:10Z</time>
      </trkpt>
      <trkpt lat="45.9271" lon="6.49459">
        <ele>1493</ele>
        <time>2023-03-01T09:20:14Z</time>
      </trkpt>
      <trkpt lat="45.92702" lon="6.49455">
        <ele>1493</ele>
        <time>2023-03-01T09:20:24Z</time>
      </trkpt>
      <trkpt lat="45.92695" lon="6.49454">
        <ele>1494</ele>
        <time>2023-03-01T09:20:29Z</time>
      </trkpt>
      <trkpt lat="45.92683" lon="6.49453">
        <ele>1494</ele>
        <time>2023-03-01T09:20:41Z</time>
      </trkpt>
      <trkpt lat="45.92677" lon="6.49453">
        <ele>1494</ele>
        <time>2023-03-01T09:20:47Z</time>
      </trkpt>
      <trkpt lat="45.92662" lon="6.49465">
        <ele>1495</ele>
        <time>2023-03-01T09:21:07Z</time>
      </trkpt>
      <trkpt lat="45.92649" lon="6.49484">
        <ele>1496</ele>
        <time>2023-03-01T09:21:38Z</time>
      </trkpt>
      <trkpt lat="45.92645" lon="6.49493">
        <ele>1497</ele>
        <time>2023-03-01T09:21:51Z</time>
      </trkpt>
      <trkpt lat="45.9264" lon="6.49499">
        <ele>1497</ele>
        <time>2023-03-01T09:21:58Z</time>
      </trkpt>
      <trkpt lat="45.92637" lon="6.49531">
        <ele>1498</ele>
        <time>2023-03-01T09:22:28Z</time>
      </trkpt>
      <trkpt lat="45.92637" lon="6.49537">
        <ele>1498</ele>
        <time>2023-03-01T09:22:35Z</time>
      </trkpt>
      <trkpt lat="45.92638" lon="6.49542">
        <ele>1498</ele>
        <time>2023-03-01T09:22:41Z</time>
      </trkpt>
      <trkpt lat="45.92638" lon="6.4955">
        <ele>1499</ele>
        <time>2023-03-01T09:22:49Z</time>
      </trkpt>
      <trkpt lat="45.92638" lon="6.49559">
        <ele>1499</ele>
        <time>2023-03-01T09:22:54Z</time>
      </trkpt>
      <trkpt lat="45.92639" lon="6.49567">
        <ele>1499</ele>
        <time>2023-03-01T09:23:02Z</time>
      </trkpt>
      <trkpt lat="45.92639" lon="6.49575">
        <ele>1499</ele>
        <time>2023-03-01T09:23:10Z</time>
      </trkpt>
      <trkpt lat="45.92637" lon="6.49582">
        <ele>1499</ele>
        <time>2023-03-01T09:23:19Z</time>
      </trkpt>
      <trkpt lat="45.92641" lon="6.49607">
        <ele>1501</ele>
        <time>2023-03-01T09:23:50Z</time>
      </trkpt>
      <trkpt lat="45.92639" lon="6.49616">
        <ele>1501</ele>
        <time>2023-03-01T09:23:56Z</time>
      </trkpt>
      <trkpt lat="45.92629" lon="6.49637">
        <ele>1503</ele>
        <time>2023-03-01T09:24:20Z</time>
      </trkpt>
      <trkpt lat="45.92628" lon="6.49645">
        <ele>1504</ele>
        <time>2023-03-01T09:24:27Z</time>
      </trkpt>
      <trkpt lat="45.92627" lon="6.49678">
        <ele>1505</ele>
        <time>2023-03-01T09:24:58Z</time>
      </trkpt>
      <trkpt lat="45.92626" lon="6.49687">
        <ele>1506</ele>
        <time>2023-03-01T09:25:07Z</time>
      </trkpt>
      <trkpt lat="45.92626" lon="6.49696">
        <ele>1506</ele>
        <time>2023-03-01T09:25:14Z</time>
      </trkpt>
      <trkpt lat="45.92631" lon="6.49703">
        <ele>1507</ele>
        <time>2023-03-01T09:25:25Z</time>
      </trkpt>
      <trkpt lat="45.92639" lon="6.49715">
        <ele>1507</ele>
        <time>2023-03-01T09:25:40Z</time>
      </trkpt>
      <trkpt lat="45.92646" lon="6.49731">
        <ele>1507</ele>
        <time>2023-03-01T09:25:55Z</time>
      </trkpt>
      <trkpt lat="45.92647" lon="6.49739">
        <ele>1507</ele>
        <time>2023-03-01T09:26:01Z</time>
      </trkpt>
      <trkpt lat="45.9265" lon="6.49746">
        <ele>1507</ele>
        <time>2023-03-01T09:26:10Z</time>
      </trkpt>
      <trkpt lat="45.92653" lon="6.49753">
        <ele>1508</ele>
        <time>2023-03-01T09:26:17Z</time>
      </trkpt>
      <trkpt lat="45.92652" lon="6.49761">
        <ele>1508</ele>
        <time>2023-03-01T09:26:24Z</time>
      </trkpt>
      <trkpt lat="45.92655" lon="6.49769">
        <ele>1509</ele>
        <time>2023-03-01T09:26:35Z</time>
      </trkpt>
      <trkpt lat="45.92655" lon="6.49777">
        <ele>1510</ele>
        <time>2023-03-01T09:26:46Z</time>
      </trkpt>
      <trkpt lat="45.92657" lon="6.49785">
        <ele>1512</ele>
        <time>2023-03-01T09:27:08Z</time>
      </trkpt>
      <trkpt lat="45.92657" lon="6.49793">
        <ele>1513</ele>
        <time>2023-03-01T09:27:22Z</time>
      </trkpt>
      <trkpt lat="45.92663" lon="6.49807">
        <ele>1515</ele>
        <time>2023-03-01T09:27:38Z</time>
      </trkpt>
      <trkpt lat="45.92672" lon="6.4982">
        <ele>1517</ele>
        <time>2023-03-01T09:27:56Z</time>
      </trkpt>
      <trkpt lat="45.92674" lon="6.49828">
        <ele>1518</ele>
        <time>2023-03-01T09:28:07Z</time>
      </trkpt>
      <trkpt lat="45.92675" lon="6.49836">
        <ele>1519</ele>
        <time>2023-03-01T09:28:16Z</time>
      </trkpt>
      <trkpt lat="45.92674" lon="6.49844">
        <ele>1520</ele>
        <time>2023-03-01T09:28:27Z</time>
      </trkpt>
      <trkpt lat="45.92676" lon="6.49859">
        <ele>1521</ele>
        <time>2023-03-01T09:28:37Z</time>
      </trkpt>
      <trkpt lat="45.92676" lon="6.49867">
        <ele>1522</ele>
        <time>2023-03-01T09:29:03Z</time>
      </trkpt>
      <trkpt lat="45.92676" lon="6.49892">
        <ele>1525</ele>
        <time>2023-03-01T09:29:24Z</time>
      </trkpt>
      <trkpt lat="45.92675" lon="6.49916">
        <ele>1527</ele>
        <time>2023-03-01T09:29:57Z</time>
      </trkpt>
      <trkpt lat="45.9267" lon="6.49914">
        <ele>1528</ele>
        <time>2023-03-01T09:32:51Z</time>
      </trkpt>
      <trkpt lat="45.9267" lon="6.49919">
        <ele>1528</ele>
        <time>2023-03-01T09:35:56Z</time>
      </trkpt>
      <trkpt lat="45.92675" lon="6.49924">
        <ele>1528</ele>
        <time>2023-03-01T09:37:40Z</time>
      </trkpt>
      <trkpt lat="45.92677" lon="6.4993">
        <ele>1529</ele>
        <time>2023-03-01T09:37:45Z</time>
      </trkpt>
      <trkpt lat="45.92676" lon="6.49941">
        <ele>1530</ele>
        <time>2023-03-01T09:38:00Z</time>
      </trkpt>
      <trkpt lat="45.92675" lon="6.49947">
        <ele>1530</ele>
        <time>2023-03-01T09:38:09Z</time>
      </trkpt>
      <trkpt lat="45.92679" lon="6.49958">
        <ele>1530</ele>
        <time>2023-03-01T09:38:22Z</time>
      </trkpt>
      <trkpt lat="45.9268" lon="6.49965">
        <ele>1531</ele>
        <time>2023-03-01T09:38:37Z</time>
      </trkpt>
      <trkpt lat="45.92685" lon="6.49974">
        <ele>1532</ele>
        <time>2023-03-01T09:38:56Z</time>
      </trkpt>
      <trkpt lat="45.92686" lon="6.4998">
        <ele>1534</ele>
        <time>2023-03-01T09:39:06Z</time>
      </trkpt>
      <trkpt lat="45.92685" lon="6.49985">
        <ele>1535</ele>
        <time>2023-03-01T09:39:13Z</time>
      </trkpt>
      <trkpt lat="45.92684" lon="6.4999">
        <ele>1535</ele>
        <time>2023-03-01T09:39:19Z</time>
      </trkpt>
      <trkpt lat="45.92683" lon="6.49995">
        <ele>1536</ele>
        <time>2023-03-01T09:39:25Z</time>
      </trkpt>
      <trkpt lat="45.92683" lon="6.5">
        <ele>1537</ele>
        <time>2023-03-01T09:39:33Z</time>
      </trkpt>
      <trkpt lat="45.92684" lon="6.50004">
        <ele>1537</ele>
        <time>2023-03-01T09:39:37Z</time>
      </trkpt>
      <trkpt lat="45.92684" lon="6.50012">
        <ele>1538</ele>
        <time>2023-03-01T09:39:47Z</time>
      </trkpt>
      <trkpt lat="45.92684" lon="6.50016">
        <ele>1538</ele>
        <time>2023-03-01T09:39:53Z</time>
      </trkpt>
      <trkpt lat="45.92682" lon="6.50021">
        <ele>1539</ele>
        <time>2023-03-01T09:40:03Z</time>
      </trkpt>
      <trkpt lat="45.92678" lon="6.50022">
        <ele>1540</ele>
        <time>2023-03-01T09:40:11Z</time>
      </trkpt>
      <trkpt lat="45.92674" lon="6.50024">
        <ele>1541</ele>
        <time>2023-03-01T09:40:22Z</time>
      </trkpt>
      <trkpt lat="45.92671" lon="6.50027">
        <ele>1541</ele>
        <time>2023-03-01T09:40:30Z</time>
      </trkpt>
      <trkpt lat="45.92673" lon="6.50032">
        <ele>1542</ele>
        <time>2023-03-01T09:40:36Z</time>
      </trkpt>
      <trkpt lat="45.92673" lon="6.50038">
        <ele>1543</ele>
        <time>2023-03-01T09:40:42Z</time>
      </trkpt>
      <trkpt lat="45.92674" lon="6.50046">
        <ele>1545</ele>
        <time>2023-03-01T09:40:53Z</time>
      </trkpt>
      <trkpt lat="45.92678" lon="6.50054">
        <ele>1546</ele>
        <time>2023-03-01T09:41:04Z</time>
      </trkpt>
      <trkpt lat="45.9268" lon="6.50058">
        <ele>1547</ele>
        <time>2023-03-01T09:41:14Z</time>
      </trkpt>
      <trkpt lat="45.92684" lon="6.50061">
        <ele>1548</ele>
        <time>2023-03-01T09:41:21Z</time>
      </trkpt>
      <trkpt lat="45.92687" lon="6.50063">
        <ele>1549</ele>
        <time>2023-03-01T09:41:28Z</time>
      </trkpt>
      <trkpt lat="45.9269" lon="6.50067">
        <ele>1549</ele>
        <time>2023-03-01T09:41:35Z</time>
      </trkpt>
      <trkpt lat="45.92687" lon="6.5007">
        <ele>1551</ele>
        <time>2023-03-01T09:41:53Z</time>
      </trkpt>
      <trkpt lat="45.92684" lon="6.50075">
        <ele>1552</ele>
        <time>2023-03-01T09:41:57Z</time>
      </trkpt>
      <trkpt lat="45.92685" lon="6.50079">
        <ele>1552</ele>
        <time>2023-03-01T09:42:03Z</time>
      </trkpt>
      <trkpt lat="45.92685" lon="6.50083">
        <ele>1553</ele>
        <time>2023-03-01T09:42:06Z</time>
      </trkpt>
      <trkpt lat="45.92687" lon="6.50088">
        <ele>1554</ele>
        <time>2023-03-01T09:42:16Z</time>
      </trkpt>
      <trkpt lat="45.9269" lon="6.5009">
        <ele>1555</ele>
        <time>2023-03-01T09:42:22Z</time>
      </trkpt>
      <trkpt lat="45.92692" lon="6.50093">
        <ele>1556</ele>
        <time>2023-03-01T09:42:27Z</time>
      </trkpt>
      <trkpt lat="45.92695" lon="6.50098">
        <ele>1556</ele>
        <time>2023-03-01T09:42:33Z</time>
      </trkpt>
      <trkpt lat="45.92696" lon="6.50103">
        <ele>1558</ele>
        <time>2023-03-01T09:42:40Z</time>
      </trkpt>
      <trkpt lat="45.92698" lon="6.50108">
        <ele>1558</ele>
        <time>2023-03-01T09:42:46Z</time>
      </trkpt>
      <trkpt lat="45.92703" lon="6.50109">
        <ele>1560</ele>
        <time>2023-03-01T09:43:22Z</time>
      </trkpt>
      <trkpt lat="45.92709" lon="6.50107">
        <ele>1562</ele>
        <time>2023-03-01T09:43:34Z</time>
      </trkpt>
      <trkpt lat="45.92715" lon="6.50109">
        <ele>1562</ele>
        <time>2023-03-01T09:43:41Z</time>
      </trkpt>
      <trkpt lat="45.9272" lon="6.5011">
        <ele>1563</ele>
        <time>2023-03-01T09:43:48Z</time>
      </trkpt>
      <trkpt lat="45.92735" lon="6.50125">
        <ele>1565</ele>
        <time>2023-03-01T09:44:11Z</time>
      </trkpt>
      <trkpt lat="45.92736" lon="6.50133">
        <ele>1565</ele>
        <time>2023-03-01T09:44:20Z</time>
      </trkpt>
      <trkpt lat="45.92738" lon="6.50138">
        <ele>1566</ele>
        <time>2023-03-01T09:44:26Z</time>
      </trkpt>
      <trkpt lat="45.9274" lon="6.50143">
        <ele>1567</ele>
        <time>2023-03-01T09:44:32Z</time>
      </trkpt>
      <trkpt lat="45.92744" lon="6.50148">
        <ele>1567</ele>
        <time>2023-03-01T09:44:41Z</time>
      </trkpt>
      <trkpt lat="45.92748" lon="6.50156">
        <ele>1569</ele>
        <time>2023-03-01T09:44:50Z</time>
      </trkpt>
      <trkpt lat="45.92751" lon="6.50159">
        <ele>1570</ele>
        <time>2023-03-01T09:44:58Z</time>
      </trkpt>
      <trkpt lat="45.92757" lon="6.50168">
        <ele>1572</ele>
        <time>2023-03-01T09:45:11Z</time>
      </trkpt>
      <trkpt lat="45.92759" lon="6.50173">
        <ele>1572</ele>
        <time>2023-03-01T09:45:18Z</time>
      </trkpt>
      <trkpt lat="45.9276" lon="6.50178">
        <ele>1573</ele>
        <time>2023-03-01T09:45:26Z</time>
      </trkpt>
      <trkpt lat="45.92762" lon="6.50184">
        <ele>1574</ele>
        <time>2023-03-01T09:45:32Z</time>
      </trkpt>
      <trkpt lat="45.92761" lon="6.50189">
        <ele>1575</ele>
        <time>2023-03-01T09:45:37Z</time>
      </trkpt>
      <trkpt lat="45.92764" lon="6.50192">
        <ele>1575</ele>
        <time>2023-03-01T09:45:52Z</time>
      </trkpt>
      <trkpt lat="45.92764" lon="6.50198">
        <ele>1577</ele>
        <time>2023-03-01T09:46:05Z</time>
      </trkpt>
      <trkpt lat="45.92765" lon="6.50203">
        <ele>1577</ele>
        <time>2023-03-01T09:46:10Z</time>
      </trkpt>
      <trkpt lat="45.9277" lon="6.50207">
        <ele>1578</ele>
        <time>2023-03-01T09:46:21Z</time>
      </trkpt>
      <trkpt lat="45.92776" lon="6.50209">
        <ele>1579</ele>
        <time>2023-03-01T09:46:30Z</time>
      </trkpt>
      <trkpt lat="45.92781" lon="6.50214">
        <ele>1579</ele>
        <time>2023-03-01T09:46:45Z</time>
      </trkpt>
      <trkpt lat="45.92786" lon="6.50219">
        <ele>1580</ele>
        <time>2023-03-01T09:46:52Z</time>
      </trkpt>
      <trkpt lat="45.92791" lon="6.50229">
        <ele>1581</ele>
        <time>2023-03-01T09:47:03Z</time>
      </trkpt>
      <trkpt lat="45.92794" lon="6.50236">
        <ele>1582</ele>
        <time>2023-03-01T09:47:10Z</time>
      </trkpt>
      <trkpt lat="45.92799" lon="6.50242">
        <ele>1583</ele>
        <time>2023-03-01T09:47:23Z</time>
      </trkpt>
      <trkpt lat="45.92803" lon="6.50247">
        <ele>1583</ele>
        <time>2023-03-01T09:47:28Z</time>
      </trkpt>
      <trkpt lat="45.92806" lon="6.50253">
        <ele>1584</ele>
        <time>2023-03-01T09:47:42Z</time>
      </trkpt>
      <trkpt lat="45.92807" lon="6.50262">
        <ele>1585</ele>
        <time>2023-03-01T09:47:49Z</time>
      </trkpt>
      <trkpt lat="45.92807" lon="6.50266">
        <ele>1586</ele>
        <time>2023-03-01T09:48:05Z</time>
      </trkpt>
      <trkpt lat="45.92805" lon="6.5027">
        <ele>1587</ele>
        <time>2023-03-01T09:48:11Z</time>
      </trkpt>
      <trkpt lat="45.92806" lon="6.50275">
        <ele>1587</ele>
        <time>2023-03-01T09:48:19Z</time>
      </trkpt>
      <trkpt lat="45.92808" lon="6.50285">
        <ele>1589</ele>
        <time>2023-03-01T09:48:35Z</time>
      </trkpt>
      <trkpt lat="45.92808" lon="6.50289">
        <ele>1590</ele>
        <time>2023-03-01T09:48:39Z</time>
      </trkpt>
      <trkpt lat="45.92812" lon="6.50294">
        <ele>1591</ele>
        <time>2023-03-01T09:48:50Z</time>
      </trkpt>
      <trkpt lat="45.92823" lon="6.503">
        <ele>1593</ele>
        <time>2023-03-01T09:49:09Z</time>
      </trkpt>
      <trkpt lat="45.92835" lon="6.50303">
        <ele>1596</ele>
        <time>2023-03-01T09:49:26Z</time>
      </trkpt>
      <trkpt lat="45.9284" lon="6.50302">
        <ele>1597</ele>
        <time>2023-03-01T09:49:33Z</time>
      </trkpt>
      <trkpt lat="45.92844" lon="6.50312">
        <ele>1598</ele>
        <time>2023-03-01T09:50:07Z</time>
      </trkpt>
      <trkpt lat="45.92848" lon="6.50318">
        <ele>1600</ele>
        <time>2023-03-01T09:50:18Z</time>
      </trkpt>
      <trkpt lat="45.9285" lon="6.50325">
        <ele>1601</ele>
        <time>2023-03-01T09:50:30Z</time>
      </trkpt>
      <trkpt lat="45.92851" lon="6.50334">
        <ele>1603</ele>
        <time>2023-03-01T09:50:45Z</time>
      </trkpt>
      <trkpt lat="45.92857" lon="6.50337">
        <ele>1603</ele>
        <time>2023-03-01T09:50:55Z</time>
      </trkpt>
      <trkpt lat="45.92861" lon="6.50344">
        <ele>1604</ele>
        <time>2023-03-01T09:51:07Z</time>
      </trkpt>
      <trkpt lat="45.92865" lon="6.50349">
        <ele>1604</ele>
        <time>2023-03-01T09:51:17Z</time>
      </trkpt>
      <trkpt lat="45.92868" lon="6.50356">
        <ele>1606</ele>
        <time>2023-03-01T09:51:25Z</time>
      </trkpt>
      <trkpt lat="45.92871" lon="6.50364">
        <ele>1607</ele>
        <time>2023-03-01T09:51:41Z</time>
      </trkpt>
      <trkpt lat="45.92876" lon="6.50372">
        <ele>1609</ele>
        <time>2023-03-01T09:51:56Z</time>
      </trkpt>
      <trkpt lat="45.9288" lon="6.50378">
        <ele>1610</ele>
        <time>2023-03-01T09:52:04Z</time>
      </trkpt>
      <trkpt lat="45.92884" lon="6.50384">
        <ele>1612</ele>
        <time>2023-03-01T09:52:17Z</time>
      </trkpt>
      <trkpt lat="45.92883" lon="6.50391">
        <ele>1614</ele>
        <time>2023-03-01T09:52:49Z</time>
      </trkpt>
      <trkpt lat="45.92878" lon="6.50395">
        <ele>1615</ele>
        <time>2023-03-01T09:52:59Z</time>
      </trkpt>
      <trkpt lat="45.92878" lon="6.50407">
        <ele>1619</ele>
        <time>2023-03-01T09:53:15Z</time>
      </trkpt>
      <trkpt lat="45.92873" lon="6.50407">
        <ele>1622</ele>
        <time>2023-03-01T09:53:36Z</time>
      </trkpt>
      <trkpt lat="45.92868" lon="6.50413">
        <ele>1623</ele>
        <time>2023-03-01T09:53:53Z</time>
      </trkpt>
      <trkpt lat="45.92865" lon="6.50414">
        <ele>1624</ele>
        <time>2023-03-01T09:54:06Z</time>
      </trkpt>
      <trkpt lat="45.92862" lon="6.50417">
        <ele>1625</ele>
        <time>2023-03-01T09:54:17Z</time>
      </trkpt>
      <trkpt lat="45.92856" lon="6.50419">
        <ele>1626</ele>
        <time>2023-03-01T09:54:27Z</time>
      </trkpt>
      <trkpt lat="45.92852" lon="6.50425">
        <ele>1627</ele>
        <time>2023-03-01T09:54:43Z</time>
      </trkpt>
      <trkpt lat="45.92851" lon="6.50433">
        <ele>1628</ele>
        <time>2023-03-01T09:54:52Z</time>
      </trkpt>
      <trkpt lat="45.92847" lon="6.50439">
        <ele>1628</ele>
        <time>2023-03-01T09:54:59Z</time>
      </trkpt>
      <trkpt lat="45.92843" lon="6.50443">
        <ele>1629</ele>
        <time>2023-03-01T09:55:08Z</time>
      </trkpt>
      <trkpt lat="45.92837" lon="6.50446">
        <ele>1629</ele>
        <time>2023-03-01T09:55:21Z</time>
      </trkpt>
      <trkpt lat="45.92832" lon="6.50451">
        <ele>1631</ele>
        <time>2023-03-01T09:55:32Z</time>
      </trkpt>
      <trkpt lat="45.92829" lon="6.50458">
        <ele>1632</ele>
        <time>2023-03-01T09:55:51Z</time>
      </trkpt>
      <trkpt lat="45.92831" lon="6.50465">
        <ele>1633</ele>
        <time>2023-03-01T09:56:01Z</time>
      </trkpt>
      <trkpt lat="45.92836" lon="6.50473">
        <ele>1636</ele>
        <time>2023-03-01T09:56:19Z</time>
      </trkpt>
      <trkpt lat="45.92838" lon="6.50481">
        <ele>1638</ele>
        <time>2023-03-01T09:56:29Z</time>
      </trkpt>
      <trkpt lat="45.92841" lon="6.5049">
        <ele>1639</ele>
        <time>2023-03-01T09:56:38Z</time>
      </trkpt>
      <trkpt lat="45.92852" lon="6.50491">
        <ele>1642</ele>
        <time>2023-03-01T09:56:58Z</time>
      </trkpt>
      <trkpt lat="45.92857" lon="6.50493">
        <ele>1644</ele>
        <time>2023-03-01T09:57:10Z</time>
      </trkpt>
      <trkpt lat="45.92861" lon="6.505">
        <ele>1646</ele>
        <time>2023-03-01T09:57:31Z</time>
      </trkpt>
      <trkpt lat="45.92867" lon="6.50498">
        <ele>1647</ele>
        <time>2023-03-01T09:57:40Z</time>
      </trkpt>
      <trkpt lat="45.92872" lon="6.50495">
        <ele>1649</ele>
        <time>2023-03-01T09:57:50Z</time>
      </trkpt>
      <trkpt lat="45.9288" lon="6.50492">
        <ele>1651</ele>
        <time>2023-03-01T09:58:06Z</time>
      </trkpt>
      <trkpt lat="45.92886" lon="6.50492">
        <ele>1651</ele>
        <time>2023-03-01T09:58:14Z</time>
      </trkpt>
      <trkpt lat="45.92892" lon="6.50498">
        <ele>1651</ele>
        <time>2023-03-01T09:59:48Z</time>
      </trkpt>
      <trkpt lat="45.92897" lon="6.50501">
        <ele>1650</ele>
        <time>2023-03-01T09:59:54Z</time>
      </trkpt>
      <trkpt lat="45.92907" lon="6.50522">
        <ele>1650</ele>
        <time>2023-03-01T10:00:13Z</time>
      </trkpt>
      <trkpt lat="45.92916" lon="6.50533">
        <ele>1651</ele>
        <time>2023-03-01T10:00:39Z</time>
      </trkpt>
      <trkpt lat="45.92929" lon="6.50539">
        <ele>1653</ele>
        <time>2023-03-01T10:01:00Z</time>
      </trkpt>
      <trkpt lat="45.92932" lon="6.50542">
        <ele>1654</ele>
        <time>2023-03-01T10:01:05Z</time>
      </trkpt>
      <trkpt lat="45.92933" lon="6.5055">
        <ele>1655</ele>
        <time>2023-03-01T10:01:12Z</time>
      </trkpt>
      <trkpt lat="45.92934" lon="6.50558">
        <ele>1657</ele>
        <time>2023-03-01T10:01:24Z</time>
      </trkpt>
      <trkpt lat="45.92934" lon="6.50564">
        <ele>1658</ele>
        <time>2023-03-01T10:01:29Z</time>
      </trkpt>
      <trkpt lat="45.92938" lon="6.5057">
        <ele>1659</ele>
        <time>2023-03-01T10:01:44Z</time>
      </trkpt>
      <trkpt lat="45.92941" lon="6.50577">
        <ele>1661</ele>
        <time>2023-03-01T10:01:55Z</time>
      </trkpt>
      <trkpt lat="45.92943" lon="6.50585">
        <ele>1661</ele>
        <time>2023-03-01T10:02:02Z</time>
      </trkpt>
      <trkpt lat="45.92945" lon="6.50593">
        <ele>1662</ele>
        <time>2023-03-01T10:02:10Z</time>
      </trkpt>
      <trkpt lat="45.92949" lon="6.50599">
        <ele>1663</ele>
        <time>2023-03-01T10:02:16Z</time>
      </trkpt>
      <trkpt lat="45.92957" lon="6.5061">
        <ele>1664</ele>
        <time>2023-03-01T10:02:33Z</time>
      </trkpt>
      <trkpt lat="45.92961" lon="6.50616">
        <ele>1665</ele>
        <time>2023-03-01T10:02:41Z</time>
      </trkpt>
      <trkpt lat="45.92966" lon="6.5062">
        <ele>1665</ele>
        <time>2023-03-01T10:02:48Z</time>
      </trkpt>
      <trkpt lat="45.92978" lon="6.50638">
        <ele>1666</ele>
        <time>2023-03-01T10:03:14Z</time>
      </trkpt>
      <trkpt lat="45.92983" lon="6.50642">
        <ele>1666</ele>
        <time>2023-03-01T10:03:23Z</time>
      </trkpt>
      <trkpt lat="45.92997" lon="6.50658">
        <ele>1666</ele>
        <time>2023-03-01T10:03:49Z</time>
      </trkpt>
      <trkpt lat="45.93001" lon="6.50664">
        <ele>1666</ele>
        <time>2023-03-01T10:03:58Z</time>
      </trkpt>
      <trkpt lat="45.93016" lon="6.50676">
        <ele>1666</ele>
        <time>2023-03-01T10:04:23Z</time>
      </trkpt>
      <trkpt lat="45.93019" lon="6.50682">
        <ele>1666</ele>
        <time>2023-03-01T10:04:32Z</time>
      </trkpt>
      <trkpt lat="45.93025" lon="6.50701">
        <ele>1668</ele>
        <time>2023-03-01T10:05:00Z</time>
      </trkpt>
      <trkpt lat="45.93025" lon="6.50703">
        <ele>1671</ele>
        <time>2023-03-01T10:05:22Z</time>
      </trkpt>
      <trkpt lat="45.93029" lon="6.5071">
        <ele>1672</ele>
        <time>2023-03-01T10:05:55Z</time>
      </trkpt>
      <trkpt lat="45.93032" lon="6.50717">
        <ele>1673</ele>
        <time>2023-03-01T10:06:03Z</time>
      </trkpt>
      <trkpt lat="45.93033" lon="6.50726">
        <ele>1675</ele>
        <time>2023-03-01T10:06:12Z</time>
      </trkpt>
      <trkpt lat="45.93035" lon="6.50743">
        <ele>1678</ele>
        <time>2023-03-01T10:06:36Z</time>
      </trkpt>
      <trkpt lat="45.9304" lon="6.50748">
        <ele>1678</ele>
        <time>2023-03-01T10:06:48Z</time>
      </trkpt>
      <trkpt lat="45.93043" lon="6.50755">
        <ele>1679</ele>
        <time>2023-03-01T10:07:14Z</time>
      </trkpt>
      <trkpt lat="45.93066" lon="6.50772">
        <ele>1679</ele>
        <time>2023-03-01T10:07:52Z</time>
      </trkpt>
      <trkpt lat="45.93091" lon="6.50798">
        <ele>1681</ele>
        <time>2023-03-01T10:08:27Z</time>
      </trkpt>
      <trkpt lat="45.93098" lon="6.5082">
        <ele>1682</ele>
        <time>2023-03-01T10:09:01Z</time>
      </trkpt>
      <trkpt lat="45.93102" lon="6.50827">
        <ele>1683</ele>
        <time>2023-03-01T10:09:11Z</time>
      </trkpt>
      <trkpt lat="45.93104" lon="6.50831">
        <ele>1684</ele>
        <time>2023-03-01T10:09:16Z</time>
      </trkpt>
      <trkpt lat="45.93118" lon="6.50848">
        <ele>1686</ele>
        <time>2023-03-01T10:09:53Z</time>
      </trkpt>
      <trkpt lat="45.9312" lon="6.50856">
        <ele>1688</ele>
        <time>2023-03-01T10:10:05Z</time>
      </trkpt>
      <trkpt lat="45.93121" lon="6.50861">
        <ele>1689</ele>
        <time>2023-03-01T10:10:13Z</time>
      </trkpt>
      <trkpt lat="45.93123" lon="6.50866">
        <ele>1690</ele>
        <time>2023-03-01T10:10:22Z</time>
      </trkpt>
      <trkpt lat="45.93133" lon="6.50878">
        <ele>1694</ele>
        <time>2023-03-01T10:10:41Z</time>
      </trkpt>
      <trkpt lat="45.93136" lon="6.50882">
        <ele>1695</ele>
        <time>2023-03-01T10:10:51Z</time>
      </trkpt>
      <trkpt lat="45.93141" lon="6.50895">
        <ele>1697</ele>
        <time>2023-03-01T10:11:04Z</time>
      </trkpt>
      <trkpt lat="45.9314" lon="6.50903">
        <ele>1697</ele>
        <time>2023-03-01T10:11:14Z</time>
      </trkpt>
      <trkpt lat="45.9314" lon="6.50908">
        <ele>1698</ele>
        <time>2023-03-01T10:11:24Z</time>
      </trkpt>
      <trkpt lat="45.93144" lon="6.50911">
        <ele>1699</ele>
        <time>2023-03-01T10:11:31Z</time>
      </trkpt>
      <trkpt lat="45.93145" lon="6.50916">
        <ele>1699</ele>
        <time>2023-03-01T10:11:38Z</time>
      </trkpt>
      <trkpt lat="45.93149" lon="6.50921">
        <ele>1700</ele>
        <time>2023-03-01T10:11:55Z</time>
      </trkpt>
      <trkpt lat="45.93151" lon="6.50933">
        <ele>1702</ele>
        <time>2023-03-01T10:12:26Z</time>
      </trkpt>
      <trkpt lat="45.93152" lon="6.50938">
        <ele>1703</ele>
        <time>2023-03-01T10:12:39Z</time>
      </trkpt>
      <trkpt lat="45.93154" lon="6.50943">
        <ele>1704</ele>
        <time>2023-03-01T10:12:50Z</time>
      </trkpt>
      <trkpt lat="45.93161" lon="6.5095">
        <ele>1706</ele>
        <time>2023-03-01T10:13:06Z</time>
      </trkpt>
      <trkpt lat="45.93166" lon="6.50959">
        <ele>1708</ele>
        <time>2023-03-01T10:13:21Z</time>
      </trkpt>
      <trkpt lat="45.93169" lon="6.50963">
        <ele>1708</ele>
        <time>2023-03-01T10:13:28Z</time>
      </trkpt>
      <trkpt lat="45.93171" lon="6.50967">
        <ele>1710</ele>
        <time>2023-03-01T10:13:38Z</time>
      </trkpt>
      <trkpt lat="45.9317" lon="6.5097">
        <ele>1712</ele>
        <time>2023-03-01T10:13:49Z</time>
      </trkpt>
      <trkpt lat="45.9317" lon="6.50976">
        <ele>1712</ele>
        <time>2023-03-01T10:13:54Z</time>
      </trkpt>
      <trkpt lat="45.93171" lon="6.50981">
        <ele>1714</ele>
        <time>2023-03-01T10:14:00Z</time>
      </trkpt>
      <trkpt lat="45.93168" lon="6.50983">
        <ele>1715</ele>
        <time>2023-03-01T10:14:05Z</time>
      </trkpt>
      <trkpt lat="45.93166" lon="6.50987">
        <ele>1716</ele>
        <time>2023-03-01T10:14:09Z</time>
      </trkpt>
      <trkpt lat="45.93166" lon="6.50993">
        <ele>1716</ele>
        <time>2023-03-01T10:14:13Z</time>
      </trkpt>
      <trkpt lat="45.9317" lon="6.51001">
        <ele>1719</ele>
        <time>2023-03-01T10:14:28Z</time>
      </trkpt>
      <trkpt lat="45.93177" lon="6.51007">
        <ele>1721</ele>
        <time>2023-03-01T10:14:39Z</time>
      </trkpt>
      <trkpt lat="45.9318" lon="6.5101">
        <ele>1721</ele>
        <time>2023-03-01T10:14:44Z</time>
      </trkpt>
      <trkpt lat="45.93183" lon="6.51015">
        <ele>1723</ele>
        <time>2023-03-01T10:14:52Z</time>
      </trkpt>
      <trkpt lat="45.93181" lon="6.51019">
        <ele>1723</ele>
        <time>2023-03-01T10:15:02Z</time>
      </trkpt>
      <trkpt lat="45.93178" lon="6.51016">
        <ele>1724</ele>
        <time>2023-03-01T10:15:08Z</time>
      </trkpt>
      <trkpt lat="45.93173" lon="6.51015">
        <ele>1726</ele>
        <time>2023-03-01T10:15:17Z</time>
      </trkpt>
      <trkpt lat="45.93169" lon="6.51015">
        <ele>1726</ele>
        <time>2023-03-01T10:15:26Z</time>
      </trkpt>
      <trkpt lat="45.93165" lon="6.51017">
        <ele>1727</ele>
        <time>2023-03-01T10:15:31Z</time>
      </trkpt>
      <trkpt lat="45.93161" lon="6.51015">
        <ele>1728</ele>
        <time>2023-03-01T10:15:41Z</time>
      </trkpt>
      <trkpt lat="45.93158" lon="6.51012">
        <ele>1729</ele>
        <time>2023-03-01T10:15:54Z</time>
      </trkpt>
      <trkpt lat="45.93151" lon="6.5101">
        <ele>1730</ele>
        <time>2023-03-01T10:16:04Z</time>
      </trkpt>
      <trkpt lat="45.93147" lon="6.5101">
        <ele>1731</ele>
        <time>2023-03-01T10:16:09Z</time>
      </trkpt>
      <trkpt lat="45.93144" lon="6.5101">
        <ele>1731</ele>
        <time>2023-03-01T10:16:15Z</time>
      </trkpt>
      <trkpt lat="45.93132" lon="6.51011">
        <ele>1732</ele>
        <time>2023-03-01T10:16:36Z</time>
      </trkpt>
      <trkpt lat="45.93119" lon="6.51007">
        <ele>1734</ele>
        <time>2023-03-01T10:17:03Z</time>
      </trkpt>
      <trkpt lat="45.93115" lon="6.51006">
        <ele>1735</ele>
        <time>2023-03-01T10:17:11Z</time>
      </trkpt>
      <trkpt lat="45.93116" lon="6.51012">
        <ele>1736</ele>
        <time>2023-03-01T10:17:31Z</time>
      </trkpt>
      <trkpt lat="45.93118" lon="6.51018">
        <ele>1738</ele>
        <time>2023-03-01T10:17:40Z</time>
      </trkpt>
      <trkpt lat="45.93121" lon="6.51029">
        <ele>1740</ele>
        <time>2023-03-01T10:18:00Z</time>
      </trkpt>
      <trkpt lat="45.93123" lon="6.51034">
        <ele>1741</ele>
        <time>2023-03-01T10:18:09Z</time>
      </trkpt>
      <trkpt lat="45.93127" lon="6.51056">
        <ele>1745</ele>
        <time>2023-03-01T10:18:42Z</time>
      </trkpt>
      <trkpt lat="45.93129" lon="6.51061">
        <ele>1747</ele>
        <time>2023-03-01T10:19:00Z</time>
      </trkpt>
      <trkpt lat="45.9313" lon="6.51066">
        <ele>1748</ele>
        <time>2023-03-01T10:19:05Z</time>
      </trkpt>
      <trkpt lat="45.93133" lon="6.51071">
        <ele>1749</ele>
        <time>2023-03-01T10:19:38Z</time>
      </trkpt>
      <trkpt lat="45.93136" lon="6.51076">
        <ele>1750</ele>
        <time>2023-03-01T10:19:42Z</time>
      </trkpt>
      <trkpt lat="45.93137" lon="6.5108">
        <ele>1751</ele>
        <time>2023-03-01T10:19:48Z</time>
      </trkpt>
      <trkpt lat="45.9314" lon="6.51085">
        <ele>1752</ele>
        <time>2023-03-01T10:19:56Z</time>
      </trkpt>
      <trkpt lat="45.93141" lon="6.5109">
        <ele>1752</ele>
        <time>2023-03-01T10:20:00Z</time>
      </trkpt>
      <trkpt lat="45.93143" lon="6.51099">
        <ele>1754</ele>
        <time>2023-03-01T10:20:10Z</time>
      </trkpt>
      <trkpt lat="45.93138" lon="6.5111">
        <ele>1756</ele>
        <time>2023-03-01T10:20:29Z</time>
      </trkpt>
      <trkpt lat="45.93138" lon="6.51116">
        <ele>1757</ele>
        <time>2023-03-01T10:20:38Z</time>
      </trkpt>
      <trkpt lat="45.93138" lon="6.51121">
        <ele>1758</ele>
        <time>2023-03-01T10:20:46Z</time>
      </trkpt>
      <trkpt lat="45.93138" lon="6.51127">
        <ele>1760</ele>
        <time>2023-03-01T10:20:54Z</time>
      </trkpt>
      <trkpt lat="45.93137" lon="6.51132">
        <ele>1760</ele>
        <time>2023-03-01T10:21:01Z</time>
      </trkpt>
      <trkpt lat="45.93134" lon="6.51136">
        <ele>1762</ele>
        <time>2023-03-01T10:21:12Z</time>
      </trkpt>
      <trkpt lat="45.9313" lon="6.51137">
        <ele>1762</ele>
        <time>2023-03-01T10:21:20Z</time>
      </trkpt>
      <trkpt lat="45.93126" lon="6.51135">
        <ele>1764</ele>
        <time>2023-03-01T10:21:27Z</time>
      </trkpt>
      <trkpt lat="45.93122" lon="6.5113">
        <ele>1764</ele>
        <time>2023-03-01T10:21:37Z</time>
      </trkpt>
      <trkpt lat="45.93117" lon="6.51126">
        <ele>1766</ele>
        <time>2023-03-01T10:21:49Z</time>
      </trkpt>
      <trkpt lat="45.93113" lon="6.51129">
        <ele>1766</ele>
        <time>2023-03-01T10:21:55Z</time>
      </trkpt>
      <trkpt lat="45.93106" lon="6.51131">
        <ele>1768</ele>
        <time>2023-03-01T10:22:11Z</time>
      </trkpt>
      <trkpt lat="45.93101" lon="6.51135">
        <ele>1769</ele>
        <time>2023-03-01T10:22:21Z</time>
      </trkpt>
      <trkpt lat="45.93106" lon="6.51146">
        <ele>1772</ele>
        <time>2023-03-01T10:22:41Z</time>
      </trkpt>
      <trkpt lat="45.93105" lon="6.51154">
        <ele>1773</ele>
        <time>2023-03-01T10:22:54Z</time>
      </trkpt>
      <trkpt lat="45.931" lon="6.51156">
        <ele>1775</ele>
        <time>2023-03-01T10:23:23Z</time>
      </trkpt>
      <trkpt lat="45.93095" lon="6.51157">
        <ele>1776</ele>
        <time>2023-03-01T10:23:39Z</time>
      </trkpt>
      <trkpt lat="45.93088" lon="6.51163">
        <ele>1777</ele>
        <time>2023-03-01T10:23:57Z</time>
      </trkpt>
      <trkpt lat="45.93083" lon="6.51165">
        <ele>1779</ele>
        <time>2023-03-01T10:24:10Z</time>
      </trkpt>
      <trkpt lat="45.93078" lon="6.51166">
        <ele>1779</ele>
        <time>2023-03-01T10:24:19Z</time>
      </trkpt>
      <trkpt lat="45.93073" lon="6.51169">
        <ele>1781</ele>
        <time>2023-03-01T10:24:29Z</time>
      </trkpt>
      <trkpt lat="45.93067" lon="6.51169">
        <ele>1781</ele>
        <time>2023-03-01T10:24:43Z</time>
      </trkpt>
      <trkpt lat="45.93062" lon="6.51173">
        <ele>1783</ele>
        <time>2023-03-01T10:24:54Z</time>
      </trkpt>
      <trkpt lat="45.93063" lon="6.51178">
        <ele>1784</ele>
        <time>2023-03-01T10:25:05Z</time>
      </trkpt>
      <trkpt lat="45.93064" lon="6.51186">
        <ele>1784</ele>
        <time>2023-03-01T10:25:17Z</time>
      </trkpt>
      <trkpt lat="45.93074" lon="6.51209">
        <ele>1789</ele>
        <time>2023-03-01T10:25:55Z</time>
      </trkpt>
      <trkpt lat="45.93076" lon="6.51214">
        <ele>1790</ele>
        <time>2023-03-01T10:26:07Z</time>
      </trkpt>
      <trkpt lat="45.93078" lon="6.51222">
        <ele>1791</ele>
        <time>2023-03-01T10:26:19Z</time>
      </trkpt>
      <trkpt lat="45.93079" lon="6.5123">
        <ele>1792</ele>
        <time>2023-03-01T10:26:29Z</time>
      </trkpt>
      <trkpt lat="45.93079" lon="6.51239">
        <ele>1793</ele>
        <time>2023-03-01T10:26:45Z</time>
      </trkpt>
      <trkpt lat="45.93086" lon="6.51259">
        <ele>1797</ele>
        <time>2023-03-01T10:27:21Z</time>
      </trkpt>
      <trkpt lat="45.93089" lon="6.51267">
        <ele>1799</ele>
        <time>2023-03-01T10:27:34Z</time>
      </trkpt>
      <trkpt lat="45.93089" lon="6.51278">
        <ele>1800</ele>
        <time>2023-03-01T10:27:51Z</time>
      </trkpt>
      <trkpt lat="45.93082" lon="6.51283">
        <ele>1804</ele>
        <time>2023-03-01T10:28:16Z</time>
      </trkpt>
      <trkpt lat="45.93076" lon="6.51283">
        <ele>1806</ele>
        <time>2023-03-01T10:28:25Z</time>
      </trkpt>
      <trkpt lat="45.93071" lon="6.51287">
        <ele>1808</ele>
        <time>2023-03-01T10:29:02Z</time>
      </trkpt>
      <trkpt lat="45.93066" lon="6.51292">
        <ele>1813</ele>
        <time>2023-03-01T10:39:51Z</time>
      </trkpt>
      <trkpt lat="45.93064" lon="6.51296">
        <ele>1817</ele>
        <time>2023-03-01T10:39:58Z</time>
      </trkpt>
      <trkpt lat="45.9306" lon="6.51304">
        <ele>1818</ele>
        <time>2023-03-01T10:40:05Z</time>
      </trkpt>
      <trkpt lat="45.93058" lon="6.51312">
        <ele>1820</ele>
        <time>2023-03-01T10:40:15Z</time>
      </trkpt>
      <trkpt lat="45.93055" lon="6.51316">
        <ele>1821</ele>
        <time>2023-03-01T10:40:23Z</time>
      </trkpt>
      <trkpt lat="45.9305" lon="6.51321">
        <ele>1821</ele>
        <time>2023-03-01T10:40:34Z</time>
      </trkpt>
      <trkpt lat="45.93046" lon="6.51327">
        <ele>1823</ele>
        <time>2023-03-01T10:40:49Z</time>
      </trkpt>
      <trkpt lat="45.93044" lon="6.51334">
        <ele>1824</ele>
        <time>2023-03-01T10:41:18Z</time>
      </trkpt>
      <trkpt lat="45.93043" lon="6.51343">
        <ele>1825</ele>
        <time>2023-03-01T10:41:32Z</time>
      </trkpt>
      <trkpt lat="45.93045" lon="6.51352">
        <ele>1825</ele>
        <time>2023-03-01T10:41:43Z</time>
      </trkpt>
      <trkpt lat="45.93043" lon="6.51359">
        <ele>1826</ele>
        <time>2023-03-01T10:41:49Z</time>
      </trkpt>
      <trkpt lat="45.93043" lon="6.51367">
        <ele>1827</ele>
        <time>2023-03-01T10:42:02Z</time>
      </trkpt>
      <trkpt lat="45.93037" lon="6.51374">
        <ele>1828</ele>
        <time>2023-03-01T10:42:18Z</time>
      </trkpt>
      <trkpt lat="45.93023" lon="6.51373">
        <ele>1831</ele>
        <time>2023-03-01T10:42:44Z</time>
      </trkpt>
      <trkpt lat="45.93019" lon="6.51377">
        <ele>1832</ele>
        <time>2023-03-01T10:42:51Z</time>
      </trkpt>
      <trkpt lat="45.93011" lon="6.51377">
        <ele>1834</ele>
        <time>2023-03-01T10:43:05Z</time>
      </trkpt>
      <trkpt lat="45.92996" lon="6.51391">
        <ele>1838</ele>
        <time>2023-03-01T10:43:39Z</time>
      </trkpt>
      <trkpt lat="45.92992" lon="6.51397">
        <ele>1840</ele>
        <time>2023-03-01T10:43:49Z</time>
      </trkpt>
      <trkpt lat="45.92988" lon="6.51403">
        <ele>1841</ele>
        <time>2023-03-01T10:44:02Z</time>
      </trkpt>
      <trkpt lat="45.92982" lon="6.51409">
        <ele>1844</ele>
        <time>2023-03-01T10:44:21Z</time>
      </trkpt>
      <trkpt lat="45.92978" lon="6.51415">
        <ele>1846</ele>
        <time>2023-03-01T10:44:31Z</time>
      </trkpt>
      <trkpt lat="45.92972" lon="6.51419">
        <ele>1849</ele>
        <time>2023-03-01T10:44:52Z</time>
      </trkpt>
      <trkpt lat="45.92971" lon="6.51427">
        <ele>1850</ele>
        <time>2023-03-01T10:45:04Z</time>
      </trkpt>
      <trkpt lat="45.92972" lon="6.51436">
        <ele>1854</ele>
        <time>2023-03-01T10:45:14Z</time>
      </trkpt>
      <trkpt lat="45.92974" lon="6.51443">
        <ele>1856</ele>
        <time>2023-03-01T10:45:22Z</time>
      </trkpt>
      <trkpt lat="45.92967" lon="6.51442">
        <ele>1859</ele>
        <time>2023-03-01T10:45:55Z</time>
      </trkpt>
      <trkpt lat="45.92965" lon="6.5145">
        <ele>1863</ele>
        <time>2023-03-01T10:46:15Z</time>
      </trkpt>
      <trkpt lat="45.92967" lon="6.51465">
        <ele>1866</ele>
        <time>2023-03-01T10:46:36Z</time>
      </trkpt>
      <trkpt lat="45.92968" lon="6.51474">
        <ele>1869</ele>
        <time>2023-03-01T10:46:45Z</time>
      </trkpt>
      <trkpt lat="45.92961" lon="6.51473">
        <ele>1872</ele>
        <time>2023-03-01T10:47:12Z</time>
      </trkpt>
      <trkpt lat="45.92953" lon="6.51473">
        <ele>1873</ele>
        <time>2023-03-01T10:47:25Z</time>
      </trkpt>
      <trkpt lat="45.92946" lon="6.5147">
        <ele>1878</ele>
        <time>2023-03-01T10:47:41Z</time>
      </trkpt>
      <trkpt lat="45.92938" lon="6.51473">
        <ele>1880</ele>
        <time>2023-03-01T10:47:53Z</time>
      </trkpt>
      <trkpt lat="45.9293" lon="6.51473">
        <ele>1882</ele>
        <time>2023-03-01T10:48:08Z</time>
      </trkpt>
      <trkpt lat="45.92925" lon="6.51482">
        <ele>1884</ele>
        <time>2023-03-01T10:48:25Z</time>
      </trkpt>
      <trkpt lat="45.9293" lon="6.515">
        <ele>1889</ele>
        <time>2023-03-01T10:48:43Z</time>
      </trkpt>
      <trkpt lat="45.92933" lon="6.51507">
        <ele>1890</ele>
        <time>2023-03-01T10:48:54Z</time>
      </trkpt>
      <trkpt lat="45.92935" lon="6.51519">
        <ele>1891</ele>
        <time>2023-03-01T10:49:01Z</time>
      </trkpt>
      <trkpt lat="45.92937" lon="6.51526">
        <ele>1893</ele>
        <time>2023-03-01T10:49:11Z</time>
      </trkpt>
      <trkpt lat="45.92939" lon="6.51534">
        <ele>1894</ele>
        <time>2023-03-01T10:49:25Z</time>
      </trkpt>
      <trkpt lat="45.92941" lon="6.51544">
        <ele>1897</ele>
        <time>2023-03-01T10:49:36Z</time>
      </trkpt>
      <trkpt lat="45.92939" lon="6.51552">
        <ele>1899</ele>
        <time>2023-03-01T10:49:58Z</time>
      </trkpt>
      <trkpt lat="45.92937" lon="6.5156">
        <ele>1902</ele>
        <time>2023-03-01T10:50:08Z</time>
      </trkpt>
      <trkpt lat="45.92931" lon="6.5156">
        <ele>1905</ele>
        <time>2023-03-01T10:50:39Z</time>
      </trkpt>
      <trkpt lat="45.92925" lon="6.5156">
        <ele>1908</ele>
        <time>2023-03-01T10:50:46Z</time>
      </trkpt>
      <trkpt lat="45.9292" lon="6.51561">
        <ele>1910</ele>
        <time>2023-03-01T10:51:01Z</time>
      </trkpt>
      <trkpt lat="45.92909" lon="6.51559">
        <ele>1913</ele>
        <time>2023-03-01T10:51:17Z</time>
      </trkpt>
      <trkpt lat="45.92902" lon="6.5156">
        <ele>1916</ele>
        <time>2023-03-01T10:51:31Z</time>
      </trkpt>
      <trkpt lat="45.92895" lon="6.5156">
        <ele>1917</ele>
        <time>2023-03-01T10:51:43Z</time>
      </trkpt>
      <trkpt lat="45.92888" lon="6.51563">
        <ele>1920</ele>
        <time>2023-03-01T10:51:49Z</time>
      </trkpt>
      <trkpt lat="45.92883" lon="6.51565">
        <ele>1921</ele>
        <time>2023-03-01T10:51:59Z</time>
      </trkpt>
      <trkpt lat="45.92872" lon="6.5157">
        <ele>1923</ele>
        <time>2023-03-01T10:52:15Z</time>
      </trkpt>
      <trkpt lat="45.92869" lon="6.51577">
        <ele>1926</ele>
        <time>2023-03-01T10:52:29Z</time>
      </trkpt>
      <trkpt lat="45.92871" lon="6.51586">
        <ele>1926</ele>
        <time>2023-03-01T10:52:35Z</time>
      </trkpt>
      <trkpt lat="45.92882" lon="6.51603">
        <ele>1930</ele>
        <time>2023-03-01T10:53:04Z</time>
      </trkpt>
      <trkpt lat="45.92887" lon="6.51611">
        <ele>1931</ele>
        <time>2023-03-01T10:53:12Z</time>
      </trkpt>
      <trkpt lat="45.92889" lon="6.51618">
        <ele>1932</ele>
        <time>2023-03-01T10:53:20Z</time>
      </trkpt>
      <trkpt lat="45.92894" lon="6.51626">
        <ele>1933</ele>
        <time>2023-03-01T10:53:38Z</time>
      </trkpt>
      <trkpt lat="45.92899" lon="6.51634">
        <ele>1936</ele>
        <time>2023-03-01T10:54:01Z</time>
      </trkpt>
      <trkpt lat="45.92902" lon="6.51641">
        <ele>1939</ele>
        <time>2023-03-01T10:54:16Z</time>
      </trkpt>
      <trkpt lat="45.92903" lon="6.51649">
        <ele>1939</ele>
        <time>2023-03-01T10:54:24Z</time>
      </trkpt>
      <trkpt lat="45.92906" lon="6.51658">
        <ele>1941</ele>
        <time>2023-03-01T10:54:38Z</time>
      </trkpt>
      <trkpt lat="45.92909" lon="6.51665">
        <ele>1941</ele>
        <time>2023-03-01T10:54:51Z</time>
      </trkpt>
      <trkpt lat="45.92911" lon="6.51673">
        <ele>1944</ele>
        <time>2023-03-01T10:55:11Z</time>
      </trkpt>
      <trkpt lat="45.9291" lon="6.51676">
        <ele>1949</ele>
        <time>2023-03-01T10:55:54Z</time>
      </trkpt>
      <trkpt lat="45.92904" lon="6.51675">
        <ele>1951</ele>
        <time>2023-03-01T10:56:03Z</time>
      </trkpt>
      <trkpt lat="45.92899" lon="6.5167">
        <ele>1953</ele>
        <time>2023-03-01T10:56:22Z</time>
      </trkpt>
      <trkpt lat="45.92894" lon="6.5167">
        <ele>1956</ele>
        <time>2023-03-01T10:56:34Z</time>
      </trkpt>
      <trkpt lat="45.92888" lon="6.51669">
        <ele>1958</ele>
        <time>2023-03-01T10:56:44Z</time>
      </trkpt>
      <trkpt lat="45.92882" lon="6.51667">
        <ele>1959</ele>
        <time>2023-03-01T10:56:53Z</time>
      </trkpt>
      <trkpt lat="45.92875" lon="6.5167">
        <ele>1961</ele>
        <time>2023-03-01T10:57:25Z</time>
      </trkpt>
      <trkpt lat="45.92869" lon="6.5167">
        <ele>1964</ele>
        <time>2023-03-01T10:57:32Z</time>
      </trkpt>
      <trkpt lat="45.92864" lon="6.51669">
        <ele>1965</ele>
        <time>2023-03-01T10:57:42Z</time>
      </trkpt>
      <trkpt lat="45.92858" lon="6.51669">
        <ele>1969</ele>
        <time>2023-03-01T10:57:53Z</time>
      </trkpt>
      <trkpt lat="45.92853" lon="6.51665">
        <ele>1971</ele>
        <time>2023-03-01T10:58:12Z</time>
      </trkpt>
      <trkpt lat="45.92854" lon="6.51674">
        <ele>1973</ele>
        <time>2023-03-01T10:58:32Z</time>
      </trkpt>
      <trkpt lat="45.92854" lon="6.51682">
        <ele>1977</ele>
        <time>2023-03-01T10:58:41Z</time>
      </trkpt>
      <trkpt lat="45.92858" lon="6.51698">
        <ele>1983</ele>
        <time>2023-03-01T10:59:12Z</time>
      </trkpt>
      <trkpt lat="45.92862" lon="6.51704">
        <ele>1983</ele>
        <time>2023-03-01T10:59:20Z</time>
      </trkpt>
      <trkpt lat="45.92863" lon="6.51713">
        <ele>1985</ele>
        <time>2023-03-01T10:59:33Z</time>
      </trkpt>
      <trkpt lat="45.92869" lon="6.51728">
        <ele>1988</ele>
        <time>2023-03-01T11:00:03Z</time>
      </trkpt>
      <trkpt lat="45.92871" lon="6.51735">
        <ele>1989</ele>
        <time>2023-03-01T11:00:17Z</time>
      </trkpt>
      <trkpt lat="45.92873" lon="6.51733">
        <ele>1991</ele>
        <time>2023-03-01T11:00:47Z</time>
      </trkpt>
      <trkpt lat="45.92868" lon="6.51729">
        <ele>1991</ele>
        <time>2023-03-01T11:00:55Z</time>
      </trkpt>
      <trkpt lat="45.92862" lon="6.51729">
        <ele>1992</ele>
        <time>2023-03-01T11:01:06Z</time>
      </trkpt>
      <trkpt lat="45.92857" lon="6.51727">
        <ele>1992</ele>
        <time>2023-03-01T11:01:13Z</time>
      </trkpt>
      <trkpt lat="45.92851" lon="6.51726">
        <ele>1993</ele>
        <time>2023-03-01T11:01:28Z</time>
      </trkpt>
      <trkpt lat="45.92846" lon="6.51725">
        <ele>1993</ele>
        <time>2023-03-01T11:01:43Z</time>
      </trkpt>
      <trkpt lat="45.92834" lon="6.51724">
        <ele>1995</ele>
        <time>2023-03-01T11:02:04Z</time>
      </trkpt>
      <trkpt lat="45.92818" lon="6.51725">
        <ele>1999</ele>
        <time>2023-03-01T11:02:38Z</time>
      </trkpt>
      <trkpt lat="45.92798" lon="6.51728">
        <ele>2001</ele>
        <time>2023-03-01T11:03:12Z</time>
      </trkpt>
      <trkpt lat="45.92788" lon="6.51734">
        <ele>2004</ele>
        <time>2023-03-01T11:03:44Z</time>
      </trkpt>
      <trkpt lat="45.92775" lon="6.51736">
        <ele>2005</ele>
        <time>2023-03-01T11:04:05Z</time>
      </trkpt>
      <trkpt lat="45.9277" lon="6.51738">
        <ele>2006</ele>
        <time>2023-03-01T11:04:20Z</time>
      </trkpt>
      <trkpt lat="45.92764" lon="6.51745">
        <ele>2007</ele>
        <time>2023-03-01T11:04:47Z</time>
      </trkpt>
      <trkpt lat="45.92759" lon="6.51746">
        <ele>2009</ele>
        <time>2023-03-01T11:04:58Z</time>
      </trkpt>
      <trkpt lat="45.92754" lon="6.5175">
        <ele>2010</ele>
        <time>2023-03-01T11:05:07Z</time>
      </trkpt>
      <trkpt lat="45.92748" lon="6.51751">
        <ele>2011</ele>
        <time>2023-03-01T11:05:15Z</time>
      </trkpt>
      <trkpt lat="45.92744" lon="6.51757">
        <ele>2012</ele>
        <time>2023-03-01T11:05:25Z</time>
      </trkpt>
      <trkpt lat="45.92747" lon="6.51765">
        <ele>2014</ele>
        <time>2023-03-01T11:05:36Z</time>
      </trkpt>
      <trkpt lat="45.92752" lon="6.5177">
        <ele>2014</ele>
        <time>2023-03-01T11:06:00Z</time>
      </trkpt>
      <trkpt lat="45.92745" lon="6.51774">
        <ele>2013</ele>
        <time>2023-03-01T11:06:39Z</time>
      </trkpt>
      <trkpt lat="45.92745" lon="6.51782">
        <ele>2014</ele>
        <time>2023-03-01T11:07:09Z</time>
      </trkpt>
      <trkpt lat="45.9276" lon="6.51795">
        <ele>2018</ele>
        <time>2023-03-01T11:07:41Z</time>
      </trkpt>
      <trkpt lat="45.92764" lon="6.51801">
        <ele>2018</ele>
        <time>2023-03-01T11:07:54Z</time>
      </trkpt>
      <trkpt lat="45.92769" lon="6.51806">
        <ele>2020</ele>
        <time>2023-03-01T11:08:05Z</time>
      </trkpt>
      <trkpt lat="45.92774" lon="6.51811">
        <ele>2021</ele>
        <time>2023-03-01T11:08:17Z</time>
      </trkpt>
      <trkpt lat="45.92778" lon="6.51816">
        <ele>2023</ele>
        <time>2023-03-01T11:08:33Z</time>
      </trkpt>
      <trkpt lat="45.92785" lon="6.51823">
        <ele>2025</ele>
        <time>2023-03-01T11:08:57Z</time>
      </trkpt>
      <trkpt lat="45.928" lon="6.51835">
        <ele>2028</ele>
        <time>2023-03-01T11:09:30Z</time>
      </trkpt>
      <trkpt lat="45.92805" lon="6.5184">
        <ele>2030</ele>
        <time>2023-03-01T11:09:49Z</time>
      </trkpt>
      <trkpt lat="45.92805" lon="6.51844">
        <ele>2032</ele>
        <time>2023-03-01T11:10:25Z</time>
      </trkpt>
      <trkpt lat="45.92799" lon="6.51845">
        <ele>2032</ele>
        <time>2023-03-01T11:10:36Z</time>
      </trkpt>
      <trkpt lat="45.92793" lon="6.51843">
        <ele>2034</ele>
        <time>2023-03-01T11:10:44Z</time>
      </trkpt>
      <trkpt lat="45.92788" lon="6.51842">
        <ele>2035</ele>
        <time>2023-03-01T11:10:56Z</time>
      </trkpt>
      <trkpt lat="45.92783" lon="6.51846">
        <ele>2038</ele>
        <time>2023-03-01T11:11:13Z</time>
      </trkpt>
      <trkpt lat="45.92778" lon="6.51849">
        <ele>2039</ele>
        <time>2023-03-01T11:11:23Z</time>
      </trkpt>
      <trkpt lat="45.92772" lon="6.51851">
        <ele>2042</ele>
        <time>2023-03-01T11:11:37Z</time>
      </trkpt>
      <trkpt lat="45.92766" lon="6.51853">
        <ele>2044</ele>
        <time>2023-03-01T11:11:48Z</time>
      </trkpt>
      <trkpt lat="45.92761" lon="6.51852">
        <ele>2045</ele>
        <time>2023-03-01T11:11:59Z</time>
      </trkpt>
      <trkpt lat="45.92756" lon="6.51851">
        <ele>2047</ele>
        <time>2023-03-01T11:12:13Z</time>
      </trkpt>
      <trkpt lat="45.9275" lon="6.51852">
        <ele>2048</ele>
        <time>2023-03-01T11:12:21Z</time>
      </trkpt>
      <trkpt lat="45.92744" lon="6.51854">
        <ele>2050</ele>
        <time>2023-03-01T11:12:33Z</time>
      </trkpt>
      <trkpt lat="45.92739" lon="6.51853">
        <ele>2052</ele>
        <time>2023-03-01T11:12:45Z</time>
      </trkpt>
      <trkpt lat="45.92735" lon="6.51852">
        <ele>2053</ele>
        <time>2023-03-01T11:12:58Z</time>
      </trkpt>
      <trkpt lat="45.92732" lon="6.51852">
        <ele>2053</ele>
        <time>2023-03-01T11:13:08Z</time>
      </trkpt>
      <trkpt lat="45.92726" lon="6.51851">
        <ele>2054</ele>
        <time>2023-03-01T11:13:28Z</time>
      </trkpt>
      <trkpt lat="45.92713" lon="6.51838">
        <ele>2058</ele>
        <time>2023-03-01T11:13:58Z</time>
      </trkpt>
      <trkpt lat="45.92709" lon="6.51835">
        <ele>2059</ele>
        <time>2023-03-01T11:14:07Z</time>
      </trkpt>
      <trkpt lat="45.92698" lon="6.51831">
        <ele>2062</ele>
        <time>2023-03-01T11:14:35Z</time>
      </trkpt>
      <trkpt lat="45.92693" lon="6.51831">
        <ele>2063</ele>
        <time>2023-03-01T11:14:44Z</time>
      </trkpt>
      <trkpt lat="45.9269" lon="6.51831">
        <ele>2063</ele>
        <time>2023-03-01T11:14:50Z</time>
      </trkpt>
      <trkpt lat="45.92684" lon="6.51833">
        <ele>2065</ele>
        <time>2023-03-01T11:15:00Z</time>
      </trkpt>
      <trkpt lat="45.92678" lon="6.51836">
        <ele>2067</ele>
        <time>2023-03-01T11:15:10Z</time>
      </trkpt>
      <trkpt lat="45.92664" lon="6.51835">
        <ele>2070</ele>
        <time>2023-03-01T11:15:39Z</time>
      </trkpt>
      <trkpt lat="45.92655" lon="6.51835">
        <ele>2072</ele>
        <time>2023-03-01T11:16:02Z</time>
      </trkpt>
      <trkpt lat="45.92646" lon="6.51834">
        <ele>2074</ele>
        <time>2023-03-01T11:16:17Z</time>
      </trkpt>
      <trkpt lat="45.9264" lon="6.51836">
        <ele>2075</ele>
        <time>2023-03-01T11:16:29Z</time>
      </trkpt>
      <trkpt lat="45.92635" lon="6.51834">
        <ele>2076</ele>
        <time>2023-03-01T11:16:40Z</time>
      </trkpt>
      <trkpt lat="45.9263" lon="6.51833">
        <ele>2076</ele>
        <time>2023-03-01T11:16:52Z</time>
      </trkpt>
      <trkpt lat="45.92625" lon="6.51837">
        <ele>2077</ele>
        <time>2023-03-01T11:17:05Z</time>
      </trkpt>
      <trkpt lat="45.9262" lon="6.51842">
        <ele>2078</ele>
        <time>2023-03-01T11:17:15Z</time>
      </trkpt>
      <trkpt lat="45.92616" lon="6.51842">
        <ele>2079</ele>
        <time>2023-03-01T11:17:25Z</time>
      </trkpt>
      <trkpt lat="45.92613" lon="6.51841">
        <ele>2080</ele>
        <time>2023-03-01T11:17:35Z</time>
      </trkpt>
      <trkpt lat="45.92608" lon="6.51843">
        <ele>2081</ele>
        <time>2023-03-01T11:17:53Z</time>
      </trkpt>
      <trkpt lat="45.92603" lon="6.51842">
        <ele>2084</ele>
        <time>2023-03-01T11:18:22Z</time>
      </trkpt>
      <trkpt lat="45.92602" lon="6.51834">
        <ele>2084</ele>
        <time>2023-03-01T11:18:29Z</time>
      </trkpt>
      <trkpt lat="45.926" lon="6.51825">
        <ele>2086</ele>
        <time>2023-03-01T11:18:38Z</time>
      </trkpt>
      <trkpt lat="45.92598" lon="6.51804">
        <ele>2092</ele>
        <time>2023-03-01T11:19:12Z</time>
      </trkpt>
      <trkpt lat="45.92598" lon="6.51795">
        <ele>2093</ele>
        <time>2023-03-01T11:19:19Z</time>
      </trkpt>
      <trkpt lat="45.92595" lon="6.51791">
        <ele>2095</ele>
        <time>2023-03-01T11:19:27Z</time>
      </trkpt>
      <trkpt lat="45.92593" lon="6.51786">
        <ele>2097</ele>
        <time>2023-03-01T11:19:34Z</time>
      </trkpt>
      <trkpt lat="45.92585" lon="6.51774">
        <ele>2102</ele>
        <time>2023-03-01T11:19:53Z</time>
      </trkpt>
      <trkpt lat="45.92582" lon="6.5177">
        <ele>2103</ele>
        <time>2023-03-01T11:20:01Z</time>
      </trkpt>
      <trkpt lat="45.92567" lon="6.5177">
        <ele>2107</ele>
        <time>2023-03-01T11:20:29Z</time>
      </trkpt>
      <trkpt lat="45.92561" lon="6.51772">
        <ele>2108</ele>
        <time>2023-03-01T11:20:39Z</time>
      </trkpt>
      <trkpt lat="45.92556" lon="6.51773">
        <ele>2109</ele>
        <time>2023-03-01T11:20:53Z</time>
      </trkpt>
      <trkpt lat="45.92541" lon="6.51775">
        <ele>2111</ele>
        <time>2023-03-01T11:21:20Z</time>
      </trkpt>
      <trkpt lat="45.92536" lon="6.51775">
        <ele>2111</ele>
        <time>2023-03-01T11:21:28Z</time>
      </trkpt>
      <trkpt lat="45.9253" lon="6.51771">
        <ele>2111</ele>
        <time>2023-03-01T11:21:35Z</time>
      </trkpt>
      <trkpt lat="45.92524" lon="6.51772">
        <ele>2111</ele>
        <time>2023-03-01T11:21:47Z</time>
      </trkpt>
      <trkpt lat="45.92519" lon="6.51769">
        <ele>2112</ele>
        <time>2023-03-01T11:21:59Z</time>
      </trkpt>
      <trkpt lat="45.92515" lon="6.51769">
        <ele>2112</ele>
        <time>2023-03-01T11:22:05Z</time>
      </trkpt>
      <trkpt lat="45.92509" lon="6.51766">
        <ele>2113</ele>
        <time>2023-03-01T11:22:16Z</time>
      </trkpt>
      <trkpt lat="45.92504" lon="6.51767">
        <ele>2113</ele>
        <time>2023-03-01T11:22:29Z</time>
      </trkpt>
      <trkpt lat="45.92498" lon="6.51765">
        <ele>2113</ele>
        <time>2023-03-01T11:22:38Z</time>
      </trkpt>
      <trkpt lat="45.92491" lon="6.51768">
        <ele>2113</ele>
        <time>2023-03-01T11:22:50Z</time>
      </trkpt>
      <trkpt lat="45.92488" lon="6.51771">
        <ele>2114</ele>
        <time>2023-03-01T11:22:56Z</time>
      </trkpt>
      <trkpt lat="45.92485" lon="6.51778">
        <ele>2114</ele>
        <time>2023-03-01T11:23:03Z</time>
      </trkpt>
      <trkpt lat="45.92481" lon="6.51782">
        <ele>2114</ele>
        <time>2023-03-01T11:23:12Z</time>
      </trkpt>
      <trkpt lat="45.92473" lon="6.51793">
        <ele>2114</ele>
        <time>2023-03-01T11:23:28Z</time>
      </trkpt>
      <trkpt lat="45.9247" lon="6.51799">
        <ele>2115</ele>
        <time>2023-03-01T11:23:39Z</time>
      </trkpt>
      <trkpt lat="45.9247" lon="6.51805">
        <ele>2115</ele>
        <time>2023-03-01T11:24:14Z</time>
      </trkpt>
      <trkpt lat="45.92473" lon="6.51807">
        <ele>2115</ele>
        <time>2023-03-01T11:25:45Z</time>
      </trkpt>
      <trkpt lat="45.92475" lon="6.51815">
        <ele>2112</ele>
        <time>2023-03-01T11:28:21Z</time>
      </trkpt>
      <trkpt lat="45.92475" lon="6.51827">
        <ele>2113</ele>
        <time>2023-03-01T11:28:39Z</time>
      </trkpt>
      <trkpt lat="45.92473" lon="6.51834">
        <ele>2113</ele>
        <time>2023-03-01T11:28:45Z</time>
      </trkpt>
      <trkpt lat="45.92471" lon="6.51838">
        <ele>2113</ele>
        <time>2023-03-01T11:28:53Z</time>
      </trkpt>
      <trkpt lat="45.92468" lon="6.51844">
        <ele>2114</ele>
        <time>2023-03-01T11:29:02Z</time>
      </trkpt>
      <trkpt lat="45.92471" lon="6.51851">
        <ele>2114</ele>
        <time>2023-03-01T11:29:10Z</time>
      </trkpt>
      <trkpt lat="45.92474" lon="6.51853">
        <ele>2115</ele>
        <time>2023-03-01T11:29:17Z</time>
      </trkpt>
      <trkpt lat="45.92478" lon="6.51853">
        <ele>2116</ele>
        <time>2023-03-01T11:29:35Z</time>
      </trkpt>
      <trkpt lat="45.92481" lon="6.51854">
        <ele>2116</ele>
        <time>2023-03-01T11:29:39Z</time>
      </trkpt>
      <trkpt lat="45.92484" lon="6.51855">
        <ele>2117</ele>
        <time>2023-03-01T11:29:42Z</time>
      </trkpt>
      <trkpt lat="45.92487" lon="6.51855">
        <ele>2117</ele>
        <time>2023-03-01T11:29:47Z</time>
      </trkpt>
      <trkpt lat="45.92489" lon="6.51859">
        <ele>2118</ele>
        <time>2023-03-01T11:29:51Z</time>
      </trkpt>
      <trkpt lat="45.92487" lon="6.51864">
        <ele>2119</ele>
        <time>2023-03-01T11:29:57Z</time>
      </trkpt>
      <trkpt lat="45.92482" lon="6.51869">
        <ele>2122</ele>
        <time>2023-03-01T11:30:09Z</time>
      </trkpt>
      <trkpt lat="45.92482" lon="6.51874">
        <ele>2123</ele>
        <time>2023-03-01T11:30:15Z</time>
      </trkpt>
      <trkpt lat="45.9248" lon="6.51885">
        <ele>2126</ele>
        <time>2023-03-01T11:30:31Z</time>
      </trkpt>
      <trkpt lat="45.9248" lon="6.5189">
        <ele>2127</ele>
        <time>2023-03-01T11:30:42Z</time>
      </trkpt>
      <trkpt lat="45.9248" lon="6.51896">
        <ele>2130</ele>
        <time>2023-03-01T11:30:54Z</time>
      </trkpt>
      <trkpt lat="45.9248" lon="6.51901">
        <ele>2130</ele>
        <time>2023-03-01T11:31:01Z</time>
      </trkpt>
      <trkpt lat="45.92481" lon="6.51912">
        <ele>2133</ele>
        <time>2023-03-01T11:31:16Z</time>
      </trkpt>
      <trkpt lat="45.92479" lon="6.51923">
        <ele>2136</ele>
        <time>2023-03-01T11:31:29Z</time>
      </trkpt>
      <trkpt lat="45.92475" lon="6.51929">
        <ele>2138</ele>
        <time>2023-03-01T11:31:44Z</time>
      </trkpt>
      <trkpt lat="45.92474" lon="6.51934">
        <ele>2141</ele>
        <time>2023-03-01T11:32:02Z</time>
      </trkpt>
      <trkpt lat="45.92468" lon="6.51934">
        <ele>2143</ele>
        <time>2023-03-01T11:32:14Z</time>
      </trkpt>
      <trkpt lat="45.92464" lon="6.51934">
        <ele>2145</ele>
        <time>2023-03-01T11:32:24Z</time>
      </trkpt>
      <trkpt lat="45.92461" lon="6.51935">
        <ele>2146</ele>
        <time>2023-03-01T11:32:40Z</time>
      </trkpt>
      <trkpt lat="45.92464" lon="6.51941">
        <ele>2147</ele>
        <time>2023-03-01T11:32:49Z</time>
      </trkpt>
      <trkpt lat="45.92467" lon="6.51946">
        <ele>2148</ele>
        <time>2023-03-01T11:32:55Z</time>
      </trkpt>
      <trkpt lat="45.92471" lon="6.51949">
        <ele>2148</ele>
        <time>2023-03-01T11:33:03Z</time>
      </trkpt>
      <trkpt lat="45.92475" lon="6.51948">
        <ele>2149</ele>
        <time>2023-03-01T11:33:11Z</time>
      </trkpt>
      <trkpt lat="45.92474" lon="6.51948">
        <ele>2152</ele>
        <time>2023-03-01T11:33:41Z</time>
      </trkpt>
      <trkpt lat="45.92471" lon="6.51949">
        <ele>2154</ele>
        <time>2023-03-01T11:33:48Z</time>
      </trkpt>
      <trkpt lat="45.92472" lon="6.51954">
        <ele>2155</ele>
        <time>2023-03-01T11:34:07Z</time>
      </trkpt>
      <trkpt lat="45.92475" lon="6.51956">
        <ele>2156</ele>
        <time>2023-03-01T11:34:11Z</time>
      </trkpt>
      <trkpt lat="45.92477" lon="6.51958">
        <ele>2157</ele>
        <time>2023-03-01T11:34:16Z</time>
      </trkpt>
      <trkpt lat="45.9248" lon="6.51962">
        <ele>2158</ele>
        <time>2023-03-01T11:34:21Z</time>
      </trkpt>
      <trkpt lat="45.9248" lon="6.51966">
        <ele>2159</ele>
        <time>2023-03-01T11:34:27Z</time>
      </trkpt>
      <trkpt lat="45.92483" lon="6.5197">
        <ele>2160</ele>
        <time>2023-03-01T11:34:33Z</time>
      </trkpt>
      <trkpt lat="45.92484" lon="6.51974">
        <ele>2162</ele>
        <time>2023-03-01T11:34:49Z</time>
      </trkpt>
      <trkpt lat="45.92484" lon="6.51979">
        <ele>2163</ele>
        <time>2023-03-01T11:34:58Z</time>
      </trkpt>
      <trkpt lat="45.92486" lon="6.51984">
        <ele>2164</ele>
        <time>2023-03-01T11:35:05Z</time>
      </trkpt>
      <trkpt lat="45.92487" lon="6.51988">
        <ele>2165</ele>
        <time>2023-03-01T11:35:09Z</time>
      </trkpt>
      <trkpt lat="45.92488" lon="6.51992">
        <ele>2166</ele>
        <time>2023-03-01T11:35:15Z</time>
      </trkpt>
      <trkpt lat="45.9249" lon="6.51998">
        <ele>2166</ele>
        <time>2023-03-01T11:35:23Z</time>
      </trkpt>
      <trkpt lat="45.9249" lon="6.52004">
        <ele>2167</ele>
        <time>2023-03-01T11:35:29Z</time>
      </trkpt>
      <trkpt lat="45.92489" lon="6.52011">
        <ele>2167</ele>
        <time>2023-03-01T11:35:53Z</time>
      </trkpt>
      <trkpt lat="45.92494" lon="6.52026">
        <ele>2168</ele>
        <time>2023-03-01T11:36:15Z</time>
      </trkpt>
      <trkpt lat="45.92496" lon="6.52031">
        <ele>2168</ele>
        <time>2023-03-01T11:36:22Z</time>
      </trkpt>
      <trkpt lat="45.92495" lon="6.52042">
        <ele>2169</ele>
        <time>2023-03-01T11:36:38Z</time>
      </trkpt>
      <trkpt lat="45.92496" lon="6.52055">
        <ele>2170</ele>
        <time>2023-03-01T11:36:55Z</time>
      </trkpt>
      <trkpt lat="45.92495" lon="6.52061">
        <ele>2171</ele>
        <time>2023-03-01T11:37:07Z</time>
      </trkpt>
      <trkpt lat="45.92494" lon="6.52067">
        <ele>2172</ele>
        <time>2023-03-01T11:37:14Z</time>
      </trkpt>
      <trkpt lat="45.92494" lon="6.52077">
        <ele>2173</ele>
        <time>2023-03-01T11:37:34Z</time>
      </trkpt>
      <trkpt lat="45.92493" lon="6.52081">
        <ele>2174</ele>
        <time>2023-03-01T11:37:41Z</time>
      </trkpt>
      <trkpt lat="45.92492" lon="6.52086">
        <ele>2174</ele>
        <time>2023-03-01T11:37:49Z</time>
      </trkpt>
      <trkpt lat="45.9249" lon="6.52092">
        <ele>2175</ele>
        <time>2023-03-01T11:37:58Z</time>
      </trkpt>
      <trkpt lat="45.92488" lon="6.52094">
        <ele>2176</ele>
        <time>2023-03-01T11:38:04Z</time>
      </trkpt>
      <trkpt lat="45.92486" lon="6.52098">
        <ele>2176</ele>
        <time>2023-03-01T11:38:10Z</time>
      </trkpt>
      <trkpt lat="45.92483" lon="6.521">
        <ele>2176</ele>
        <time>2023-03-01T11:38:17Z</time>
      </trkpt>
      <trkpt lat="45.92482" lon="6.52105">
        <ele>2177</ele>
        <time>2023-03-01T11:38:36Z</time>
      </trkpt>
      <trkpt lat="45.92484" lon="6.5211">
        <ele>2178</ele>
        <time>2023-03-01T11:38:41Z</time>
      </trkpt>
      <trkpt lat="45.92488" lon="6.52111">
        <ele>2178</ele>
        <time>2023-03-01T11:38:47Z</time>
      </trkpt>
      <trkpt lat="45.92491" lon="6.52115">
        <ele>2180</ele>
        <time>2023-03-01T11:38:54Z</time>
      </trkpt>
      <trkpt lat="45.92489" lon="6.5212">
        <ele>2181</ele>
        <time>2023-03-01T11:39:03Z</time>
      </trkpt>
      <trkpt lat="45.92487" lon="6.52125">
        <ele>2184</ele>
        <time>2023-03-01T11:39:15Z</time>
      </trkpt>
      <trkpt lat="45.92488" lon="6.52146">
        <ele>2188</ele>
        <time>2023-03-01T11:39:44Z</time>
      </trkpt>
      <trkpt lat="45.92488" lon="6.52151">
        <ele>2189</ele>
        <time>2023-03-01T11:39:52Z</time>
      </trkpt>
      <trkpt lat="45.92488" lon="6.52159">
        <ele>2190</ele>
        <time>2023-03-01T11:40:04Z</time>
      </trkpt>
      <trkpt lat="45.92485" lon="6.52174">
        <ele>2193</ele>
        <time>2023-03-01T11:40:28Z</time>
      </trkpt>
      <trkpt lat="45.92486" lon="6.52178">
        <ele>2194</ele>
        <time>2023-03-01T11:40:34Z</time>
      </trkpt>
      <trkpt lat="45.92486" lon="6.52183">
        <ele>2194</ele>
        <time>2023-03-01T11:40:41Z</time>
      </trkpt>
      <trkpt lat="45.92485" lon="6.52193">
        <ele>2195</ele>
        <time>2023-03-01T11:40:55Z</time>
      </trkpt>
      <trkpt lat="45.92482" lon="6.52203">
        <ele>2196</ele>
        <time>2023-03-01T11:41:07Z</time>
      </trkpt>
      <trkpt lat="45.92481" lon="6.52223">
        <ele>2198</ele>
        <time>2023-03-01T11:41:29Z</time>
      </trkpt>
      <trkpt lat="45.92481" lon="6.52227">
        <ele>2199</ele>
        <time>2023-03-01T11:41:34Z</time>
      </trkpt>
      <trkpt lat="45.92479" lon="6.52236">
        <ele>2200</ele>
        <time>2023-03-01T11:41:46Z</time>
      </trkpt>
      <trkpt lat="45.92476" lon="6.52257">
        <ele>2202</ele>
        <time>2023-03-01T11:42:12Z</time>
      </trkpt>
      <trkpt lat="45.92476" lon="6.52263">
        <ele>2203</ele>
        <time>2023-03-01T11:42:20Z</time>
      </trkpt>
      <trkpt lat="45.92475" lon="6.52268">
        <ele>2204</ele>
        <time>2023-03-01T11:42:30Z</time>
      </trkpt>
      <trkpt lat="45.92475" lon="6.52274">
        <ele>2204</ele>
        <time>2023-03-01T11:42:38Z</time>
      </trkpt>
      <trkpt lat="45.92473" lon="6.52281">
        <ele>2205</ele>
        <time>2023-03-01T11:42:46Z</time>
      </trkpt>
      <trkpt lat="45.92468" lon="6.52289">
        <ele>2206</ele>
        <time>2023-03-01T11:43:01Z</time>
      </trkpt>
      <trkpt lat="45.92466" lon="6.52293">
        <ele>2206</ele>
        <time>2023-03-01T11:43:08Z</time>
      </trkpt>
      <trkpt lat="45.92464" lon="6.52297">
        <ele>2207</ele>
        <time>2023-03-01T11:43:16Z</time>
      </trkpt>
      <trkpt lat="45.92464" lon="6.52302">
        <ele>2207</ele>
        <time>2023-03-01T11:43:26Z</time>
      </trkpt>
      <trkpt lat="45.92461" lon="6.52306">
        <ele>2207</ele>
        <time>2023-03-01T11:43:32Z</time>
      </trkpt>
      <trkpt lat="45.92457" lon="6.5232">
        <ele>2209</ele>
        <time>2023-03-01T11:43:59Z</time>
      </trkpt>
      <trkpt lat="45.92458" lon="6.52328">
        <ele>2209</ele>
        <time>2023-03-01T11:44:07Z</time>
      </trkpt>
      <trkpt lat="45.92459" lon="6.52336">
        <ele>2209</ele>
        <time>2023-03-01T11:44:22Z</time>
      </trkpt>
      <trkpt lat="45.92457" lon="6.52344">
        <ele>2210</ele>
        <time>2023-03-01T11:44:28Z</time>
      </trkpt>
      <trkpt lat="45.92458" lon="6.52352">
        <ele>2211</ele>
        <time>2023-03-01T11:44:40Z</time>
      </trkpt>
      <trkpt lat="45.92458" lon="6.52358">
        <ele>2211</ele>
        <time>2023-03-01T11:44:50Z</time>
      </trkpt>
      <trkpt lat="45.92458" lon="6.52363">
        <ele>2211</ele>
        <time>2023-03-01T11:44:55Z</time>
      </trkpt>
      <trkpt lat="45.92461" lon="6.52373">
        <ele>2212</ele>
        <time>2023-03-01T11:45:15Z</time>
      </trkpt>
      <trkpt lat="45.9246" lon="6.52393">
        <ele>2213</ele>
        <time>2023-03-01T11:45:40Z</time>
      </trkpt>
      <trkpt lat="45.9246" lon="6.52398">
        <ele>2214</ele>
        <time>2023-03-01T11:45:53Z</time>
      </trkpt>
      <trkpt lat="45.92461" lon="6.52406">
        <ele>2214</ele>
        <time>2023-03-01T11:46:04Z</time>
      </trkpt>
      <trkpt lat="45.92461" lon="6.52411">
        <ele>2215</ele>
        <time>2023-03-01T11:46:15Z</time>
      </trkpt>
      <trkpt lat="45.92461" lon="6.52417">
        <ele>2216</ele>
        <time>2023-03-01T11:46:23Z</time>
      </trkpt>
      <trkpt lat="45.92459" lon="6.52425">
        <ele>2216</ele>
        <time>2023-03-01T11:46:30Z</time>
      </trkpt>
      <trkpt lat="45.92458" lon="6.52433">
        <ele>2217</ele>
        <time>2023-03-01T11:46:41Z</time>
      </trkpt>
      <trkpt lat="45.92457" lon="6.52438">
        <ele>2218</ele>
        <time>2023-03-01T11:46:47Z</time>
      </trkpt>
      <trkpt lat="45.92456" lon="6.52444">
        <ele>2219</ele>
        <time>2023-03-01T11:46:54Z</time>
      </trkpt>
      <trkpt lat="45.92456" lon="6.52452">
        <ele>2219</ele>
        <time>2023-03-01T11:47:07Z</time>
      </trkpt>
      <trkpt lat="45.92455" lon="6.52461">
        <ele>2221</ele>
        <time>2023-03-01T11:47:19Z</time>
      </trkpt>
      <trkpt lat="45.9245" lon="6.52476">
        <ele>2223</ele>
        <time>2023-03-01T11:47:42Z</time>
      </trkpt>
      <trkpt lat="45.92448" lon="6.52484">
        <ele>2224</ele>
        <time>2023-03-01T11:47:52Z</time>
      </trkpt>
      <trkpt lat="45.92446" lon="6.525">
        <ele>2228</ele>
        <time>2023-03-01T11:48:23Z</time>
      </trkpt>
      <trkpt lat="45.92439" lon="6.52521">
        <ele>2234</ele>
        <time>2023-03-01T11:48:53Z</time>
      </trkpt>
      <trkpt lat="45.92436" lon="6.52526">
        <ele>2236</ele>
        <time>2023-03-01T11:49:02Z</time>
      </trkpt>
      <trkpt lat="45.92429" lon="6.52537">
        <ele>2240</ele>
        <time>2023-03-01T11:49:28Z</time>
      </trkpt>
      <trkpt lat="45.92427" lon="6.52541">
        <ele>2241</ele>
        <time>2023-03-01T11:49:35Z</time>
      </trkpt>
      <trkpt lat="45.92424" lon="6.52544">
        <ele>2241</ele>
        <time>2023-03-01T11:49:41Z</time>
      </trkpt>
      <trkpt lat="45.92421" lon="6.52548">
        <ele>2242</ele>
        <time>2023-03-01T11:49:51Z</time>
      </trkpt>
      <trkpt lat="45.92419" lon="6.52552">
        <ele>2243</ele>
        <time>2023-03-01T11:49:59Z</time>
      </trkpt>
      <trkpt lat="45.92417" lon="6.5256">
        <ele>2244</ele>
        <time>2023-03-01T11:50:13Z</time>
      </trkpt>
      <trkpt lat="45.92414" lon="6.52563">
        <ele>2245</ele>
        <time>2023-03-01T11:50:21Z</time>
      </trkpt>
      <trkpt lat="45.92411" lon="6.52566">
        <ele>2245</ele>
        <time>2023-03-01T11:50:27Z</time>
      </trkpt>
      <trkpt lat="45.92409" lon="6.52578">
        <ele>2248</ele>
        <time>2023-03-01T11:50:53Z</time>
      </trkpt>
      <trkpt lat="45.92408" lon="6.52586">
        <ele>2249</ele>
        <time>2023-03-01T11:51:05Z</time>
      </trkpt>
      <trkpt lat="45.92407" lon="6.52594">
        <ele>2251</ele>
        <time>2023-03-01T11:51:16Z</time>
      </trkpt>
      <trkpt lat="45.92413" lon="6.52611">
        <ele>2253</ele>
        <time>2023-03-01T11:51:55Z</time>
      </trkpt>
      <trkpt lat="45.92412" lon="6.52621">
        <ele>2254</ele>
        <time>2023-03-01T11:52:10Z</time>
      </trkpt>
      <trkpt lat="45.92407" lon="6.52628">
        <ele>2256</ele>
        <time>2023-03-01T11:52:28Z</time>
      </trkpt>
      <trkpt lat="45.92404" lon="6.52634">
        <ele>2257</ele>
        <time>2023-03-01T11:52:46Z</time>
      </trkpt>
      <trkpt lat="45.92409" lon="6.52638">
        <ele>2259</ele>
        <time>2023-03-01T11:53:19Z</time>
      </trkpt>
      <trkpt lat="45.92414" lon="6.52634">
        <ele>2259</ele>
        <time>2023-03-01T11:53:28Z</time>
      </trkpt>
      <trkpt lat="45.92418" lon="6.52634">
        <ele>2262</ele>
        <time>2023-03-01T11:53:32Z</time>
      </trkpt>
      <trkpt lat="45.92422" lon="6.52632">
        <ele>2263</ele>
        <time>2023-03-01T11:53:39Z</time>
      </trkpt>
      <trkpt lat="45.92428" lon="6.52631">
        <ele>2265</ele>
        <time>2023-03-01T11:53:48Z</time>
      </trkpt>
      <trkpt lat="45.92433" lon="6.52634">
        <ele>2268</ele>
        <time>2023-03-01T11:53:58Z</time>
      </trkpt>
      <trkpt lat="45.92435" lon="6.52629">
        <ele>2270</ele>
        <time>2023-03-01T11:54:12Z</time>
      </trkpt>
      <trkpt lat="45.92436" lon="6.52636">
        <ele>2278</ele>
        <time>2023-03-01T12:00:04Z</time>
      </trkpt>
      <trkpt lat="45.92438" lon="6.52643">
        <ele>2280</ele>
        <time>2023-03-01T12:00:44Z</time>
      </trkpt>
      <trkpt lat="45.92442" lon="6.52641">
        <ele>2280</ele>
        <time>2023-03-01T12:00:48Z</time>
      </trkpt>
      <trkpt lat="45.9245" lon="6.52638">
        <ele>2281</ele>
        <time>2023-03-01T12:01:02Z</time>
      </trkpt>
      <trkpt lat="45.92446" lon="6.52644">
        <ele>2282</ele>
        <time>2023-03-01T12:01:26Z</time>
      </trkpt>
      <trkpt lat="45.92433" lon="6.52658">
        <ele>2283</ele>
        <time>2023-03-01T12:01:56Z</time>
      </trkpt>
      <trkpt lat="45.92429" lon="6.52663">
        <ele>2284</ele>
        <time>2023-03-01T12:02:08Z</time>
      </trkpt>
      <trkpt lat="45.92425" lon="6.52669">
        <ele>2285</ele>
        <time>2023-03-01T12:02:21Z</time>
      </trkpt>
      <trkpt lat="45.9242" lon="6.52674">
        <ele>2287</ele>
        <time>2023-03-01T12:02:37Z</time>
      </trkpt>
      <trkpt lat="45.92425" lon="6.52677">
        <ele>2288</ele>
        <time>2023-03-01T12:03:23Z</time>
      </trkpt>
      <trkpt lat="45.92428" lon="6.52676">
        <ele>2288</ele>
        <time>2023-03-01T12:03:33Z</time>
      </trkpt>
      <trkpt lat="45.92436" lon="6.52674">
        <ele>2292</ele>
        <time>2023-03-01T12:04:00Z</time>
      </trkpt>
      <trkpt lat="45.92434" lon="6.52675">
        <ele>2295</ele>
        <time>2023-03-01T12:04:34Z</time>
      </trkpt>
      <trkpt lat="45.92432" lon="6.52678">
        <ele>2297</ele>
        <time>2023-03-01T12:04:46Z</time>
      </trkpt>
      <trkpt lat="45.92428" lon="6.52681">
        <ele>2298</ele>
        <time>2023-03-01T12:04:53Z</time>
      </trkpt>
      <trkpt lat="45.92425" lon="6.52684">
        <ele>2299</ele>
        <time>2023-03-01T12:04:59Z</time>
      </trkpt>
      <trkpt lat="45.92411" lon="6.52696">
        <ele>2302</ele>
        <time>2023-03-01T12:05:36Z</time>
      </trkpt>
      <trkpt lat="45.92415" lon="6.52698">
        <ele>2303</ele>
        <time>2023-03-01T12:06:11Z</time>
      </trkpt>
      <trkpt lat="45.92419" lon="6.52698">
        <ele>2303</ele>
        <time>2023-03-01T12:06:20Z</time>
      </trkpt>
      <trkpt lat="45.92422" lon="6.52698">
        <ele>2304</ele>
        <time>2023-03-01T12:06:28Z</time>
      </trkpt>
      <trkpt lat="45.92426" lon="6.52697">
        <ele>2305</ele>
        <time>2023-03-01T12:06:34Z</time>
      </trkpt>
      <trkpt lat="45.92426" lon="6.527">
        <ele>2307</ele>
        <time>2023-03-01T12:07:05Z</time>
      </trkpt>
      <trkpt lat="45.92418" lon="6.52706">
        <ele>2309</ele>
        <time>2023-03-01T12:07:20Z</time>
      </trkpt>
      <trkpt lat="45.92411" lon="6.52711">
        <ele>2310</ele>
        <time>2023-03-01T12:07:34Z</time>
      </trkpt>
      <trkpt lat="45.92406" lon="6.52714">
        <ele>2311</ele>
        <time>2023-03-01T12:07:49Z</time>
      </trkpt>
      <trkpt lat="45.92401" lon="6.52717">
        <ele>2312</ele>
        <time>2023-03-01T12:08:03Z</time>
      </trkpt>
      <trkpt lat="45.92395" lon="6.52717">
        <ele>2313</ele>
        <time>2023-03-01T12:08:19Z</time>
      </trkpt>
      <trkpt lat="45.92392" lon="6.5272">
        <ele>2314</ele>
        <time>2023-03-01T12:08:28Z</time>
      </trkpt>
      <trkpt lat="45.92392" lon="6.52725">
        <ele>2315</ele>
        <time>2023-03-01T12:08:40Z</time>
      </trkpt>
      <trkpt lat="45.92395" lon="6.52733">
        <ele>2316</ele>
        <time>2023-03-01T12:08:57Z</time>
      </trkpt>
      <trkpt lat="45.92397" lon="6.52737">
        <ele>2317</ele>
        <time>2023-03-01T12:09:04Z</time>
      </trkpt>
      <trkpt lat="45.92401" lon="6.52743">
        <ele>2318</ele>
        <time>2023-03-01T12:09:14Z</time>
      </trkpt>
      <trkpt lat="45.92404" lon="6.52747">
        <ele>2320</ele>
        <time>2023-03-01T12:09:25Z</time>
      </trkpt>
      <trkpt lat="45.92405" lon="6.52752">
        <ele>2321</ele>
        <time>2023-03-01T12:09:33Z</time>
      </trkpt>
      <trkpt lat="45.92407" lon="6.52766">
        <ele>2323</ele>
        <time>2023-03-01T12:09:54Z</time>
      </trkpt>
      <trkpt lat="45.92409" lon="6.52771">
        <ele>2324</ele>
        <time>2023-03-01T12:10:02Z</time>
      </trkpt>
      <trkpt lat="45.92419" lon="6.52787">
        <ele>2328</ele>
        <time>2023-03-01T12:10:30Z</time>
      </trkpt>
      <trkpt lat="45.92423" lon="6.5279">
        <ele>2328</ele>
        <time>2023-03-01T12:10:37Z</time>
      </trkpt>
      <trkpt lat="45.92427" lon="6.52794">
        <ele>2329</ele>
        <time>2023-03-01T12:10:48Z</time>
      </trkpt>
      <trkpt lat="45.92425" lon="6.52799">
        <ele>2329</ele>
        <time>2023-03-01T12:10:57Z</time>
      </trkpt>
      <trkpt lat="45.92423" lon="6.52804">
        <ele>2330</ele>
        <time>2023-03-01T12:11:06Z</time>
      </trkpt>
      <trkpt lat="45.9242" lon="6.52811">
        <ele>2331</ele>
        <time>2023-03-01T12:11:18Z</time>
      </trkpt>
      <trkpt lat="45.92417" lon="6.52818">
        <ele>2332</ele>
        <time>2023-03-01T12:11:34Z</time>
      </trkpt>
      <trkpt lat="45.9241" lon="6.52827">
        <ele>2334</ele>
        <time>2023-03-01T12:12:05Z</time>
      </trkpt>
      <trkpt lat="45.92409" lon="6.52833">
        <ele>2334</ele>
        <time>2023-03-01T12:12:13Z</time>
      </trkpt>
      <trkpt lat="45.9241" lon="6.52838">
        <ele>2335</ele>
        <time>2023-03-01T12:12:22Z</time>
      </trkpt>
      <trkpt lat="45.92418" lon="6.52845">
        <ele>2336</ele>
        <time>2023-03-01T12:12:39Z</time>
      </trkpt>
      <trkpt lat="45.92423" lon="6.52846">
        <ele>2338</ele>
        <time>2023-03-01T12:12:51Z</time>
      </trkpt>
      <trkpt lat="45.92427" lon="6.52846">
        <ele>2339</ele>
        <time>2023-03-01T12:12:58Z</time>
      </trkpt>
      <trkpt lat="45.92431" lon="6.52848">
        <ele>2340</ele>
        <time>2023-03-01T12:13:07Z</time>
      </trkpt>
      <trkpt lat="45.92435" lon="6.52847">
        <ele>2341</ele>
        <time>2023-03-01T12:13:21Z</time>
      </trkpt>
      <trkpt lat="45.92439" lon="6.52849">
        <ele>2342</ele>
        <time>2023-03-01T12:13:32Z</time>
      </trkpt>
      <trkpt lat="45.92443" lon="6.52848">
        <ele>2343</ele>
        <time>2023-03-01T12:13:38Z</time>
      </trkpt>
      <trkpt lat="45.9245" lon="6.52844">
        <ele>2346</ele>
        <time>2023-03-01T12:14:13Z</time>
      </trkpt>
      <trkpt lat="45.9245" lon="6.52842">
        <ele>2350</ele>
        <time>2023-03-01T12:14:54Z</time>
      </trkpt>
      <trkpt lat="45.92447" lon="6.52846">
        <ele>2350</ele>
        <time>2023-03-01T12:14:59Z</time>
      </trkpt>
      <trkpt lat="45.92445" lon="6.52851">
        <ele>2353</ele>
        <time>2023-03-01T12:15:05Z</time>
      </trkpt>
      <trkpt lat="45.92442" lon="6.52854">
        <ele>2354</ele>
        <time>2023-03-01T12:15:18Z</time>
      </trkpt>
      <trkpt lat="45.92437" lon="6.52862">
        <ele>2357</ele>
        <time>2023-03-01T12:15:35Z</time>
      </trkpt>
      <trkpt lat="45.92435" lon="6.52871">
        <ele>2358</ele>
        <time>2023-03-01T12:15:54Z</time>
      </trkpt>
      <trkpt lat="45.92428" lon="6.52886">
        <ele>2363</ele>
        <time>2023-03-01T12:16:36Z</time>
      </trkpt>
      <trkpt lat="45.92426" lon="6.5289">
        <ele>2365</ele>
        <time>2023-03-01T12:16:38Z</time>
      </trkpt>
      <trkpt lat="45.92423" lon="6.52891">
        <ele>2365</ele>
        <time>2023-03-01T12:16:42Z</time>
      </trkpt>
      <trkpt lat="45.92416" lon="6.52904">
        <ele>2368</ele>
        <time>2023-03-01T12:17:23Z</time>
      </trkpt>
      <trkpt lat="45.92419" lon="6.52913">
        <ele>2370</ele>
        <time>2023-03-01T12:17:38Z</time>
      </trkpt>
      <trkpt lat="45.92422" lon="6.52917">
        <ele>2372</ele>
        <time>2023-03-01T12:17:46Z</time>
      </trkpt>
      <trkpt lat="45.92424" lon="6.52921">
        <ele>2373</ele>
        <time>2023-03-01T12:17:52Z</time>
      </trkpt>
      <trkpt lat="45.92426" lon="6.52924">
        <ele>2373</ele>
        <time>2023-03-01T12:17:59Z</time>
      </trkpt>
      <trkpt lat="45.92429" lon="6.52925">
        <ele>2375</ele>
        <time>2023-03-01T12:18:05Z</time>
      </trkpt>
      <trkpt lat="45.92433" lon="6.52925">
        <ele>2375</ele>
        <time>2023-03-01T12:18:10Z</time>
      </trkpt>
      <trkpt lat="45.92436" lon="6.52928">
        <ele>2377</ele>
        <time>2023-03-01T12:18:20Z</time>
      </trkpt>
      <trkpt lat="45.92441" lon="6.5293">
        <ele>2378</ele>
        <time>2023-03-01T12:18:31Z</time>
      </trkpt>
      <trkpt lat="45.92441" lon="6.52935">
        <ele>2380</ele>
        <time>2023-03-01T12:19:07Z</time>
      </trkpt>
      <trkpt lat="45.92441" lon="6.52939">
        <ele>2381</ele>
        <time>2023-03-01T12:19:11Z</time>
      </trkpt>
      <trkpt lat="45.92441" lon="6.52943">
        <ele>2381</ele>
        <time>2023-03-01T12:19:19Z</time>
      </trkpt>
      <trkpt lat="45.92442" lon="6.52948">
        <ele>2382</ele>
        <time>2023-03-01T12:19:29Z</time>
      </trkpt>
      <trkpt lat="45.92441" lon="6.52952">
        <ele>2383</ele>
        <time>2023-03-01T12:19:38Z</time>
      </trkpt>
      <trkpt lat="45.92439" lon="6.52955">
        <ele>2384</ele>
        <time>2023-03-01T12:19:51Z</time>
      </trkpt>
      <trkpt lat="45.92437" lon="6.52959">
        <ele>2385</ele>
        <time>2023-03-01T12:19:57Z</time>
      </trkpt>
      <trkpt lat="45.92434" lon="6.52962">
        <ele>2385</ele>
        <time>2023-03-01T12:20:07Z</time>
      </trkpt>
      <trkpt lat="45.9243" lon="6.52963">
        <ele>2387</ele>
        <time>2023-03-01T12:20:24Z</time>
      </trkpt>
      <trkpt lat="45.92427" lon="6.52964">
        <ele>2388</ele>
        <time>2023-03-01T12:20:36Z</time>
      </trkpt>
      <trkpt lat="45.92426" lon="6.52969">
        <ele>2389</ele>
        <time>2023-03-01T12:20:55Z</time>
      </trkpt>
      <trkpt lat="45.92429" lon="6.52974">
        <ele>2389</ele>
        <time>2023-03-01T12:21:03Z</time>
      </trkpt>
      <trkpt lat="45.9243" lon="6.52978">
        <ele>2392</ele>
        <time>2023-03-01T12:21:13Z</time>
      </trkpt>
      <trkpt lat="45.92433" lon="6.52981">
        <ele>2393</ele>
        <time>2023-03-01T12:21:23Z</time>
      </trkpt>
      <trkpt lat="45.92435" lon="6.52983">
        <ele>2394</ele>
        <time>2023-03-01T12:21:30Z</time>
      </trkpt>
      <trkpt lat="45.92438" lon="6.52985">
        <ele>2396</ele>
        <time>2023-03-01T12:21:38Z</time>
      </trkpt>
      <trkpt lat="45.92441" lon="6.52988">
        <ele>2396</ele>
        <time>2023-03-01T12:21:44Z</time>
      </trkpt>
      <trkpt lat="45.92443" lon="6.52991">
        <ele>2397</ele>
        <time>2023-03-01T12:21:51Z</time>
      </trkpt>
      <trkpt lat="45.92439" lon="6.52993">
        <ele>2399</ele>
        <time>2023-03-01T12:22:22Z</time>
      </trkpt>
      <trkpt lat="45.92436" lon="6.52997">
        <ele>2400</ele>
        <time>2023-03-01T12:22:31Z</time>
      </trkpt>
      <trkpt lat="45.92432" lon="6.52998">
        <ele>2400</ele>
        <time>2023-03-01T12:22:39Z</time>
      </trkpt>
      <trkpt lat="45.92429" lon="6.52997">
        <ele>2401</ele>
        <time>2023-03-01T12:22:53Z</time>
      </trkpt>
      <trkpt lat="45.92425" lon="6.52997">
        <ele>2402</ele>
        <time>2023-03-01T12:23:02Z</time>
      </trkpt>
      <trkpt lat="45.92422" lon="6.53004">
        <ele>2404</ele>
        <time>2023-03-01T12:23:31Z</time>
      </trkpt>
      <trkpt lat="45.92422" lon="6.53012">
        <ele>2404</ele>
        <time>2023-03-01T12:23:41Z</time>
      </trkpt>
      <trkpt lat="45.92422" lon="6.53019">
        <ele>2405</ele>
        <time>2023-03-01T12:23:54Z</time>
      </trkpt>
      <trkpt lat="45.92424" lon="6.53024">
        <ele>2406</ele>
        <time>2023-03-01T12:24:05Z</time>
      </trkpt>
      <trkpt lat="45.92427" lon="6.53027">
        <ele>2407</ele>
        <time>2023-03-01T12:24:15Z</time>
      </trkpt>
      <trkpt lat="45.92431" lon="6.53027">
        <ele>2408</ele>
        <time>2023-03-01T12:24:22Z</time>
      </trkpt>
      <trkpt lat="45.92436" lon="6.53031">
        <ele>2410</ele>
        <time>2023-03-01T12:24:34Z</time>
      </trkpt>
      <trkpt lat="45.92433" lon="6.53031">
        <ele>2411</ele>
        <time>2023-03-01T12:24:56Z</time>
      </trkpt>
      <trkpt lat="45.92429" lon="6.53032">
        <ele>2413</ele>
        <time>2023-03-01T12:25:03Z</time>
      </trkpt>
      <trkpt lat="45.92426" lon="6.53032">
        <ele>2414</ele>
        <time>2023-03-01T12:25:10Z</time>
      </trkpt>
      <trkpt lat="45.92422" lon="6.53034">
        <ele>2416</ele>
        <time>2023-03-01T12:25:24Z</time>
      </trkpt>
      <trkpt lat="45.92424" lon="6.53038">
        <ele>2417</ele>
        <time>2023-03-01T12:25:37Z</time>
      </trkpt>
      <trkpt lat="45.92426" lon="6.53042">
        <ele>2418</ele>
        <time>2023-03-01T12:25:42Z</time>
      </trkpt>
      <trkpt lat="45.92427" lon="6.53046">
        <ele>2418</ele>
        <time>2023-03-01T12:25:50Z</time>
      </trkpt>
      <trkpt lat="45.92428" lon="6.53049">
        <ele>2420</ele>
        <time>2023-03-01T12:25:57Z</time>
      </trkpt>
      <trkpt lat="45.92419" lon="6.5306">
        <ele>2423</ele>
        <time>2023-03-01T12:26:29Z</time>
      </trkpt>
      <trkpt lat="45.92419" lon="6.53065">
        <ele>2426</ele>
        <time>2023-03-01T12:28:34Z</time>
      </trkpt>
      <trkpt lat="45.92423" lon="6.53067">
        <ele>2426</ele>
        <time>2023-03-01T12:28:57Z</time>
      </trkpt>
      <trkpt lat="45.92426" lon="6.53068">
        <ele>2427</ele>
        <time>2023-03-01T12:29:03Z</time>
      </trkpt>
      <trkpt lat="45.92429" lon="6.53068">
        <ele>2427</ele>
        <time>2023-03-01T12:29:07Z</time>
      </trkpt>
      <trkpt lat="45.92438" lon="6.53067">
        <ele>2428</ele>
        <time>2023-03-01T12:29:20Z</time>
      </trkpt>
      <trkpt lat="45.92441" lon="6.53068">
        <ele>2429</ele>
        <time>2023-03-01T12:30:09Z</time>
      </trkpt>
      <trkpt lat="45.92444" lon="6.53068">
        <ele>2429</ele>
        <time>2023-03-01T12:30:12Z</time>
      </trkpt>
      <trkpt lat="45.92446" lon="6.53066">
        <ele>2430</ele>
        <time>2023-03-01T12:30:17Z</time>
      </trkpt>
      <trkpt lat="45.9245" lon="6.53067">
        <ele>2430</ele>
        <time>2023-03-01T12:30:22Z</time>
      </trkpt>
      <trkpt lat="45.92456" lon="6.53068">
        <ele>2431</ele>
        <time>2023-03-01T12:30:46Z</time>
      </trkpt>
      <trkpt lat="45.92459" lon="6.53066">
        <ele>2431</ele>
        <time>2023-03-01T12:30:55Z</time>
      </trkpt>
      <trkpt lat="45.92467" lon="6.53065">
        <ele>2432</ele>
        <time>2023-03-01T12:31:10Z</time>
      </trkpt>
      <trkpt lat="45.92478" lon="6.53064">
        <ele>2433</ele>
        <time>2023-03-01T12:31:35Z</time>
      </trkpt>
      <trkpt lat="45.92483" lon="6.53061">
        <ele>2435</ele>
        <time>2023-03-01T12:31:58Z</time>
      </trkpt>
      <trkpt lat="45.92489" lon="6.5306">
        <ele>2436</ele>
        <time>2023-03-01T12:32:12Z</time>
      </trkpt>
      <trkpt lat="45.92493" lon="6.53061">
        <ele>2437</ele>
        <time>2023-03-01T12:32:24Z</time>
      </trkpt>
      <trkpt lat="45.92496" lon="6.53058">
        <ele>2439</ele>
        <time>2023-03-01T12:33:18Z</time>
      </trkpt>
      <trkpt lat="45.92494" lon="6.53058">
        <ele>2446</ele>
        <time>2023-03-01T12:40:49Z</time>
      </trkpt>
      <trkpt lat="45.92491" lon="6.53058">
        <ele>2447</ele>
        <time>2023-03-01T12:44:15Z</time>
      </trkpt>
      <trkpt lat="45.92489" lon="6.5306">
        <ele>2447</ele>
        <time>2023-03-01T12:44:19Z</time>
      </trkpt>
      <trkpt lat="45.92486" lon="6.53061">
        <ele>2449</ele>
        <time>2023-03-01T12:44:25Z</time>
      </trkpt>
      <trkpt lat="45.92482" lon="6.5307">
        <ele>2450</ele>
        <time>2023-03-01T12:44:52Z</time>
      </trkpt>
      <trkpt lat="45.92479" lon="6.53074">
        <ele>2450</ele>
        <time>2023-03-01T12:45:00Z</time>
      </trkpt>
      <trkpt lat="45.92474" lon="6.53081">
        <ele>2451</ele>
        <time>2023-03-01T12:45:22Z</time>
      </trkpt>
      <trkpt lat="45.92471" lon="6.53085">
        <ele>2451</ele>
        <time>2023-03-01T12:45:35Z</time>
      </trkpt>
      <trkpt lat="45.92469" lon="6.5309">
        <ele>2452</ele>
        <time>2023-03-01T12:45:43Z</time>
      </trkpt>
      <trkpt lat="45.92462" lon="6.53094">
        <ele>2452</ele>
        <time>2023-03-01T12:46:05Z</time>
      </trkpt>
      <trkpt lat="45.92464" lon="6.53091">
        <ele>2455</ele>
        <time>2023-03-01T13:16:51Z</time>
      </trkpt>
      <trkpt lat="45.92466" lon="6.53087">
        <ele>2460</ele>
        <time>2023-03-01T13:17:03Z</time>
      </trkpt>
      <trkpt lat="45.92468" lon="6.53086">
        <ele>2461</ele>
        <time>2023-03-01T13:17:08Z</time>
      </trkpt>
      <trkpt lat="45.92471" lon="6.53084">
        <ele>2461</ele>
        <time>2023-03-01T13:17:15Z</time>
      </trkpt>
      <trkpt lat="45.92474" lon="6.53077">
        <ele>2462</ele>
        <time>2023-03-01T13:17:30Z</time>
      </trkpt>
      <trkpt lat="45.92476" lon="6.53075">
        <ele>2462</ele>
        <time>2023-03-01T13:17:38Z</time>
      </trkpt>
      <trkpt lat="45.92478" lon="6.53072">
        <ele>2462</ele>
        <time>2023-03-01T13:17:44Z</time>
      </trkpt>
      <trkpt lat="45.9248" lon="6.53069">
        <ele>2462</ele>
        <time>2023-03-01T13:17:51Z</time>
      </trkpt>
      <trkpt lat="45.92485" lon="6.53062">
        <ele>2462</ele>
        <time>2023-03-01T13:18:09Z</time>
      </trkpt>
      <trkpt lat="45.92487" lon="6.53057">
        <ele>2461</ele>
        <time>2023-03-01T13:18:18Z</time>
      </trkpt>
      <trkpt lat="45.92491" lon="6.53054">
        <ele>2461</ele>
        <time>2023-03-01T13:18:24Z</time>
      </trkpt>
      <trkpt lat="45.92489" lon="6.53052">
        <ele>2461</ele>
        <time>2023-03-01T13:19:44Z</time>
      </trkpt>
      <trkpt lat="45.92487" lon="6.53049">
        <ele>2460</ele>
        <time>2023-03-01T13:24:51Z</time>
      </trkpt>
      <trkpt lat="45.92488" lon="6.53042">
        <ele>2459</ele>
        <time>2023-03-01T13:24:53Z</time>
      </trkpt>
      <trkpt lat="45.92483" lon="6.53042">
        <ele>2459</ele>
        <time>2023-03-01T13:24:55Z</time>
      </trkpt>
      <trkpt lat="45.9248" lon="6.53035">
        <ele>2459</ele>
        <time>2023-03-01T13:24:59Z</time>
      </trkpt>
      <trkpt lat="45.9248" lon="6.53029">
        <ele>2459</ele>
        <time>2023-03-01T13:25:00Z</time>
      </trkpt>
      <trkpt lat="45.92478" lon="6.53025">
        <ele>2459</ele>
        <time>2023-03-01T13:25:01Z</time>
      </trkpt>
      <trkpt lat="45.92474" lon="6.53029">
        <ele>2459</ele>
        <time>2023-03-01T13:25:03Z</time>
      </trkpt>
      <trkpt lat="45.9247" lon="6.53014">
        <ele>2458</ele>
        <time>2023-03-01T13:25:12Z</time>
      </trkpt>
      <trkpt lat="45.92475" lon="6.53004">
        <ele>2458</ele>
        <time>2023-03-01T13:25:14Z</time>
      </trkpt>
      <trkpt lat="45.92474" lon="6.52999">
        <ele>2458</ele>
        <time>2023-03-01T13:26:11Z</time>
      </trkpt>
      <trkpt lat="45.92463" lon="6.5299">
        <ele>2457</ele>
        <time>2023-03-01T13:26:50Z</time>
      </trkpt>
      <trkpt lat="45.92449" lon="6.52967">
        <ele>2454</ele>
        <time>2023-03-01T13:26:54Z</time>
      </trkpt>
      <trkpt lat="45.92392" lon="6.52907">
        <ele>2447</ele>
        <time>2023-03-01T13:27:01Z</time>
      </trkpt>
      <trkpt lat="45.92383" lon="6.52898">
        <ele>2445</ele>
        <time>2023-03-01T13:27:03Z</time>
      </trkpt>
      <trkpt lat="45.92369" lon="6.52884">
        <ele>2442</ele>
        <time>2023-03-01T13:27:06Z</time>
      </trkpt>
      <trkpt lat="45.92359" lon="6.5287">
        <ele>2438</ele>
        <time>2023-03-01T13:27:08Z</time>
      </trkpt>
      <trkpt lat="45.92359" lon="6.52865">
        <ele>2432</ele>
        <time>2023-03-01T13:27:30Z</time>
      </trkpt>
      <trkpt lat="45.92366" lon="6.52867">
        <ele>2430</ele>
        <time>2023-03-01T13:27:32Z</time>
      </trkpt>
      <trkpt lat="45.92361" lon="6.5285">
        <ele>2426</ele>
        <time>2023-03-01T13:27:35Z</time>
      </trkpt>
      <trkpt lat="45.92352" lon="6.52834">
        <ele>2419</ele>
        <time>2023-03-01T13:27:37Z</time>
      </trkpt>
      <trkpt lat="45.92343" lon="6.52819">
        <ele>2414</ele>
        <time>2023-03-01T13:27:39Z</time>
      </trkpt>
      <trkpt lat="45.92334" lon="6.52805">
        <ele>2411</ele>
        <time>2023-03-01T13:27:41Z</time>
      </trkpt>
      <trkpt lat="45.92325" lon="6.52792">
        <ele>2407</ele>
        <time>2023-03-01T13:27:43Z</time>
      </trkpt>
      <trkpt lat="45.923" lon="6.52771">
        <ele>2402</ele>
        <time>2023-03-01T13:27:49Z</time>
      </trkpt>
      <trkpt lat="45.92295" lon="6.52768">
        <ele>2401</ele>
        <time>2023-03-01T13:28:43Z</time>
      </trkpt>
      <trkpt lat="45.92288" lon="6.52758">
        <ele>2395</ele>
        <time>2023-03-01T13:28:45Z</time>
      </trkpt>
      <trkpt lat="45.92283" lon="6.52751">
        <ele>2393</ele>
        <time>2023-03-01T13:28:46Z</time>
      </trkpt>
      <trkpt lat="45.92271" lon="6.52737">
        <ele>2388</ele>
        <time>2023-03-01T13:28:48Z</time>
      </trkpt>
      <trkpt lat="45.92225" lon="6.52645">
        <ele>2375</ele>
        <time>2023-03-01T13:29:01Z</time>
      </trkpt>
      <trkpt lat="45.92222" lon="6.52633">
        <ele>2374</ele>
        <time>2023-03-01T13:30:37Z</time>
      </trkpt>
      <trkpt lat="45.92224" lon="6.52621">
        <ele>2373</ele>
        <time>2023-03-01T13:30:41Z</time>
      </trkpt>
      <trkpt lat="45.92231" lon="6.52618">
        <ele>2373</ele>
        <time>2023-03-01T13:30:45Z</time>
      </trkpt>
      <trkpt lat="45.92238" lon="6.52623">
        <ele>2371</ele>
        <time>2023-03-01T13:30:48Z</time>
      </trkpt>
      <trkpt lat="45.92246" lon="6.52615">
        <ele>2370</ele>
        <time>2023-03-01T13:30:51Z</time>
      </trkpt>
      <trkpt lat="45.92248" lon="6.52625">
        <ele>2367</ele>
        <time>2023-03-01T13:32:19Z</time>
      </trkpt>
      <trkpt lat="45.92256" lon="6.52615">
        <ele>2367</ele>
        <time>2023-03-01T13:32:21Z</time>
      </trkpt>
      <trkpt lat="45.92255" lon="6.52602">
        <ele>2367</ele>
        <time>2023-03-01T13:32:23Z</time>
      </trkpt>
      <trkpt lat="45.92258" lon="6.52595">
        <ele>2362</ele>
        <time>2023-03-01T13:32:25Z</time>
      </trkpt>
      <trkpt lat="45.92263" lon="6.52598">
        <ele>2360</ele>
        <time>2023-03-01T13:32:27Z</time>
      </trkpt>
      <trkpt lat="45.92269" lon="6.52589">
        <ele>2359</ele>
        <time>2023-03-01T13:32:30Z</time>
      </trkpt>
      <trkpt lat="45.9227" lon="6.52582">
        <ele>2356</ele>
        <time>2023-03-01T13:33:10Z</time>
      </trkpt>
      <trkpt lat="45.92272" lon="6.52573">
        <ele>2356</ele>
        <time>2023-03-01T13:33:16Z</time>
      </trkpt>
      <trkpt lat="45.92272" lon="6.52563">
        <ele>2350</ele>
        <time>2023-03-01T13:33:17Z</time>
      </trkpt>
      <trkpt lat="45.92272" lon="6.52553">
        <ele>2347</ele>
        <time>2023-03-01T13:33:18Z</time>
      </trkpt>
      <trkpt lat="45.92277" lon="6.52533">
        <ele>2343</ele>
        <time>2023-03-01T13:33:20Z</time>
      </trkpt>
      <trkpt lat="45.92289" lon="6.52496">
        <ele>2337</ele>
        <time>2023-03-01T13:33:25Z</time>
      </trkpt>
      <trkpt lat="45.92294" lon="6.52483">
        <ele>2335</ele>
        <time>2023-03-01T13:33:28Z</time>
      </trkpt>
      <trkpt lat="45.92307" lon="6.52461">
        <ele>2331</ele>
        <time>2023-03-01T13:33:33Z</time>
      </trkpt>
      <trkpt lat="45.92311" lon="6.5245">
        <ele>2329</ele>
        <time>2023-03-01T13:33:35Z</time>
      </trkpt>
      <trkpt lat="45.92315" lon="6.5244">
        <ele>2327</ele>
        <time>2023-03-01T13:33:37Z</time>
      </trkpt>
      <trkpt lat="45.92315" lon="6.52423">
        <ele>2325</ele>
        <time>2023-03-01T13:33:42Z</time>
      </trkpt>
      <trkpt lat="45.92312" lon="6.52414">
        <ele>2322</ele>
        <time>2023-03-01T13:35:01Z</time>
      </trkpt>
      <trkpt lat="45.92311" lon="6.52402">
        <ele>2321</ele>
        <time>2023-03-01T13:35:03Z</time>
      </trkpt>
      <trkpt lat="45.92311" lon="6.52393">
        <ele>2320</ele>
        <time>2023-03-01T13:35:05Z</time>
      </trkpt>
      <trkpt lat="45.92319" lon="6.52391">
        <ele>2319</ele>
        <time>2023-03-01T13:35:08Z</time>
      </trkpt>
      <trkpt lat="45.92311" lon="6.5235">
        <ele>2310</ele>
        <time>2023-03-01T13:35:16Z</time>
      </trkpt>
      <trkpt lat="45.92317" lon="6.52351">
        <ele>2310</ele>
        <time>2023-03-01T13:35:43Z</time>
      </trkpt>
      <trkpt lat="45.92318" lon="6.52341">
        <ele>2309</ele>
        <time>2023-03-01T13:35:46Z</time>
      </trkpt>
      <trkpt lat="45.92317" lon="6.52319">
        <ele>2308</ele>
        <time>2023-03-01T13:35:50Z</time>
      </trkpt>
      <trkpt lat="45.92321" lon="6.52301">
        <ele>2306</ele>
        <time>2023-03-01T13:35:55Z</time>
      </trkpt>
      <trkpt lat="45.92326" lon="6.52288">
        <ele>2300</ele>
        <time>2023-03-01T13:36:49Z</time>
      </trkpt>
      <trkpt lat="45.92331" lon="6.52281">
        <ele>2300</ele>
        <time>2023-03-01T13:36:53Z</time>
      </trkpt>
      <trkpt lat="45.92335" lon="6.52268">
        <ele>2292</ele>
        <time>2023-03-01T13:36:55Z</time>
      </trkpt>
      <trkpt lat="45.92341" lon="6.52259">
        <ele>2287</ele>
        <time>2023-03-01T13:36:59Z</time>
      </trkpt>
      <trkpt lat="45.92342" lon="6.52238">
        <ele>2280</ele>
        <time>2023-03-01T13:37:02Z</time>
      </trkpt>
      <trkpt lat="45.92346" lon="6.52221">
        <ele>2276</ele>
        <time>2023-03-01T13:37:08Z</time>
      </trkpt>
      <trkpt lat="45.92349" lon="6.52212">
        <ele>2273</ele>
        <time>2023-03-01T13:37:37Z</time>
      </trkpt>
      <trkpt lat="45.92345" lon="6.52201">
        <ele>2267</ele>
        <time>2023-03-01T13:38:34Z</time>
      </trkpt>
      <trkpt lat="45.92333" lon="6.52158">
        <ele>2246</ele>
        <time>2023-03-01T13:38:43Z</time>
      </trkpt>
      <trkpt lat="45.92327" lon="6.52144">
        <ele>2244</ele>
        <time>2023-03-01T13:38:52Z</time>
      </trkpt>
      <trkpt lat="45.92303" lon="6.521">
        <ele>2241</ele>
        <time>2023-03-01T13:39:11Z</time>
      </trkpt>
      <trkpt lat="45.92299" lon="6.52091">
        <ele>2241</ele>
        <time>2023-03-01T13:39:13Z</time>
      </trkpt>
      <trkpt lat="45.92306" lon="6.52079">
        <ele>2240</ele>
        <time>2023-03-01T13:39:17Z</time>
      </trkpt>
      <trkpt lat="45.92311" lon="6.52066">
        <ele>2238</ele>
        <time>2023-03-01T13:39:21Z</time>
      </trkpt>
      <trkpt lat="45.92313" lon="6.52068">
        <ele>2237</ele>
        <time>2023-03-01T13:40:10Z</time>
      </trkpt>
      <trkpt lat="45.92312" lon="6.52058">
        <ele>2237</ele>
        <time>2023-03-01T13:40:12Z</time>
      </trkpt>
      <trkpt lat="45.92312" lon="6.52046">
        <ele>2236</ele>
        <time>2023-03-01T13:40:14Z</time>
      </trkpt>
      <trkpt lat="45.92327" lon="6.51986">
        <ele>2233</ele>
        <time>2023-03-01T13:40:20Z</time>
      </trkpt>
      <trkpt lat="45.92339" lon="6.51965">
        <ele>2231</ele>
        <time>2023-03-01T13:40:23Z</time>
      </trkpt>
      <trkpt lat="45.92343" lon="6.51956">
        <ele>2230</ele>
        <time>2023-03-01T13:40:26Z</time>
      </trkpt>
      <trkpt lat="45.92344" lon="6.51946">
        <ele>2230</ele>
        <time>2023-03-01T13:40:29Z</time>
      </trkpt>
      <trkpt lat="45.92342" lon="6.51939">
        <ele>2229</ele>
        <time>2023-03-01T13:40:31Z</time>
      </trkpt>
      <trkpt lat="45.92337" lon="6.5193">
        <ele>2228</ele>
        <time>2023-03-01T13:41:05Z</time>
      </trkpt>
      <trkpt lat="45.92336" lon="6.51918">
        <ele>2224</ele>
        <time>2023-03-01T13:41:07Z</time>
      </trkpt>
      <trkpt lat="45.92332" lon="6.51906">
        <ele>2221</ele>
        <time>2023-03-01T13:41:09Z</time>
      </trkpt>
      <trkpt lat="45.92327" lon="6.51896">
        <ele>2219</ele>
        <time>2023-03-01T13:41:11Z</time>
      </trkpt>
      <trkpt lat="45.92325" lon="6.51887">
        <ele>2218</ele>
        <time>2023-03-01T13:41:13Z</time>
      </trkpt>
      <trkpt lat="45.92325" lon="6.51874">
        <ele>2215</ele>
        <time>2023-03-01T13:41:15Z</time>
      </trkpt>
      <trkpt lat="45.92329" lon="6.51858">
        <ele>2213</ele>
        <time>2023-03-01T13:41:17Z</time>
      </trkpt>
      <trkpt lat="45.92336" lon="6.51843">
        <ele>2212</ele>
        <time>2023-03-01T13:41:19Z</time>
      </trkpt>
      <trkpt lat="45.92346" lon="6.51819">
        <ele>2208</ele>
        <time>2023-03-01T13:42:20Z</time>
      </trkpt>
      <trkpt lat="45.92351" lon="6.51791">
        <ele>2206</ele>
        <time>2023-03-01T13:42:32Z</time>
      </trkpt>
      <trkpt lat="45.92356" lon="6.51793">
        <ele>2203</ele>
        <time>2023-03-01T13:43:22Z</time>
      </trkpt>
      <trkpt lat="45.92357" lon="6.51803">
        <ele>2201</ele>
        <time>2023-03-01T13:43:39Z</time>
      </trkpt>
      <trkpt lat="45.92358" lon="6.51812">
        <ele>2200</ele>
        <time>2023-03-01T13:43:43Z</time>
      </trkpt>
      <trkpt lat="45.92363" lon="6.51831">
        <ele>2197</ele>
        <time>2023-03-01T13:45:06Z</time>
      </trkpt>
      <trkpt lat="45.92364" lon="6.51845">
        <ele>2195</ele>
        <time>2023-03-01T13:45:12Z</time>
      </trkpt>
      <trkpt lat="45.92379" lon="6.51864">
        <ele>2191</ele>
        <time>2023-03-01T13:45:18Z</time>
      </trkpt>
      <trkpt lat="45.92433" lon="6.51907">
        <ele>2188</ele>
        <time>2023-03-01T13:46:03Z</time>
      </trkpt>
      <trkpt lat="45.92439" lon="6.51913">
        <ele>2187</ele>
        <time>2023-03-01T13:46:10Z</time>
      </trkpt>
      <trkpt lat="45.92459" lon="6.51919">
        <ele>2186</ele>
        <time>2023-03-01T13:46:17Z</time>
      </trkpt>
      <trkpt lat="45.92464" lon="6.51919">
        <ele>2186</ele>
        <time>2023-03-01T13:46:20Z</time>
      </trkpt>
      <trkpt lat="45.9247" lon="6.51912">
        <ele>2185</ele>
        <time>2023-03-01T13:46:34Z</time>
      </trkpt>
      <trkpt lat="45.92474" lon="6.51894">
        <ele>2183</ele>
        <time>2023-03-01T13:46:36Z</time>
      </trkpt>
      <trkpt lat="45.92477" lon="6.51885">
        <ele>2182</ele>
        <time>2023-03-01T13:46:37Z</time>
      </trkpt>
      <trkpt lat="45.92501" lon="6.51849">
        <ele>2179</ele>
        <time>2023-03-01T13:46:42Z</time>
      </trkpt>
      <trkpt lat="45.92507" lon="6.51844">
        <ele>2178</ele>
        <time>2023-03-01T13:46:45Z</time>
      </trkpt>
      <trkpt lat="45.92514" lon="6.51847">
        <ele>2178</ele>
        <time>2023-03-01T13:46:47Z</time>
      </trkpt>
      <trkpt lat="45.92516" lon="6.51853">
        <ele>2177</ele>
        <time>2023-03-01T13:46:54Z</time>
      </trkpt>
      <trkpt lat="45.92522" lon="6.51857">
        <ele>2175</ele>
        <time>2023-03-01T13:49:30Z</time>
      </trkpt>
      <trkpt lat="45.92527" lon="6.51858">
        <ele>2172</ele>
        <time>2023-03-01T13:49:32Z</time>
      </trkpt>
      <trkpt lat="45.92528" lon="6.51848">
        <ele>2171</ele>
        <time>2023-03-01T13:49:34Z</time>
      </trkpt>
      <trkpt lat="45.92536" lon="6.51851">
        <ele>2167</ele>
        <time>2023-03-01T13:49:37Z</time>
      </trkpt>
      <trkpt lat="45.92538" lon="6.5184">
        <ele>2166</ele>
        <time>2023-03-01T13:49:39Z</time>
      </trkpt>
      <trkpt lat="45.92547" lon="6.51839">
        <ele>2162</ele>
        <time>2023-03-01T13:49:42Z</time>
      </trkpt>
      <trkpt lat="45.92557" lon="6.51845">
        <ele>2160</ele>
        <time>2023-03-01T13:49:45Z</time>
      </trkpt>
      <trkpt lat="45.92562" lon="6.51845">
        <ele>2159</ele>
        <time>2023-03-01T13:49:56Z</time>
      </trkpt>
      <trkpt lat="45.92567" lon="6.51856">
        <ele>2159</ele>
        <time>2023-03-01T13:49:58Z</time>
      </trkpt>
      <trkpt lat="45.92574" lon="6.51852">
        <ele>2158</ele>
        <time>2023-03-01T13:50:00Z</time>
      </trkpt>
      <trkpt lat="45.92576" lon="6.51845">
        <ele>2157</ele>
        <time>2023-03-01T13:50:03Z</time>
      </trkpt>
      <trkpt lat="45.92586" lon="6.51863">
        <ele>2155</ele>
        <time>2023-03-01T13:50:07Z</time>
      </trkpt>
      <trkpt lat="45.92592" lon="6.51869">
        <ele>2155</ele>
        <time>2023-03-01T13:50:09Z</time>
      </trkpt>
      <trkpt lat="45.92595" lon="6.51853">
        <ele>2155</ele>
        <time>2023-03-01T13:50:12Z</time>
      </trkpt>
      <trkpt lat="45.92604" lon="6.51856">
        <ele>2152</ele>
        <time>2023-03-01T13:50:17Z</time>
      </trkpt>
      <trkpt lat="45.92623" lon="6.51866">
        <ele>2144</ele>
        <time>2023-03-01T13:51:00Z</time>
      </trkpt>
      <trkpt lat="45.92626" lon="6.51871">
        <ele>2142</ele>
        <time>2023-03-01T13:51:19Z</time>
      </trkpt>
      <trkpt lat="45.9263" lon="6.51871">
        <ele>2135</ele>
        <time>2023-03-01T13:53:50Z</time>
      </trkpt>
      <trkpt lat="45.92637" lon="6.5187">
        <ele>2133</ele>
        <time>2023-03-01T13:53:52Z</time>
      </trkpt>
      <trkpt lat="45.92641" lon="6.51869">
        <ele>2130</ele>
        <time>2023-03-01T13:53:53Z</time>
      </trkpt>
      <trkpt lat="45.92643" lon="6.51859">
        <ele>2127</ele>
        <time>2023-03-01T13:53:55Z</time>
      </trkpt>
      <trkpt lat="45.92643" lon="6.51851">
        <ele>2123</ele>
        <time>2023-03-01T13:53:57Z</time>
      </trkpt>
      <trkpt lat="45.92651" lon="6.5185">
        <ele>2120</ele>
        <time>2023-03-01T13:53:59Z</time>
      </trkpt>
      <trkpt lat="45.927" lon="6.51862">
        <ele>2111</ele>
        <time>2023-03-01T13:54:12Z</time>
      </trkpt>
      <trkpt lat="45.92708" lon="6.51866">
        <ele>2111</ele>
        <time>2023-03-01T13:54:16Z</time>
      </trkpt>
      <trkpt lat="45.92718" lon="6.51867">
        <ele>2110</ele>
        <time>2023-03-01T13:55:25Z</time>
      </trkpt>
      <trkpt lat="45.92718" lon="6.51851">
        <ele>2110</ele>
        <time>2023-03-01T13:55:29Z</time>
      </trkpt>
      <trkpt lat="45.92723" lon="6.51837">
        <ele>2108</ele>
        <time>2023-03-01T13:55:33Z</time>
      </trkpt>
      <trkpt lat="45.92746" lon="6.51809">
        <ele>2105</ele>
        <time>2023-03-01T13:55:45Z</time>
      </trkpt>
      <trkpt lat="45.92749" lon="6.51796">
        <ele>2100</ele>
        <time>2023-03-01T13:56:53Z</time>
      </trkpt>
      <trkpt lat="45.92757" lon="6.51785">
        <ele>2090</ele>
        <time>2023-03-01T13:56:56Z</time>
      </trkpt>
      <trkpt lat="45.92762" lon="6.51767">
        <ele>2083</ele>
        <time>2023-03-01T13:57:00Z</time>
      </trkpt>
      <trkpt lat="45.92771" lon="6.51755">
        <ele>2075</ele>
        <time>2023-03-01T13:57:03Z</time>
      </trkpt>
      <trkpt lat="45.92781" lon="6.51747">
        <ele>2069</ele>
        <time>2023-03-01T13:57:06Z</time>
      </trkpt>
      <trkpt lat="45.92789" lon="6.51737">
        <ele>2063</ele>
        <time>2023-03-01T13:57:09Z</time>
      </trkpt>
      <trkpt lat="45.92798" lon="6.51721">
        <ele>2058</ele>
        <time>2023-03-01T13:57:12Z</time>
      </trkpt>
      <trkpt lat="45.92814" lon="6.51727">
        <ele>2053</ele>
        <time>2023-03-01T13:57:15Z</time>
      </trkpt>
      <trkpt lat="45.92827" lon="6.5173">
        <ele>2050</ele>
        <time>2023-03-01T13:57:17Z</time>
      </trkpt>
      <trkpt lat="45.92831" lon="6.51706">
        <ele>2047</ele>
        <time>2023-03-01T13:57:21Z</time>
      </trkpt>
      <trkpt lat="45.92841" lon="6.51697">
        <ele>2042</ele>
        <time>2023-03-01T13:57:25Z</time>
      </trkpt>
      <trkpt lat="45.92848" lon="6.51691">
        <ele>2038</ele>
        <time>2023-03-01T13:57:30Z</time>
      </trkpt>
      <trkpt lat="45.92852" lon="6.51694">
        <ele>2032</ele>
        <time>2023-03-01T13:58:22Z</time>
      </trkpt>
      <trkpt lat="45.92858" lon="6.51684">
        <ele>2029</ele>
        <time>2023-03-01T13:58:35Z</time>
      </trkpt>
      <trkpt lat="45.92868" lon="6.51673">
        <ele>2018</ele>
        <time>2023-03-01T13:58:38Z</time>
      </trkpt>
      <trkpt lat="45.92873" lon="6.51656">
        <ele>2010</ele>
        <time>2023-03-01T13:58:41Z</time>
      </trkpt>
      <trkpt lat="45.92869" lon="6.51641">
        <ele>2003</ele>
        <time>2023-03-01T13:58:43Z</time>
      </trkpt>
      <trkpt lat="45.92872" lon="6.51616">
        <ele>1998</ele>
        <time>2023-03-01T13:58:48Z</time>
      </trkpt>
      <trkpt lat="45.92869" lon="6.51593">
        <ele>1993</ele>
        <time>2023-03-01T13:58:53Z</time>
      </trkpt>
      <trkpt lat="45.92871" lon="6.51572">
        <ele>1992</ele>
        <time>2023-03-01T13:58:59Z</time>
      </trkpt>
      <trkpt lat="45.92877" lon="6.51549">
        <ele>1988</ele>
        <time>2023-03-01T13:59:04Z</time>
      </trkpt>
      <trkpt lat="45.92887" lon="6.51539">
        <ele>1982</ele>
        <time>2023-03-01T13:59:08Z</time>
      </trkpt>
      <trkpt lat="45.92891" lon="6.51521">
        <ele>1976</ele>
        <time>2023-03-01T13:59:12Z</time>
      </trkpt>
      <trkpt lat="45.92902" lon="6.51513">
        <ele>1964</ele>
        <time>2023-03-01T13:59:15Z</time>
      </trkpt>
      <trkpt lat="45.92896" lon="6.51491">
        <ele>1958</ele>
        <time>2023-03-01T13:59:18Z</time>
      </trkpt>
      <trkpt lat="45.9291" lon="6.51482">
        <ele>1948</ele>
        <time>2023-03-01T13:59:21Z</time>
      </trkpt>
      <trkpt lat="45.92908" lon="6.51466">
        <ele>1944</ele>
        <time>2023-03-01T13:59:24Z</time>
      </trkpt>
      <trkpt lat="45.92903" lon="6.51464">
        <ele>1935</ele>
        <time>2023-03-01T14:01:29Z</time>
      </trkpt>
      <trkpt lat="45.92909" lon="6.5146">
        <ele>1935</ele>
        <time>2023-03-01T14:01:33Z</time>
      </trkpt>
      <trkpt lat="45.92927" lon="6.51461">
        <ele>1919</ele>
        <time>2023-03-01T14:01:37Z</time>
      </trkpt>
      <trkpt lat="45.92932" lon="6.51447">
        <ele>1914</ele>
        <time>2023-03-01T14:01:41Z</time>
      </trkpt>
      <trkpt lat="45.92929" lon="6.51434">
        <ele>1912</ele>
        <time>2023-03-01T14:01:44Z</time>
      </trkpt>
      <trkpt lat="45.92937" lon="6.51429">
        <ele>1911</ele>
        <time>2023-03-01T14:01:46Z</time>
      </trkpt>
      <trkpt lat="45.92941" lon="6.51412">
        <ele>1910</ele>
        <time>2023-03-01T14:01:52Z</time>
      </trkpt>
      <trkpt lat="45.92948" lon="6.5141">
        <ele>1909</ele>
        <time>2023-03-01T14:01:54Z</time>
      </trkpt>
      <trkpt lat="45.92951" lon="6.51393">
        <ele>1908</ele>
        <time>2023-03-01T14:02:00Z</time>
      </trkpt>
      <trkpt lat="45.92958" lon="6.51371">
        <ele>1904</ele>
        <time>2023-03-01T14:02:03Z</time>
      </trkpt>
      <trkpt lat="45.92954" lon="6.51353">
        <ele>1902</ele>
        <time>2023-03-01T14:02:05Z</time>
      </trkpt>
      <trkpt lat="45.92946" lon="6.51338">
        <ele>1897</ele>
        <time>2023-03-01T14:02:07Z</time>
      </trkpt>
      <trkpt lat="45.92942" lon="6.51336">
        <ele>1887</ele>
        <time>2023-03-01T14:04:17Z</time>
      </trkpt>
      <trkpt lat="45.92943" lon="6.51329">
        <ele>1885</ele>
        <time>2023-03-01T14:05:13Z</time>
      </trkpt>
      <trkpt lat="45.92948" lon="6.51319">
        <ele>1885</ele>
        <time>2023-03-01T14:05:16Z</time>
      </trkpt>
      <trkpt lat="45.9295" lon="6.51312">
        <ele>1874</ele>
        <time>2023-03-01T14:05:17Z</time>
      </trkpt>
      <trkpt lat="45.92949" lon="6.51304">
        <ele>1870</ele>
        <time>2023-03-01T14:05:18Z</time>
      </trkpt>
      <trkpt lat="45.92948" lon="6.51295">
        <ele>1864</ele>
        <time>2023-03-01T14:05:19Z</time>
      </trkpt>
      <trkpt lat="45.9295" lon="6.51282">
        <ele>1859</ele>
        <time>2023-03-01T14:05:21Z</time>
      </trkpt>
      <trkpt lat="45.92948" lon="6.51266">
        <ele>1854</ele>
        <time>2023-03-01T14:05:23Z</time>
      </trkpt>
      <trkpt lat="45.92955" lon="6.51258">
        <ele>1852</ele>
        <time>2023-03-01T14:05:25Z</time>
      </trkpt>
      <trkpt lat="45.92965" lon="6.51254">
        <ele>1849</ele>
        <time>2023-03-01T14:05:27Z</time>
      </trkpt>
      <trkpt lat="45.92969" lon="6.51242">
        <ele>1848</ele>
        <time>2023-03-01T14:05:29Z</time>
      </trkpt>
      <trkpt lat="45.92964" lon="6.51228">
        <ele>1847</ele>
        <time>2023-03-01T14:05:31Z</time>
      </trkpt>
      <trkpt lat="45.92972" lon="6.51211">
        <ele>1846</ele>
        <time>2023-03-01T14:05:34Z</time>
      </trkpt>
      <trkpt lat="45.92972" lon="6.51199">
        <ele>1846</ele>
        <time>2023-03-01T14:05:36Z</time>
      </trkpt>
      <trkpt lat="45.92978" lon="6.51196">
        <ele>1846</ele>
        <time>2023-03-01T14:05:38Z</time>
      </trkpt>
      <trkpt lat="45.92986" lon="6.512">
        <ele>1845</ele>
        <time>2023-03-01T14:05:40Z</time>
      </trkpt>
      <trkpt lat="45.92995" lon="6.51197">
        <ele>1845</ele>
        <time>2023-03-01T14:05:42Z</time>
      </trkpt>
      <trkpt lat="45.92993" lon="6.51183">
        <ele>1844</ele>
        <time>2023-03-01T14:05:46Z</time>
      </trkpt>
      <trkpt lat="45.93024" lon="6.51174">
        <ele>1841</ele>
        <time>2023-03-01T14:05:53Z</time>
      </trkpt>
      <trkpt lat="45.93033" lon="6.51171">
        <ele>1840</ele>
        <time>2023-03-01T14:05:55Z</time>
      </trkpt>
      <trkpt lat="45.93039" lon="6.5116">
        <ele>1839</ele>
        <time>2023-03-01T14:05:57Z</time>
      </trkpt>
      <trkpt lat="45.93039" lon="6.5114">
        <ele>1835</ele>
        <time>2023-03-01T14:06:00Z</time>
      </trkpt>
      <trkpt lat="45.93042" lon="6.51125">
        <ele>1833</ele>
        <time>2023-03-01T14:06:02Z</time>
      </trkpt>
      <trkpt lat="45.93038" lon="6.51116">
        <ele>1831</ele>
        <time>2023-03-01T14:06:03Z</time>
      </trkpt>
      <trkpt lat="45.93038" lon="6.51097">
        <ele>1829</ele>
        <time>2023-03-01T14:06:05Z</time>
      </trkpt>
      <trkpt lat="45.93048" lon="6.51088">
        <ele>1825</ele>
        <time>2023-03-01T14:06:07Z</time>
      </trkpt>
      <trkpt lat="45.93049" lon="6.5107">
        <ele>1821</ele>
        <time>2023-03-01T14:06:09Z</time>
      </trkpt>
      <trkpt lat="45.93041" lon="6.51053">
        <ele>1819</ele>
        <time>2023-03-01T14:06:11Z</time>
      </trkpt>
      <trkpt lat="45.93037" lon="6.5103">
        <ele>1815</ele>
        <time>2023-03-01T14:06:13Z</time>
      </trkpt>
      <trkpt lat="45.93036" lon="6.51012">
        <ele>1813</ele>
        <time>2023-03-01T14:06:15Z</time>
      </trkpt>
      <trkpt lat="45.93029" lon="6.50985">
        <ele>1809</ele>
        <time>2023-03-01T14:06:19Z</time>
      </trkpt>
      <trkpt lat="45.93025" lon="6.50978">
        <ele>1808</ele>
        <time>2023-03-01T14:06:26Z</time>
      </trkpt>
      <trkpt lat="45.9302" lon="6.50978">
        <ele>1807</ele>
        <time>2023-03-01T14:06:44Z</time>
      </trkpt>
      <trkpt lat="45.93016" lon="6.50978">
        <ele>1802</ele>
        <time>2023-03-01T14:08:29Z</time>
      </trkpt>
      <trkpt lat="45.93006" lon="6.50944">
        <ele>1787</ele>
        <time>2023-03-01T14:08:35Z</time>
      </trkpt>
      <trkpt lat="45.93007" lon="6.50936">
        <ele>1785</ele>
        <time>2023-03-01T14:08:37Z</time>
      </trkpt>
      <trkpt lat="45.93013" lon="6.50935">
        <ele>1784</ele>
        <time>2023-03-01T14:08:39Z</time>
      </trkpt>
      <trkpt lat="45.93011" lon="6.50919">
        <ele>1782</ele>
        <time>2023-03-01T14:08:42Z</time>
      </trkpt>
      <trkpt lat="45.93008" lon="6.50909">
        <ele>1780</ele>
        <time>2023-03-01T14:08:44Z</time>
      </trkpt>
      <trkpt lat="45.93008" lon="6.50889">
        <ele>1778</ele>
        <time>2023-03-01T14:08:49Z</time>
      </trkpt>
      <trkpt lat="45.93" lon="6.50872">
        <ele>1776</ele>
        <time>2023-03-01T14:08:53Z</time>
      </trkpt>
      <trkpt lat="45.92998" lon="6.50862">
        <ele>1774</ele>
        <time>2023-03-01T14:09:47Z</time>
      </trkpt>
      <trkpt lat="45.93006" lon="6.5086">
        <ele>1772</ele>
        <time>2023-03-01T14:09:50Z</time>
      </trkpt>
      <trkpt lat="45.93014" lon="6.50865">
        <ele>1769</ele>
        <time>2023-03-01T14:09:52Z</time>
      </trkpt>
      <trkpt lat="45.93018" lon="6.50856">
        <ele>1767</ele>
        <time>2023-03-01T14:09:55Z</time>
      </trkpt>
      <trkpt lat="45.93013" lon="6.50847">
        <ele>1767</ele>
        <time>2023-03-01T14:09:57Z</time>
      </trkpt>
      <trkpt lat="45.93019" lon="6.50836">
        <ele>1765</ele>
        <time>2023-03-01T14:10:05Z</time>
      </trkpt>
      <trkpt lat="45.93006" lon="6.50811">
        <ele>1762</ele>
        <time>2023-03-01T14:10:10Z</time>
      </trkpt>
      <trkpt lat="45.93" lon="6.50796">
        <ele>1760</ele>
        <time>2023-03-01T14:10:13Z</time>
      </trkpt>
      <trkpt lat="45.92995" lon="6.50789">
        <ele>1756</ele>
        <time>2023-03-01T14:11:09Z</time>
      </trkpt>
      <trkpt lat="45.92993" lon="6.50782">
        <ele>1756</ele>
        <time>2023-03-01T14:11:21Z</time>
      </trkpt>
      <trkpt lat="45.92997" lon="6.50774">
        <ele>1755</ele>
        <time>2023-03-01T14:11:25Z</time>
      </trkpt>
      <trkpt lat="45.93001" lon="6.5077">
        <ele>1747</ele>
        <time>2023-03-01T14:11:33Z</time>
      </trkpt>
      <trkpt lat="45.93005" lon="6.50773">
        <ele>1746</ele>
        <time>2023-03-01T14:11:35Z</time>
      </trkpt>
      <trkpt lat="45.93012" lon="6.50764">
        <ele>1745</ele>
        <time>2023-03-01T14:11:40Z</time>
      </trkpt>
      <trkpt lat="45.93016" lon="6.50754">
        <ele>1741</ele>
        <time>2023-03-01T14:11:46Z</time>
      </trkpt>
      <trkpt lat="45.93019" lon="6.50743">
        <ele>1740</ele>
        <time>2023-03-01T14:11:48Z</time>
      </trkpt>
      <trkpt lat="45.93015" lon="6.50743">
        <ele>1734</ele>
        <time>2023-03-01T14:14:17Z</time>
      </trkpt>
      <trkpt lat="45.93011" lon="6.50732">
        <ele>1732</ele>
        <time>2023-03-01T14:15:23Z</time>
      </trkpt>
      <trkpt lat="45.92982" lon="6.50689">
        <ele>1716</ele>
        <time>2023-03-01T14:15:34Z</time>
      </trkpt>
      <trkpt lat="45.92975" lon="6.50682">
        <ele>1716</ele>
        <time>2023-03-01T14:15:38Z</time>
      </trkpt>
      <trkpt lat="45.92979" lon="6.50673">
        <ele>1715</ele>
        <time>2023-03-01T14:16:09Z</time>
      </trkpt>
      <trkpt lat="45.92982" lon="6.50668">
        <ele>1714</ele>
        <time>2023-03-01T14:16:16Z</time>
      </trkpt>
      <trkpt lat="45.92985" lon="6.50661">
        <ele>1713</ele>
        <time>2023-03-01T14:16:36Z</time>
      </trkpt>
      <trkpt lat="45.92983" lon="6.50649">
        <ele>1711</ele>
        <time>2023-03-01T14:17:07Z</time>
      </trkpt>
      <trkpt lat="45.92973" lon="6.50638">
        <ele>1710</ele>
        <time>2023-03-01T14:17:13Z</time>
      </trkpt>
      <trkpt lat="45.92944" lon="6.506">
        <ele>1707</ele>
        <time>2023-03-01T14:17:33Z</time>
      </trkpt>
      <trkpt lat="45.92937" lon="6.50588">
        <ele>1705</ele>
        <time>2023-03-01T14:18:41Z</time>
      </trkpt>
      <trkpt lat="45.92935" lon="6.50564">
        <ele>1700</ele>
        <time>2023-03-01T14:19:01Z</time>
      </trkpt>
      <trkpt lat="45.92931" lon="6.50555">
        <ele>1696</ele>
        <time>2023-03-01T14:19:15Z</time>
      </trkpt>
      <trkpt lat="45.92931" lon="6.50547">
        <ele>1695</ele>
        <time>2023-03-01T14:19:29Z</time>
      </trkpt>
      <trkpt lat="45.9293" lon="6.50539">
        <ele>1693</ele>
        <time>2023-03-01T14:19:40Z</time>
      </trkpt>
      <trkpt lat="45.92928" lon="6.50534">
        <ele>1692</ele>
        <time>2023-03-01T14:19:49Z</time>
      </trkpt>
      <trkpt lat="45.92923" lon="6.50531">
        <ele>1691</ele>
        <time>2023-03-01T14:20:06Z</time>
      </trkpt>
      <trkpt lat="45.92909" lon="6.50513">
        <ele>1689</ele>
        <time>2023-03-01T14:20:23Z</time>
      </trkpt>
      <trkpt lat="45.92904" lon="6.50506">
        <ele>1688</ele>
        <time>2023-03-01T14:20:25Z</time>
      </trkpt>
      <trkpt lat="45.92887" lon="6.50486">
        <ele>1687</ele>
        <time>2023-03-01T14:20:33Z</time>
      </trkpt>
      <trkpt lat="45.92884" lon="6.50476">
        <ele>1687</ele>
        <time>2023-03-01T14:21:42Z</time>
      </trkpt>
      <trkpt lat="45.92863" lon="6.50471">
        <ele>1685</ele>
        <time>2023-03-01T14:22:17Z</time>
      </trkpt>
      <trkpt lat="45.92867" lon="6.50467">
        <ele>1684</ele>
        <time>2023-03-01T14:22:44Z</time>
      </trkpt>
      <trkpt lat="45.9287" lon="6.50456">
        <ele>1683</ele>
        <time>2023-03-01T14:23:16Z</time>
      </trkpt>
      <trkpt lat="45.92871" lon="6.50448">
        <ele>1682</ele>
        <time>2023-03-01T14:23:25Z</time>
      </trkpt>
      <trkpt lat="45.92855" lon="6.50437">
        <ele>1680</ele>
        <time>2023-03-01T14:23:41Z</time>
      </trkpt>
      <trkpt lat="45.92852" lon="6.50428">
        <ele>1679</ele>
        <time>2023-03-01T14:24:00Z</time>
      </trkpt>
      <trkpt lat="45.92855" lon="6.50418">
        <ele>1679</ele>
        <time>2023-03-01T14:24:19Z</time>
      </trkpt>
      <trkpt lat="45.92861" lon="6.50418">
        <ele>1678</ele>
        <time>2023-03-01T14:24:21Z</time>
      </trkpt>
      <trkpt lat="45.92869" lon="6.50417">
        <ele>1677</ele>
        <time>2023-03-01T14:25:00Z</time>
      </trkpt>
      <trkpt lat="45.92867" lon="6.50407">
        <ele>1676</ele>
        <time>2023-03-01T14:25:48Z</time>
      </trkpt>
      <trkpt lat="45.92873" lon="6.50407">
        <ele>1673</ele>
        <time>2023-03-01T14:26:25Z</time>
      </trkpt>
      <trkpt lat="45.92878" lon="6.50404">
        <ele>1671</ele>
        <time>2023-03-01T14:27:03Z</time>
      </trkpt>
      <trkpt lat="45.92883" lon="6.50396">
        <ele>1668</ele>
        <time>2023-03-01T14:28:17Z</time>
      </trkpt>
      <trkpt lat="45.92887" lon="6.5039">
        <ele>1661</ele>
        <time>2023-03-01T14:29:17Z</time>
      </trkpt>
      <trkpt lat="45.92877" lon="6.50376">
        <ele>1659</ele>
        <time>2023-03-01T14:29:24Z</time>
      </trkpt>
      <trkpt lat="45.92871" lon="6.5037">
        <ele>1659</ele>
        <time>2023-03-01T14:29:26Z</time>
      </trkpt>
      <trkpt lat="45.92866" lon="6.50365">
        <ele>1659</ele>
        <time>2023-03-01T14:29:28Z</time>
      </trkpt>
      <trkpt lat="45.92863" lon="6.5035">
        <ele>1658</ele>
        <time>2023-03-01T14:29:31Z</time>
      </trkpt>
      <trkpt lat="45.92857" lon="6.50342">
        <ele>1658</ele>
        <time>2023-03-01T14:29:39Z</time>
      </trkpt>
      <trkpt lat="45.92854" lon="6.50332">
        <ele>1657</ele>
        <time>2023-03-01T14:29:42Z</time>
      </trkpt>
      <trkpt lat="45.92853" lon="6.50323">
        <ele>1656</ele>
        <time>2023-03-01T14:29:52Z</time>
      </trkpt>
      <trkpt lat="45.92852" lon="6.50315">
        <ele>1655</ele>
        <time>2023-03-01T14:29:59Z</time>
      </trkpt>
      <trkpt lat="45.92846" lon="6.50312">
        <ele>1653</ele>
        <time>2023-03-01T14:30:25Z</time>
      </trkpt>
      <trkpt lat="45.92841" lon="6.50302">
        <ele>1652</ele>
        <time>2023-03-01T14:30:39Z</time>
      </trkpt>
      <trkpt lat="45.92836" lon="6.5029">
        <ele>1648</ele>
        <time>2023-03-01T14:30:50Z</time>
      </trkpt>
      <trkpt lat="45.92825" lon="6.50288">
        <ele>1644</ele>
        <time>2023-03-01T14:31:25Z</time>
      </trkpt>
      <trkpt lat="45.92817" lon="6.50284">
        <ele>1643</ele>
        <time>2023-03-01T14:31:27Z</time>
      </trkpt>
      <trkpt lat="45.92808" lon="6.50277">
        <ele>1641</ele>
        <time>2023-03-01T14:31:32Z</time>
      </trkpt>
      <trkpt lat="45.92801" lon="6.50271">
        <ele>1639</ele>
        <time>2023-03-01T14:31:34Z</time>
      </trkpt>
      <trkpt lat="45.92809" lon="6.50256">
        <ele>1637</ele>
        <time>2023-03-01T14:31:38Z</time>
      </trkpt>
      <trkpt lat="45.92808" lon="6.50246">
        <ele>1634</ele>
        <time>2023-03-01T14:31:40Z</time>
      </trkpt>
      <trkpt lat="45.92813" lon="6.50239">
        <ele>1631</ele>
        <time>2023-03-01T14:32:40Z</time>
      </trkpt>
      <trkpt lat="45.92807" lon="6.50235">
        <ele>1625</ele>
        <time>2023-03-01T14:35:02Z</time>
      </trkpt>
      <trkpt lat="45.92793" lon="6.50225">
        <ele>1616</ele>
        <time>2023-03-01T14:35:06Z</time>
      </trkpt>
      <trkpt lat="45.92788" lon="6.50212">
        <ele>1612</ele>
        <time>2023-03-01T14:35:10Z</time>
      </trkpt>
      <trkpt lat="45.92781" lon="6.50204">
        <ele>1610</ele>
        <time>2023-03-01T14:35:12Z</time>
      </trkpt>
      <trkpt lat="45.92775" lon="6.50197">
        <ele>1608</ele>
        <time>2023-03-01T14:35:14Z</time>
      </trkpt>
      <trkpt lat="45.92765" lon="6.50183">
        <ele>1605</ele>
        <time>2023-03-01T14:35:26Z</time>
      </trkpt>
      <trkpt lat="45.92757" lon="6.5017">
        <ele>1603</ele>
        <time>2023-03-01T14:35:28Z</time>
      </trkpt>
      <trkpt lat="45.9275" lon="6.50165">
        <ele>1602</ele>
        <time>2023-03-01T14:35:30Z</time>
      </trkpt>
      <trkpt lat="45.92745" lon="6.50152">
        <ele>1600</ele>
        <time>2023-03-01T14:35:38Z</time>
      </trkpt>
      <trkpt lat="45.92734" lon="6.50131">
        <ele>1599</ele>
        <time>2023-03-01T14:35:42Z</time>
      </trkpt>
      <trkpt lat="45.9273" lon="6.50119">
        <ele>1598</ele>
        <time>2023-03-01T14:35:44Z</time>
      </trkpt>
      <trkpt lat="45.9272" lon="6.50102">
        <ele>1598</ele>
        <time>2023-03-01T14:35:48Z</time>
      </trkpt>
      <trkpt lat="45.92713" lon="6.50095">
        <ele>1598</ele>
        <time>2023-03-01T14:35:53Z</time>
      </trkpt>
      <trkpt lat="45.92702" lon="6.50099">
        <ele>1597</ele>
        <time>2023-03-01T14:35:56Z</time>
      </trkpt>
      <trkpt lat="45.92691" lon="6.50098">
        <ele>1597</ele>
        <time>2023-03-01T14:35:59Z</time>
      </trkpt>
      <trkpt lat="45.92688" lon="6.5009">
        <ele>1596</ele>
        <time>2023-03-01T14:36:14Z</time>
      </trkpt>
      <trkpt lat="45.92683" lon="6.5008">
        <ele>1596</ele>
        <time>2023-03-01T14:36:18Z</time>
      </trkpt>
      <trkpt lat="45.92678" lon="6.50074">
        <ele>1594</ele>
        <time>2023-03-01T14:37:34Z</time>
      </trkpt>
      <trkpt lat="45.92674" lon="6.50066">
        <ele>1591</ele>
        <time>2023-03-01T14:37:36Z</time>
      </trkpt>
      <trkpt lat="45.9267" lon="6.50056">
        <ele>1589</ele>
        <time>2023-03-01T14:37:38Z</time>
      </trkpt>
      <trkpt lat="45.92658" lon="6.50035">
        <ele>1586</ele>
        <time>2023-03-01T14:37:44Z</time>
      </trkpt>
      <trkpt lat="45.92653" lon="6.50027">
        <ele>1585</ele>
        <time>2023-03-01T14:37:47Z</time>
      </trkpt>
      <trkpt lat="45.92651" lon="6.50007">
        <ele>1584</ele>
        <time>2023-03-01T14:37:52Z</time>
      </trkpt>
      <trkpt lat="45.92646" lon="6.49987">
        <ele>1581</ele>
        <time>2023-03-01T14:37:56Z</time>
      </trkpt>
      <trkpt lat="45.92654" lon="6.49989">
        <ele>1579</ele>
        <time>2023-03-01T14:38:29Z</time>
      </trkpt>
      <trkpt lat="45.92661" lon="6.4998">
        <ele>1579</ele>
        <time>2023-03-01T14:38:33Z</time>
      </trkpt>
      <trkpt lat="45.92668" lon="6.49984">
        <ele>1578</ele>
        <time>2023-03-01T14:38:36Z</time>
      </trkpt>
      <trkpt lat="45.92672" lon="6.4997">
        <ele>1577</ele>
        <time>2023-03-01T14:38:39Z</time>
      </trkpt>
      <trkpt lat="45.92675" lon="6.49944">
        <ele>1574</ele>
        <time>2023-03-01T14:38:51Z</time>
      </trkpt>
      <trkpt lat="45.92675" lon="6.49927">
        <ele>1570</ele>
        <time>2023-03-01T14:38:55Z</time>
      </trkpt>
      <trkpt lat="45.92679" lon="6.49932">
        <ele>1568</ele>
        <time>2023-03-01T14:40:31Z</time>
      </trkpt>
      <trkpt lat="45.92685" lon="6.49925">
        <ele>1568</ele>
        <time>2023-03-01T14:41:10Z</time>
      </trkpt>
      <trkpt lat="45.92697" lon="6.49921">
        <ele>1563</ele>
        <time>2023-03-01T14:41:15Z</time>
      </trkpt>
      <trkpt lat="45.92708" lon="6.49912">
        <ele>1561</ele>
        <time>2023-03-01T14:41:22Z</time>
      </trkpt>
      <trkpt lat="45.92713" lon="6.49918">
        <ele>1560</ele>
        <time>2023-03-01T14:41:24Z</time>
      </trkpt>
      <trkpt lat="45.92724" lon="6.4992">
        <ele>1559</ele>
        <time>2023-03-01T14:41:28Z</time>
      </trkpt>
      <trkpt lat="45.92723" lon="6.49905">
        <ele>1558</ele>
        <time>2023-03-01T14:41:31Z</time>
      </trkpt>
      <trkpt lat="45.92731" lon="6.49893">
        <ele>1555</ele>
        <time>2023-03-01T14:41:37Z</time>
      </trkpt>
      <trkpt lat="45.92737" lon="6.49889">
        <ele>1554</ele>
        <time>2023-03-01T14:41:41Z</time>
      </trkpt>
      <trkpt lat="45.92734" lon="6.49877">
        <ele>1552</ele>
        <time>2023-03-01T14:41:46Z</time>
      </trkpt>
      <trkpt lat="45.92743" lon="6.49876">
        <ele>1551</ele>
        <time>2023-03-01T14:42:00Z</time>
      </trkpt>
      <trkpt lat="45.92752" lon="6.4987">
        <ele>1546</ele>
        <time>2023-03-01T14:42:06Z</time>
      </trkpt>
      <trkpt lat="45.92764" lon="6.49865">
        <ele>1543</ele>
        <time>2023-03-01T14:42:12Z</time>
      </trkpt>
      <trkpt lat="45.92772" lon="6.49867">
        <ele>1541</ele>
        <time>2023-03-01T14:42:16Z</time>
      </trkpt>
      <trkpt lat="45.92786" lon="6.49867">
        <ele>1538</ele>
        <time>2023-03-01T14:42:20Z</time>
      </trkpt>
      <trkpt lat="45.92786" lon="6.4985">
        <ele>1535</ele>
        <time>2023-03-01T14:42:26Z</time>
      </trkpt>
      <trkpt lat="45.92779" lon="6.49835">
        <ele>1527</ele>
        <time>2023-03-01T14:42:29Z</time>
      </trkpt>
      <trkpt lat="45.92787" lon="6.49817">
        <ele>1520</ele>
        <time>2023-03-01T14:42:36Z</time>
      </trkpt>
      <trkpt lat="45.92795" lon="6.49801">
        <ele>1511</ele>
        <time>2023-03-01T14:42:39Z</time>
      </trkpt>
      <trkpt lat="45.92797" lon="6.49785">
        <ele>1508</ele>
        <time>2023-03-01T14:42:41Z</time>
      </trkpt>
      <trkpt lat="45.92803" lon="6.49779">
        <ele>1505</ele>
        <time>2023-03-01T14:42:43Z</time>
      </trkpt>
      <trkpt lat="45.9281" lon="6.49761">
        <ele>1502</ele>
        <time>2023-03-01T14:42:54Z</time>
      </trkpt>
      <trkpt lat="45.92812" lon="6.49742">
        <ele>1497</ele>
        <time>2023-03-01T14:42:56Z</time>
      </trkpt>
      <trkpt lat="45.92817" lon="6.49732">
        <ele>1495</ele>
        <time>2023-03-01T14:42:57Z</time>
      </trkpt>
      <trkpt lat="45.92821" lon="6.4972">
        <ele>1492</ele>
        <time>2023-03-01T14:42:58Z</time>
      </trkpt>
      <trkpt lat="45.92826" lon="6.49705">
        <ele>1488</ele>
        <time>2023-03-01T14:42:59Z</time>
      </trkpt>
      <trkpt lat="45.92831" lon="6.49693">
        <ele>1486</ele>
        <time>2023-03-01T14:43:00Z</time>
      </trkpt>
      <trkpt lat="45.92835" lon="6.49681">
        <ele>1482</ele>
        <time>2023-03-01T14:43:01Z</time>
      </trkpt>
      <trkpt lat="45.92839" lon="6.49669">
        <ele>1479</ele>
        <time>2023-03-01T14:43:02Z</time>
      </trkpt>
      <trkpt lat="45.92843" lon="6.49659">
        <ele>1475</ele>
        <time>2023-03-01T14:43:03Z</time>
      </trkpt>
      <trkpt lat="45.92848" lon="6.49651">
        <ele>1473</ele>
        <time>2023-03-01T14:43:04Z</time>
      </trkpt>
      <trkpt lat="45.92852" lon="6.49643">
        <ele>1470</ele>
        <time>2023-03-01T14:43:05Z</time>
      </trkpt>
      <trkpt lat="45.92856" lon="6.49633">
        <ele>1467</ele>
        <time>2023-03-01T14:43:07Z</time>
      </trkpt>
      <trkpt lat="45.92862" lon="6.49635">
        <ele>1464</ele>
        <time>2023-03-01T14:44:09Z</time>
      </trkpt>
      <trkpt lat="45.9286" lon="6.49625">
        <ele>1463</ele>
        <time>2023-03-01T14:44:21Z</time>
      </trkpt>
      <trkpt lat="45.92852" lon="6.49603">
        <ele>1460</ele>
        <time>2023-03-01T14:45:42Z</time>
      </trkpt>
      <trkpt lat="45.92851" lon="6.49595">
        <ele>1460</ele>
        <time>2023-03-01T14:45:55Z</time>
      </trkpt>
      <trkpt lat="45.92856" lon="6.49573">
        <ele>1460</ele>
        <time>2023-03-01T14:46:32Z</time>
      </trkpt>
      <trkpt lat="45.92855" lon="6.49548">
        <ele>1461</ele>
        <time>2023-03-01T14:46:54Z</time>
      </trkpt>
      <trkpt lat="45.92851" lon="6.49538">
        <ele>1462</ele>
        <time>2023-03-01T14:47:03Z</time>
      </trkpt>
      <trkpt lat="45.92847" lon="6.49532">
        <ele>1463</ele>
        <time>2023-03-01T14:47:11Z</time>
      </trkpt>
      <trkpt lat="45.92843" lon="6.49525">
        <ele>1464</ele>
        <time>2023-03-01T14:47:22Z</time>
      </trkpt>
      <trkpt lat="45.92837" lon="6.49517">
        <ele>1466</ele>
        <time>2023-03-01T14:47:34Z</time>
      </trkpt>
      <trkpt lat="45.92819" lon="6.495">
        <ele>1471</ele>
        <time>2023-03-01T14:48:04Z</time>
      </trkpt>
      <trkpt lat="45.92811" lon="6.49498">
        <ele>1472</ele>
        <time>2023-03-01T14:48:14Z</time>
      </trkpt>
      <trkpt lat="45.92808" lon="6.49501">
        <ele>1473</ele>
        <time>2023-03-01T14:48:21Z</time>
      </trkpt>
      <trkpt lat="45.92805" lon="6.49498">
        <ele>1474</ele>
        <time>2023-03-01T14:48:26Z</time>
      </trkpt>
      <trkpt lat="45.92801" lon="6.49496">
        <ele>1475</ele>
        <time>2023-03-01T14:48:33Z</time>
      </trkpt>
      <trkpt lat="45.92794" lon="6.49491">
        <ele>1476</ele>
        <time>2023-03-01T14:48:42Z</time>
      </trkpt>
      <trkpt lat="45.9279" lon="6.4949">
        <ele>1476</ele>
        <time>2023-03-01T14:48:48Z</time>
      </trkpt>
      <trkpt lat="45.92786" lon="6.49489">
        <ele>1477</ele>
        <time>2023-03-01T14:48:52Z</time>
      </trkpt>
      <trkpt lat="45.92782" lon="6.49486">
        <ele>1477</ele>
        <time>2023-03-01T14:48:57Z</time>
      </trkpt>
      <trkpt lat="45.92773" lon="6.4948">
        <ele>1479</ele>
        <time>2023-03-01T14:49:15Z</time>
      </trkpt>
      <trkpt lat="45.92769" lon="6.49478">
        <ele>1480</ele>
        <time>2023-03-01T14:49:24Z</time>
      </trkpt>
      <trkpt lat="45.92767" lon="6.49474">
        <ele>1480</ele>
        <time>2023-03-01T14:49:30Z</time>
      </trkpt>
      <trkpt lat="45.9276" lon="6.49468">
        <ele>1481</ele>
        <time>2023-03-01T14:49:39Z</time>
      </trkpt>
      <trkpt lat="45.92757" lon="6.49468">
        <ele>1481</ele>
        <time>2023-03-01T14:49:46Z</time>
      </trkpt>
      <trkpt lat="45.92755" lon="6.49472">
        <ele>1481</ele>
        <time>2023-03-01T14:49:51Z</time>
      </trkpt>
      <trkpt lat="45.92752" lon="6.49473">
        <ele>1482</ele>
        <time>2023-03-01T14:49:56Z</time>
      </trkpt>
      <trkpt lat="45.92747" lon="6.49473">
        <ele>1482</ele>
        <time>2023-03-01T14:50:05Z</time>
      </trkpt>
      <trkpt lat="45.92743" lon="6.49469">
        <ele>1483</ele>
        <time>2023-03-01T14:50:10Z</time>
      </trkpt>
      <trkpt lat="45.9274" lon="6.49465">
        <ele>1483</ele>
        <time>2023-03-01T14:50:14Z</time>
      </trkpt>
      <trkpt lat="45.92737" lon="6.49463">
        <ele>1483</ele>
        <time>2023-03-01T14:50:18Z</time>
      </trkpt>
      <trkpt lat="45.92735" lon="6.49459">
        <ele>1484</ele>
        <time>2023-03-01T14:50:24Z</time>
      </trkpt>
      <trkpt lat="45.92731" lon="6.49458">
        <ele>1484</ele>
        <time>2023-03-01T14:50:33Z</time>
      </trkpt>
      <trkpt lat="45.92726" lon="6.49453">
        <ele>1484</ele>
        <time>2023-03-01T14:50:39Z</time>
      </trkpt>
      <trkpt lat="45.92722" lon="6.49447">
        <ele>1484</ele>
        <time>2023-03-01T14:50:46Z</time>
      </trkpt>
      <trkpt lat="45.92719" lon="6.49445">
        <ele>1482</ele>
        <time>2023-03-01T15:05:14Z</time>
      </trkpt>
      <trkpt lat="45.92721" lon="6.49439">
        <ele>1484</ele>
        <time>2023-03-01T15:06:21Z</time>
      </trkpt>
      <trkpt lat="45.92727" lon="6.49399">
        <ele>1487</ele>
        <time>2023-03-01T15:06:28Z</time>
      </trkpt>
      <trkpt lat="45.92726" lon="6.49382">
        <ele>1487</ele>
        <time>2023-03-01T15:06:30Z</time>
      </trkpt>
      <trkpt lat="45.92724" lon="6.49375">
        <ele>1487</ele>
        <time>2023-03-01T15:06:31Z</time>
      </trkpt>
      <trkpt lat="45.92721" lon="6.4937">
        <ele>1487</ele>
        <time>2023-03-01T15:06:32Z</time>
      </trkpt>
      <trkpt lat="45.92715" lon="6.4936">
        <ele>1487</ele>
        <time>2023-03-01T15:06:34Z</time>
      </trkpt>
      <trkpt lat="45.92711" lon="6.49345">
        <ele>1487</ele>
        <time>2023-03-01T15:06:36Z</time>
      </trkpt>
      <trkpt lat="45.92706" lon="6.49314">
        <ele>1486</ele>
        <time>2023-03-01T15:06:40Z</time>
      </trkpt>
      <trkpt lat="45.92703" lon="6.49304">
        <ele>1486</ele>
        <time>2023-03-01T15:06:43Z</time>
      </trkpt>
      <trkpt lat="45.9269" lon="6.49284">
        <ele>1486</ele>
        <time>2023-03-01T15:06:53Z</time>
      </trkpt>
      <trkpt lat="45.92684" lon="6.49278">
        <ele>1486</ele>
        <time>2023-03-01T15:06:55Z</time>
      </trkpt>
      <trkpt lat="45.92669" lon="6.49271">
        <ele>1486</ele>
        <time>2023-03-01T15:06:59Z</time>
      </trkpt>
      <trkpt lat="45.92666" lon="6.49269">
        <ele>1486</ele>
        <time>2023-03-01T15:07:01Z</time>
      </trkpt>
      <trkpt lat="45.92661" lon="6.49267">
        <ele>1486</ele>
        <time>2023-03-01T15:07:09Z</time>
      </trkpt>
      <trkpt lat="45.92654" lon="6.49264">
        <ele>1486</ele>
        <time>2023-03-01T15:07:20Z</time>
      </trkpt>
      <trkpt lat="45.92652" lon="6.49263">
        <ele>1485</ele>
        <time>2023-03-01T15:07:24Z</time>
      </trkpt>
      <trkpt lat="45.92642" lon="6.49258">
        <ele>1485</ele>
        <time>2023-03-01T15:07:39Z</time>
      </trkpt>
      <trkpt lat="45.92639" lon="6.49256">
        <ele>1485</ele>
        <time>2023-03-01T15:07:46Z</time>
      </trkpt>
      <trkpt lat="45.92636" lon="6.49253">
        <ele>1485</ele>
        <time>2023-03-01T15:07:52Z</time>
      </trkpt>
      <trkpt lat="45.92633" lon="6.4925">
        <ele>1484</ele>
        <time>2023-03-01T15:07:57Z</time>
      </trkpt>
      <trkpt lat="45.92631" lon="6.49246">
        <ele>1484</ele>
        <time>2023-03-01T15:08:02Z</time>
      </trkpt>
      <trkpt lat="45.92628" lon="6.49242">
        <ele>1484</ele>
        <time>2023-03-01T15:08:08Z</time>
      </trkpt>
      <trkpt lat="45.92626" lon="6.49239">
        <ele>1484</ele>
        <time>2023-03-01T15:08:13Z</time>
      </trkpt>
      <trkpt lat="45.92624" lon="6.49236">
        <ele>1484</ele>
        <time>2023-03-01T15:08:19Z</time>
      </trkpt>
      <trkpt lat="45.92622" lon="6.49234">
        <ele>1484</ele>
        <time>2023-03-01T15:08:22Z</time>
      </trkpt>
      <trkpt lat="45.92619" lon="6.49233">
        <ele>1484</ele>
        <time>2023-03-01T15:08:27Z</time>
      </trkpt>
      <trkpt lat="45.92617" lon="6.49231">
        <ele>1484</ele>
        <time>2023-03-01T15:08:31Z</time>
      </trkpt>
      <trkpt lat="45.92607" lon="6.49227">
        <ele>1484</ele>
        <time>2023-03-01T15:08:44Z</time>
      </trkpt>
      <trkpt lat="45.92598" lon="6.49223">
        <ele>1485</ele>
        <time>2023-03-01T15:08:59Z</time>
      </trkpt>
      <trkpt lat="45.9259" lon="6.49221">
        <ele>1485</ele>
        <time>2023-03-01T15:09:09Z</time>
      </trkpt>
      <trkpt lat="45.92587" lon="6.49222">
        <ele>1485</ele>
        <time>2023-03-01T15:09:16Z</time>
      </trkpt>
      <trkpt lat="45.92583" lon="6.4922">
        <ele>1485</ele>
        <time>2023-03-01T15:09:21Z</time>
      </trkpt>
      <trkpt lat="45.9258" lon="6.4922">
        <ele>1485</ele>
        <time>2023-03-01T15:09:26Z</time>
      </trkpt>
      <trkpt lat="45.92576" lon="6.4922">
        <ele>1486</ele>
        <time>2023-03-01T15:09:33Z</time>
      </trkpt>
      <trkpt lat="45.92559" lon="6.49221">
        <ele>1486</ele>
        <time>2023-03-01T15:09:58Z</time>
      </trkpt>
      <trkpt lat="45.9254" lon="6.49218">
        <ele>1486</ele>
        <time>2023-03-01T15:10:29Z</time>
      </trkpt>
      <trkpt lat="45.92536" lon="6.49216">
        <ele>1486</ele>
        <time>2023-03-01T15:10:35Z</time>
      </trkpt>
      <trkpt lat="45.92532" lon="6.49214">
        <ele>1486</ele>
        <time>2023-03-01T15:10:44Z</time>
      </trkpt>
      <trkpt lat="45.92524" lon="6.49209">
        <ele>1486</ele>
        <time>2023-03-01T15:10:59Z</time>
      </trkpt>
      <trkpt lat="45.92513" lon="6.49207">
        <ele>1486</ele>
        <time>2023-03-01T15:11:12Z</time>
      </trkpt>
      <trkpt lat="45.92505" lon="6.49203">
        <ele>1487</ele>
        <time>2023-03-01T15:11:18Z</time>
      </trkpt>
      <trkpt lat="45.92501" lon="6.49201">
        <ele>1487</ele>
        <time>2023-03-01T15:11:22Z</time>
      </trkpt>
      <trkpt lat="45.92495" lon="6.49198">
        <ele>1487</ele>
        <time>2023-03-01T15:11:33Z</time>
      </trkpt>
      <trkpt lat="45.92493" lon="6.49194">
        <ele>1487</ele>
        <time>2023-03-01T15:11:37Z</time>
      </trkpt>
      <trkpt lat="45.9249" lon="6.49191">
        <ele>1487</ele>
        <time>2023-03-01T15:11:41Z</time>
      </trkpt>
      <trkpt lat="45.92488" lon="6.49186">
        <ele>1487</ele>
        <time>2023-03-01T15:11:48Z</time>
      </trkpt>
      <trkpt lat="45.92486" lon="6.49181">
        <ele>1487</ele>
        <time>2023-03-01T15:11:53Z</time>
      </trkpt>
      <trkpt lat="45.92474" lon="6.49169">
        <ele>1488</ele>
        <time>2023-03-01T15:13:06Z</time>
      </trkpt>
      <trkpt lat="45.92464" lon="6.49154">
        <ele>1489</ele>
        <time>2023-03-01T15:13:20Z</time>
      </trkpt>
      <trkpt lat="45.92449" lon="6.49127">
        <ele>1489</ele>
        <time>2023-03-01T15:13:32Z</time>
      </trkpt>
      <trkpt lat="45.92441" lon="6.49117">
        <ele>1490</ele>
        <time>2023-03-01T15:13:35Z</time>
      </trkpt>
      <trkpt lat="45.92432" lon="6.4911">
        <ele>1490</ele>
        <time>2023-03-01T15:13:38Z</time>
      </trkpt>
      <trkpt lat="45.92429" lon="6.49109">
        <ele>1490</ele>
        <time>2023-03-01T15:13:58Z</time>
      </trkpt>
      <trkpt lat="45.92425" lon="6.4911">
        <ele>1490</ele>
        <time>2023-03-01T15:14:03Z</time>
      </trkpt>
      <trkpt lat="45.92422" lon="6.49108">
        <ele>1490</ele>
        <time>2023-03-01T15:14:23Z</time>
      </trkpt>
      <trkpt lat="45.92419" lon="6.49109">
        <ele>1490</ele>
        <time>2023-03-01T15:14:25Z</time>
      </trkpt>
      <trkpt lat="45.92416" lon="6.4911">
        <ele>1490</ele>
        <time>2023-03-01T15:14:28Z</time>
      </trkpt>
      <trkpt lat="45.9241" lon="6.49111">
        <ele>1490</ele>
        <time>2023-03-01T15:14:35Z</time>
      </trkpt>
      <trkpt lat="45.92406" lon="6.49111">
        <ele>1490</ele>
        <time>2023-03-01T15:14:40Z</time>
      </trkpt>
      <trkpt lat="45.92403" lon="6.49109">
        <ele>1490</ele>
        <time>2023-03-01T15:14:44Z</time>
      </trkpt>
      <trkpt lat="45.92397" lon="6.49112">
        <ele>1490</ele>
        <time>2023-03-01T15:14:52Z</time>
      </trkpt>
      <trkpt lat="45.9239" lon="6.49114">
        <ele>1490</ele>
        <time>2023-03-01T15:15:02Z</time>
      </trkpt>
      <trkpt lat="45.92387" lon="6.49116">
        <ele>1490</ele>
        <time>2023-03-01T15:15:06Z</time>
      </trkpt>
      <trkpt lat="45.9238" lon="6.49114">
        <ele>1490</ele>
        <time>2023-03-01T15:15:15Z</time>
      </trkpt>
      <trkpt lat="45.92377" lon="6.49113">
        <ele>1490</ele>
        <time>2023-03-01T15:15:19Z</time>
      </trkpt>
      <trkpt lat="45.92373" lon="6.49112">
        <ele>1490</ele>
        <time>2023-03-01T15:15:23Z</time>
      </trkpt>
      <trkpt lat="45.92357" lon="6.49093">
        <ele>1489</ele>
        <time>2023-03-01T15:15:48Z</time>
      </trkpt>
      <trkpt lat="45.92352" lon="6.49086">
        <ele>1489</ele>
        <time>2023-03-01T15:15:54Z</time>
      </trkpt>
      <trkpt lat="45.9235" lon="6.49083">
        <ele>1489</ele>
        <time>2023-03-01T15:15:57Z</time>
      </trkpt>
      <trkpt lat="45.92346" lon="6.49079">
        <ele>1488</ele>
        <time>2023-03-01T15:16:01Z</time>
      </trkpt>
      <trkpt lat="45.92337" lon="6.4907">
        <ele>1488</ele>
        <time>2023-03-01T15:16:12Z</time>
      </trkpt>
      <trkpt lat="45.92335" lon="6.49069">
        <ele>1487</ele>
        <time>2023-03-01T15:16:15Z</time>
      </trkpt>
      <trkpt lat="45.92332" lon="6.49066">
        <ele>1487</ele>
        <time>2023-03-01T15:16:19Z</time>
      </trkpt>
      <trkpt lat="45.92329" lon="6.49065">
        <ele>1487</ele>
        <time>2023-03-01T15:16:22Z</time>
      </trkpt>
      <trkpt lat="45.92326" lon="6.49063">
        <ele>1487</ele>
        <time>2023-03-01T15:16:25Z</time>
      </trkpt>
      <trkpt lat="45.92323" lon="6.49061">
        <ele>1486</ele>
        <time>2023-03-01T15:16:28Z</time>
      </trkpt>
      <trkpt lat="45.9232" lon="6.49059">
        <ele>1486</ele>
        <time>2023-03-01T15:16:31Z</time>
      </trkpt>
      <trkpt lat="45.92311" lon="6.49059">
        <ele>1485</ele>
        <time>2023-03-01T15:16:41Z</time>
      </trkpt>
      <trkpt lat="45.92308" lon="6.49057">
        <ele>1485</ele>
        <time>2023-03-01T15:16:44Z</time>
      </trkpt>
      <trkpt lat="45.92306" lon="6.4906">
        <ele>1485</ele>
        <time>2023-03-01T15:17:02Z</time>
      </trkpt>
      <trkpt lat="45.92302" lon="6.49057">
        <ele>1484</ele>
        <time>2023-03-01T15:17:39Z</time>
      </trkpt>
      <trkpt lat="45.92291" lon="6.49047">
        <ele>1480</ele>
        <time>2023-03-01T15:17:42Z</time>
      </trkpt>
      <trkpt lat="45.92241" lon="6.48979">
        <ele>1472</ele>
        <time>2023-03-01T15:17:51Z</time>
      </trkpt>
      <trkpt lat="45.92226" lon="6.4895">
        <ele>1470</ele>
        <time>2023-03-01T15:17:54Z</time>
      </trkpt>
      <trkpt lat="45.92172" lon="6.48885">
        <ele>1468</ele>
        <time>2023-03-01T15:18:03Z</time>
      </trkpt>
      <trkpt lat="45.92168" lon="6.48879">
        <ele>1467</ele>
        <time>2023-03-01T15:18:04Z</time>
      </trkpt>
      <trkpt lat="45.92165" lon="6.48872">
        <ele>1467</ele>
        <time>2023-03-01T15:18:05Z</time>
      </trkpt>
      <trkpt lat="45.92163" lon="6.48866">
        <ele>1467</ele>
        <time>2023-03-01T15:18:06Z</time>
      </trkpt>
      <trkpt lat="45.92165" lon="6.48854">
        <ele>1467</ele>
        <time>2023-03-01T15:18:08Z</time>
      </trkpt>
      <trkpt lat="45.9218" lon="6.48831">
        <ele>1466</ele>
        <time>2023-03-01T15:18:41Z</time>
      </trkpt>
      <trkpt lat="45.92184" lon="6.48818">
        <ele>1464</ele>
        <time>2023-03-01T15:18:53Z</time>
      </trkpt>
      <trkpt lat="45.92184" lon="6.48811">
        <ele>1463</ele>
        <time>2023-03-01T15:19:00Z</time>
      </trkpt>
      <trkpt lat="45.92182" lon="6.48804">
        <ele>1463</ele>
        <time>2023-03-01T15:19:07Z</time>
      </trkpt>
      <trkpt lat="45.92181" lon="6.48798">
        <ele>1462</ele>
        <time>2023-03-01T15:19:13Z</time>
      </trkpt>
      <trkpt lat="45.92175" lon="6.4878">
        <ele>1461</ele>
        <time>2023-03-01T15:19:25Z</time>
      </trkpt>
      <trkpt lat="45.92171" lon="6.48771">
        <ele>1461</ele>
        <time>2023-03-01T15:19:33Z</time>
      </trkpt>
      <trkpt lat="45.92169" lon="6.48767">
        <ele>1461</ele>
        <time>2023-03-01T15:19:37Z</time>
      </trkpt>
      <trkpt lat="45.92168" lon="6.48762">
        <ele>1461</ele>
        <time>2023-03-01T15:19:41Z</time>
      </trkpt>
      <trkpt lat="45.92165" lon="6.48756">
        <ele>1460</ele>
        <time>2023-03-01T15:19:46Z</time>
      </trkpt>
      <trkpt lat="45.92165" lon="6.48751">
        <ele>1460</ele>
        <time>2023-03-01T15:19:51Z</time>
      </trkpt>
      <trkpt lat="45.92162" lon="6.48738">
        <ele>1460</ele>
        <time>2023-03-01T15:20:01Z</time>
      </trkpt>
      <trkpt lat="45.92159" lon="6.48728">
        <ele>1460</ele>
        <time>2023-03-01T15:20:09Z</time>
      </trkpt>
      <trkpt lat="45.92155" lon="6.48718">
        <ele>1460</ele>
        <time>2023-03-01T15:20:18Z</time>
      </trkpt>
      <trkpt lat="45.92153" lon="6.48713">
        <ele>1460</ele>
        <time>2023-03-01T15:20:22Z</time>
      </trkpt>
      <trkpt lat="45.92151" lon="6.48708">
        <ele>1460</ele>
        <time>2023-03-01T15:20:27Z</time>
      </trkpt>
      <trkpt lat="45.92149" lon="6.48703">
        <ele>1460</ele>
        <time>2023-03-01T15:20:31Z</time>
      </trkpt>
      <trkpt lat="45.92146" lon="6.48698">
        <ele>1460</ele>
        <time>2023-03-01T15:20:38Z</time>
      </trkpt>
      <trkpt lat="45.92142" lon="6.48696">
        <ele>1460</ele>
        <time>2023-03-01T15:20:42Z</time>
      </trkpt>
      <trkpt lat="45.92139" lon="6.48693">
        <ele>1460</ele>
        <time>2023-03-01T15:20:45Z</time>
      </trkpt>
      <trkpt lat="45.92127" lon="6.48671">
        <ele>1461</ele>
        <time>2023-03-01T15:21:05Z</time>
      </trkpt>
      <trkpt lat="45.92124" lon="6.48668">
        <ele>1461</ele>
        <time>2023-03-01T15:21:10Z</time>
      </trkpt>
      <trkpt lat="45.92121" lon="6.48663">
        <ele>1461</ele>
        <time>2023-03-01T15:21:14Z</time>
      </trkpt>
      <trkpt lat="45.9212" lon="6.48657">
        <ele>1461</ele>
        <time>2023-03-01T15:21:18Z</time>
      </trkpt>
      <trkpt lat="45.9212" lon="6.48643">
        <ele>1462</ele>
        <time>2023-03-01T15:21:29Z</time>
      </trkpt>
      <trkpt lat="45.92121" lon="6.48632">
        <ele>1462</ele>
        <time>2023-03-01T15:21:37Z</time>
      </trkpt>
      <trkpt lat="45.92133" lon="6.48597">
        <ele>1463</ele>
        <time>2023-03-01T15:22:05Z</time>
      </trkpt>
      <trkpt lat="45.92138" lon="6.48581">
        <ele>1463</ele>
        <time>2023-03-01T15:22:19Z</time>
      </trkpt>
      <trkpt lat="45.92144" lon="6.48564">
        <ele>1463</ele>
        <time>2023-03-01T15:22:31Z</time>
      </trkpt>
      <trkpt lat="45.92145" lon="6.48547">
        <ele>1463</ele>
        <time>2023-03-01T15:22:43Z</time>
      </trkpt>
      <trkpt lat="45.92148" lon="6.48515">
        <ele>1464</ele>
        <time>2023-03-01T15:23:06Z</time>
      </trkpt>
      <trkpt lat="45.92149" lon="6.48512">
        <ele>1464</ele>
        <time>2023-03-01T15:23:08Z</time>
      </trkpt>
      <trkpt lat="45.92149" lon="6.48509">
        <ele>1464</ele>
        <time>2023-03-01T15:23:10Z</time>
      </trkpt>
      <trkpt lat="45.92151" lon="6.48503">
        <ele>1464</ele>
        <time>2023-03-01T15:23:15Z</time>
      </trkpt>
      <trkpt lat="45.92154" lon="6.485">
        <ele>1464</ele>
        <time>2023-03-01T15:23:19Z</time>
      </trkpt>
      <trkpt lat="45.9216" lon="6.48497">
        <ele>1464</ele>
        <time>2023-03-01T15:23:25Z</time>
      </trkpt>
      <trkpt lat="45.92162" lon="6.48494">
        <ele>1464</ele>
        <time>2023-03-01T15:23:28Z</time>
      </trkpt>
      <trkpt lat="45.92164" lon="6.4849">
        <ele>1464</ele>
        <time>2023-03-01T15:23:31Z</time>
      </trkpt>
      <trkpt lat="45.92167" lon="6.48483">
        <ele>1464</ele>
        <time>2023-03-01T15:23:37Z</time>
      </trkpt>
      <trkpt lat="45.92169" lon="6.48479">
        <ele>1464</ele>
        <time>2023-03-01T15:23:41Z</time>
      </trkpt>
      <trkpt lat="45.92171" lon="6.48476">
        <ele>1463</ele>
        <time>2023-03-01T15:23:45Z</time>
      </trkpt>
      <trkpt lat="45.92191" lon="6.48451">
        <ele>1463</ele>
        <time>2023-03-01T15:24:09Z</time>
      </trkpt>
      <trkpt lat="45.92196" lon="6.48445">
        <ele>1462</ele>
        <time>2023-03-01T15:24:18Z</time>
      </trkpt>
      <trkpt lat="45.92212" lon="6.48431">
        <ele>1461</ele>
        <time>2023-03-01T15:24:38Z</time>
      </trkpt>
      <trkpt lat="45.9222" lon="6.48425">
        <ele>1460</ele>
        <time>2023-03-01T15:24:49Z</time>
      </trkpt>
      <trkpt lat="45.92225" lon="6.48419">
        <ele>1460</ele>
        <time>2023-03-01T15:24:55Z</time>
      </trkpt>
      <trkpt lat="45.92229" lon="6.48413">
        <ele>1460</ele>
        <time>2023-03-01T15:25:01Z</time>
      </trkpt>
      <trkpt lat="45.92235" lon="6.48407">
        <ele>1459</ele>
        <time>2023-03-01T15:25:08Z</time>
      </trkpt>
      <trkpt lat="45.92237" lon="6.48404">
        <ele>1459</ele>
        <time>2023-03-01T15:25:11Z</time>
      </trkpt>
      <trkpt lat="45.92248" lon="6.48402">
        <ele>1458</ele>
        <time>2023-03-01T15:25:23Z</time>
      </trkpt>
      <trkpt lat="45.92251" lon="6.48401">
        <ele>1458</ele>
        <time>2023-03-01T15:25:26Z</time>
      </trkpt>
      <trkpt lat="45.92255" lon="6.48399">
        <ele>1458</ele>
        <time>2023-03-01T15:25:31Z</time>
      </trkpt>
      <trkpt lat="45.92261" lon="6.48396">
        <ele>1457</ele>
        <time>2023-03-01T15:25:37Z</time>
      </trkpt>
      <trkpt lat="45.92264" lon="6.48394">
        <ele>1457</ele>
        <time>2023-03-01T15:25:41Z</time>
      </trkpt>
      <trkpt lat="45.92265" lon="6.4839">
        <ele>1456</ele>
        <time>2023-03-01T15:25:46Z</time>
      </trkpt>
      <trkpt lat="45.92262" lon="6.48388">
        <ele>1456</ele>
        <time>2023-03-01T15:26:52Z</time>
      </trkpt>
    </trkseg>
  </trk>
</gpx>